Time,TemperatureF,DewpointF,PressureIn,WindDirection,WindDirectionDegrees,WindSpeedMPH,WindSpeedGustMPH,Humidity,HourlyPrecipIn,Conditions,Clouds,dailyrainin,SoftwareType,DateUTC
2015-04-27 00:00:00,42.3,26.4,29.15,North,355,0.0,2.0,53,0.00,,---,0.00,VWS V14.01,2015-04-27 07:00:00,
2015-04-27 00:01:00,42.4,26.5,29.14,North,355,0.0,2.0,53,0.00,,---,0.00,VWS V14.01,2015-04-27 07:01:00,
2015-04-27 00:02:00,42.4,26.5,29.14,North,355,1.0,1.0,53,0.00,,---,0.00,VWS V14.01,2015-04-27 07:02:00,
2015-04-27 00:03:00,42.4,26.5,29.14,North,355,0.0,1.0,53,0.00,,---,0.00,VWS V14.01,2015-04-27 07:03:00,
2015-04-27 00:04:00,42.4,26.5,29.14,North,355,1.0,2.0,53,0.00,,---,0.00,VWS V14.01,2015-04-27 07:04:00,
2015-04-27 00:05:00,42.4,26.5,29.14,North,355,2.0,3.0,53,0.00,,---,0.00,VWS V14.01,2015-04-27 07:05:00,
2015-04-27 00:06:00,42.4,26.5,29.14,North,355,1.0,3.0,53,0.00,,---,0.00,VWS V14.01,2015-04-27 07:06:00,
2015-04-27 00:07:00,42.5,26.6,29.14,North,355,1.0,3.0,53,0.00,,---,0.00,VWS V14.01,2015-04-27 07:07:00,
2015-04-27 00:08:00,42.5,26.6,29.14,North,355,0.0,2.0,53,0.00,,---,0.00,VWS V14.01,2015-04-27 07:08:00,
2015-04-27 00:09:00,42.5,26.6,29.14,North,355,0.0,1.0,53,0.00,,---,0.00,VWS V14.01,2015-04-27 07:09:00,
2015-04-27 00:10:00,42.5,26.6,29.14,North,355,0.0,0.0,53,0.00,,---,0.00,VWS V14.01,2015-04-27 07:10:00,
2015-04-27 00:11:00,42.5,26.6,29.14,North,355,0.0,0.0,53,0.00,,---,0.00,VWS V14.01,2015-04-27 07:11:00,
2015-04-27 00:12:00,42.5,26.6,29.14,North,355,0.0,0.0,53,0.00,,---,0.00,VWS V14.01,2015-04-27 07:12:00,
2015-04-27 00:13:00,42.5,26.6,29.14,North,355,0.0,0.0,53,0.00,,---,0.00,VWS V14.01,2015-04-27 07:13:00,
2015-04-27 00:14:00,42.5,26.6,29.14,North,355,0.0,0.0,53,0.00,,---,0.00,VWS V14.01,2015-04-27 07:14:00,
2015-04-27 00:15:00,42.5,26.6,29.14,North,355,0.0,0.0,53,0.00,,---,0.00,VWS V14.01,2015-04-27 07:15:00,
2015-04-27 00:16:00,42.5,26.6,29.14,North,355,0.0,0.0,53,0.00,,---,0.00,VWS V14.01,2015-04-27 07:16:00,
2015-04-27 00:17:00,42.6,26.7,29.14,North,355,0.0,0.0,53,0.00,,---,0.00,VWS V14.01,2015-04-27 07:17:00,
2015-04-27 00:18:00,42.6,26.7,29.14,North,355,0.0,0.0,53,0.00,,---,0.00,VWS V14.01,2015-04-27 07:18:00,
2015-04-27 00:19:00,42.5,26.6,29.14,North,355,0.0,0.0,53,0.00,,---,0.00,VWS V14.01,2015-04-27 07:19:00,
2015-04-27 00:20:00,42.5,26.6,29.15,North,355,0.0,0.0,53,0.00,,---,0.00,VWS V14.01,2015-04-27 07:20:00,
2015-04-27 00:21:00,46.3,26.7,29.16,North,5,1.0,3.0,46,0.00,,---,0.00,VWS V14.01,2015-04-27 07:21:00,
2015-04-27 00:22:00,42.5,26.6,29.15,North,355,0.0,0.0,53,0.00,,---,0.00,VWS V14.01,2015-04-27 07:22:00,
2015-04-27 00:23:00,42.5,26.6,29.15,North,355,0.0,0.0,53,0.00,,---,0.00,VWS V14.01,2015-04-27 07:23:00,
2015-04-27 00:24:00,42.5,26.6,29.15,North,355,0.0,0.0,53,0.00,,---,0.00,VWS V14.01,2015-04-27 07:24:00,
2015-04-27 00:25:00,42.6,26.7,29.15,North,355,0.0,0.0,53,0.00,,---,0.00,VWS V14.01,2015-04-27 07:25:00,
2015-04-27 00:26:00,42.6,26.7,29.15,North,355,0.0,0.0,53,0.00,,---,0.00,VWS V14.01,2015-04-27 07:26:00,
2015-04-27 00:27:00,42.6,26.7,29.15,North,355,0.0,0.0,53,0.00,,---,0.00,VWS V14.01,2015-04-27 07:27:00,
2015-04-27 00:28:00,42.6,26.7,29.15,North,355,0.0,0.0,53,0.00,,---,0.00,VWS V14.01,2015-04-27 07:28:00,
2015-04-27 00:29:00,42.6,26.7,29.15,North,355,0.0,0.0,53,0.00,,---,0.00,VWS V14.01,2015-04-27 07:29:00,
2015-04-27 00:30:00,42.6,26.7,29.15,North,355,0.0,0.0,53,0.00,,---,0.00,VWS V14.01,2015-04-27 07:30:00,
2015-04-27 00:31:00,42.6,26.7,29.15,North,355,0.0,0.0,53,0.00,,---,0.00,VWS V14.01,2015-04-27 07:31:00,
2015-04-27 00:32:00,42.6,26.7,29.15,North,355,0.0,0.0,53,0.00,,---,0.00,VWS V14.01,2015-04-27 07:32:00,
2015-04-27 00:33:00,42.6,26.7,29.15,North,355,0.0,0.0,53,0.00,,---,0.00,VWS V14.01,2015-04-27 07:33:00,
2015-04-27 00:34:00,42.6,26.7,29.15,North,355,0.0,0.0,53,0.00,,---,0.00,VWS V14.01,2015-04-27 07:34:00,
2015-04-27 00:35:00,42.6,26.7,29.15,North,355,0.0,0.0,53,0.00,,---,0.00,VWS V14.01,2015-04-27 07:35:00,
2015-04-27 00:36:00,42.6,26.7,29.15,North,355,0.0,0.0,53,0.00,,---,0.00,VWS V14.01,2015-04-27 07:36:00,
2015-04-27 00:37:00,42.6,26.7,29.15,North,355,0.0,0.0,53,0.00,,---,0.00,VWS V14.01,2015-04-27 07:37:00,
2015-04-27 00:38:00,42.5,26.6,29.15,North,355,0.0,0.0,53,0.00,,---,0.00,VWS V14.01,2015-04-27 07:38:00,
2015-04-27 00:39:00,42.5,26.6,29.15,North,355,0.0,0.0,53,0.00,,---,0.00,VWS V14.01,2015-04-27 07:39:00,
2015-04-27 00:40:00,42.5,26.6,29.15,North,355,0.0,1.0,53,0.00,,---,0.00,VWS V14.01,2015-04-27 07:40:00,
2015-04-27 00:41:00,42.5,26.6,29.16,North,355,1.0,1.0,53,0.00,,---,0.00,VWS V14.01,2015-04-27 07:41:00,
2015-04-27 00:42:00,42.5,26.6,29.15,North,355,2.0,2.0,53,0.00,,---,0.00,VWS V14.01,2015-04-27 07:42:00,
2015-04-27 00:43:00,42.5,26.6,29.16,North,355,3.0,3.0,53,0.00,,---,0.00,VWS V14.01,2015-04-27 07:43:00,
2015-04-27 00:44:00,42.4,26.5,29.16,North,355,3.0,3.0,53,0.00,,---,0.00,VWS V14.01,2015-04-27 07:44:00,
2015-04-27 00:45:00,42.4,26.5,29.16,North,355,3.0,3.0,53,0.00,,---,0.00,VWS V14.01,2015-04-27 07:45:00,
2015-04-27 00:46:00,42.4,26.5,29.16,North,355,2.0,3.0,53,0.00,,---,0.00,VWS V14.01,2015-04-27 07:46:00,
2015-04-27 00:47:00,42.4,26.5,29.16,North,355,4.0,4.0,53,0.00,,---,0.00,VWS V14.01,2015-04-27 07:47:00,
2015-04-27 00:48:00,42.4,26.5,29.15,North,355,4.0,5.0,53,0.00,,---,0.00,VWS V14.01,2015-04-27 07:48:00,
2015-04-27 00:49:00,42.3,26.4,29.15,North,360,3.0,5.0,53,0.00,,---,0.00,VWS V14.01,2015-04-27 07:49:00,
2015-04-27 00:50:00,42.2,26.8,29.15,North,360,4.0,5.0,54,0.00,,---,0.00,VWS V14.01,2015-04-27 07:50:00,
2015-04-27 00:51:00,42.1,26.7,29.15,North,355,5.0,7.0,54,0.00,,---,0.00,VWS V14.01,2015-04-27 07:51:00,
2015-04-27 00:52:00,42.0,26.6,29.15,North,355,4.0,7.0,54,0.00,,---,0.00,VWS V14.01,2015-04-27 07:52:00,
2015-04-27 00:53:00,41.8,26.4,29.15,North,355,4.0,6.0,54,0.00,,---,0.00,VWS V14.01,2015-04-27 07:53:00,
2015-04-27 00:54:00,41.7,26.7,29.16,North,355,4.0,6.0,55,0.00,,---,0.00,VWS V14.01,2015-04-27 07:54:00,
2015-04-27 00:55:00,41.6,26.6,29.16,North,355,5.0,5.0,55,0.00,,---,0.00,VWS V14.01,2015-04-27 07:55:00,
2015-04-27 00:56:00,41.5,26.5,29.16,NNE,13,5.0,7.0,55,0.00,,---,0.00,VWS V14.01,2015-04-27 07:56:00,
2015-04-27 00:57:00,41.4,26.5,29.15,NNE,12,5.0,7.0,55,0.00,,---,0.00,VWS V14.01,2015-04-27 07:57:00,
2015-04-27 00:58:00,41.3,26.8,29.15,NNE,13,5.0,7.0,56,0.00,,---,0.00,VWS V14.01,2015-04-27 07:58:00,
2015-04-27 00:59:00,41.2,26.7,29.15,NNE,15,4.0,6.0,56,0.00,,---,0.00,VWS V14.01,2015-04-27 07:59:00,
2015-04-27 01:00:00,41.1,26.6,29.15,North,9,6.0,7.0,56,0.00,,---,0.00,VWS V14.01,2015-04-27 08:00:00,
2015-04-27 01:01:00,41.0,27.0,29.15,North,360,5.0,7.0,57,0.00,,---,0.00,VWS V14.01,2015-04-27 08:01:00,
2015-04-27 01:02:00,40.8,26.8,29.15,North,360,5.0,7.0,57,0.00,,---,0.00,VWS V14.01,2015-04-27 08:02:00,
2015-04-27 01:03:00,40.7,27.1,29.15,North,5,5.0,7.0,58,0.00,,---,0.00,VWS V14.01,2015-04-27 08:03:00,
2015-04-27 01:04:00,40.5,26.9,29.15,North,5,8.0,8.0,58,0.00,,---,0.00,VWS V14.01,2015-04-27 08:04:00,
2015-04-27 01:05:00,40.3,27.1,29.15,North,355,5.0,8.0,59,0.00,,---,0.00,VWS V14.01,2015-04-27 08:05:00,
2015-04-27 01:06:00,40.2,27.0,29.16,North,360,6.0,8.0,59,0.00,,---,0.00,VWS V14.01,2015-04-27 08:06:00,
2015-04-27 01:07:00,40.1,26.9,29.16,North,360,6.0,7.0,59,0.00,,---,0.00,VWS V14.01,2015-04-27 08:07:00,
2015-04-27 01:08:00,40.0,27.2,29.15,North,9,7.0,7.0,60,0.00,,---,0.00,VWS V14.01,2015-04-27 08:08:00,
2015-04-27 01:09:00,39.9,27.2,29.15,North,5,5.0,7.0,60,0.00,,---,0.00,VWS V14.01,2015-04-27 08:09:00,
2015-04-27 01:10:00,39.8,27.1,29.15,North,355,4.0,7.0,60,0.00,,---,0.00,VWS V14.01,2015-04-27 08:10:00,
2015-04-27 01:11:00,39.8,27.1,29.15,North,360,4.0,6.0,60,0.00,,---,0.00,VWS V14.01,2015-04-27 08:11:00,
2015-04-27 01:12:00,39.7,27.0,29.15,North,5,5.0,6.0,60,0.00,,---,0.00,VWS V14.01,2015-04-27 08:12:00,
2015-04-27 01:13:00,39.7,27.4,29.15,North,9,6.0,6.0,61,0.00,,---,0.00,VWS V14.01,2015-04-27 08:13:00,
2015-04-27 01:14:00,39.6,27.3,29.15,North,9,6.0,6.0,61,0.00,,---,0.00,VWS V14.01,2015-04-27 08:14:00,
2015-04-27 01:15:00,39.6,27.3,29.15,North,5,6.0,7.0,61,0.00,,---,0.00,VWS V14.01,2015-04-27 08:15:00,
2015-04-27 01:16:00,39.6,27.3,29.15,North,5,4.0,7.0,61,0.00,,---,0.00,VWS V14.01,2015-04-27 08:16:00,
2015-04-27 01:17:00,39.5,27.2,29.15,North,5,4.0,6.0,61,0.00,,---,0.00,VWS V14.01,2015-04-27 08:17:00,
2015-04-27 01:18:00,39.5,27.2,29.16,North,5,3.0,5.0,61,0.00,,---,0.00,VWS V14.01,2015-04-27 08:18:00,
2015-04-27 01:19:00,39.5,27.2,29.15,North,360,5.0,6.0,61,0.00,,---,0.00,VWS V14.01,2015-04-27 08:19:00,
2015-04-27 01:20:00,39.5,27.2,29.16,North,355,4.0,6.0,61,0.00,,---,0.00,VWS V14.01,2015-04-27 08:20:00,
2015-04-27 01:21:00,39.5,27.6,29.16,North,360,5.0,6.0,62,0.00,,---,0.00,VWS V14.01,2015-04-27 08:21:00,
2015-04-27 01:22:00,39.5,27.6,29.16,North,355,5.0,7.0,62,0.00,,---,0.00,VWS V14.01,2015-04-27 08:22:00,
2015-04-27 01:23:00,39.5,27.6,29.16,North,5,5.0,7.0,62,0.00,,---,0.00,VWS V14.01,2015-04-27 08:23:00,
2015-04-27 01:24:00,39.5,27.6,29.15,North,5,4.0,7.0,62,0.00,,---,0.00,VWS V14.01,2015-04-27 08:24:00,
2015-04-27 01:25:00,39.5,27.6,29.15,North,5,3.0,7.0,62,0.00,,---,0.00,VWS V14.01,2015-04-27 08:25:00,
2015-04-27 01:26:00,39.5,27.6,29.16,North,355,3.0,5.0,62,0.00,,---,0.00,VWS V14.01,2015-04-27 08:26:00,
2015-04-27 01:27:00,39.5,27.6,29.16,North,360,3.0,5.0,62,0.00,,---,0.00,VWS V14.01,2015-04-27 08:27:00,
2015-04-27 01:33:00,39.7,27.0,29.16,North,11,3.0,6.0,60,0.00,,---,0.00,VWS V14.01,2015-04-27 08:33:00,
2015-04-27 01:34:00,39.7,27.0,29.16,North,5,8.0,8.0,60,0.00,,---,0.00,VWS V14.01,2015-04-27 08:34:00,
2015-04-27 01:35:00,39.7,27.0,29.16,North,5,5.0,8.0,60,0.00,,---,0.00,VWS V14.01,2015-04-27 08:35:00,
2015-04-27 01:36:00,39.8,27.1,29.16,North,5,6.0,8.0,60,0.00,,---,0.00,VWS V14.01,2015-04-27 08:36:00,
2015-04-27 01:37:00,39.8,27.1,29.16,North,5,4.0,6.0,60,0.00,,---,0.00,VWS V14.01,2015-04-27 08:37:00,
2015-04-27 01:38:00,39.8,27.1,29.16,North,5,3.0,6.0,60,0.00,,---,0.00,VWS V14.01,2015-04-27 08:38:00,
2015-04-27 01:39:00,39.8,27.1,29.16,North,9,3.0,4.0,60,0.00,,---,0.00,VWS V14.01,2015-04-27 08:39:00,
2015-04-27 01:40:00,39.8,26.7,29.16,North,9,3.0,5.0,59,0.00,,---,0.00,VWS V14.01,2015-04-27 08:40:00,
2015-04-27 01:41:00,39.9,26.8,29.16,North,9,4.0,5.0,59,0.00,,---,0.00,VWS V14.01,2015-04-27 08:41:00,
2015-04-27 01:42:00,39.9,26.8,29.16,North,5,5.0,7.0,59,0.00,,---,0.00,VWS V14.01,2015-04-27 08:42:00,
2015-04-27 01:43:00,39.9,27.2,29.16,North,5,7.0,7.0,60,0.00,,---,0.00,VWS V14.01,2015-04-27 08:43:00,
2015-04-27 01:44:00,39.9,27.2,29.16,North,5,6.0,7.0,60,0.00,,---,0.00,VWS V14.01,2015-04-27 08:44:00,
2015-04-27 01:45:00,39.8,27.1,29.16,North,5,4.0,7.0,60,0.00,,---,0.00,VWS V14.01,2015-04-27 08:45:00,
2015-04-27 01:46:00,39.8,27.1,29.16,North,5,4.0,6.0,60,0.00,,---,0.00,VWS V14.01,2015-04-27 08:46:00,
2015-04-27 01:47:00,39.8,27.1,29.16,North,360,4.0,6.0,60,0.00,,---,0.00,VWS V14.01,2015-04-27 08:47:00,
2015-04-27 01:48:00,39.7,27.0,29.16,North,355,5.0,5.0,60,0.00,,---,0.00,VWS V14.01,2015-04-27 08:48:00,
2015-04-27 01:49:00,39.7,27.0,29.16,North,355,4.0,5.0,60,0.00,,---,0.00,VWS V14.01,2015-04-27 08:49:00,
2015-04-27 01:50:00,39.7,27.0,29.16,North,5,5.0,6.0,60,0.00,,---,0.00,VWS V14.01,2015-04-27 08:50:00,
2015-04-27 01:51:00,39.7,27.4,29.16,North,360,5.0,7.0,61,0.00,,---,0.00,VWS V14.01,2015-04-27 08:51:00,
2015-04-27 01:52:00,39.6,27.3,29.16,North,360,5.0,7.0,61,0.00,,---,0.00,VWS V14.01,2015-04-27 08:52:00,
2015-04-27 01:53:00,39.6,27.3,29.16,North,5,2.0,7.0,61,0.00,,---,0.00,VWS V14.01,2015-04-27 08:53:00,
2015-04-27 01:54:00,39.6,27.3,29.16,North,9,3.0,6.0,61,0.00,,---,0.00,VWS V14.01,2015-04-27 08:54:00,
2015-04-27 01:55:00,39.6,27.3,29.16,North,5,4.0,4.0,61,0.00,,---,0.00,VWS V14.01,2015-04-27 08:55:00,
2015-04-27 01:56:00,39.5,26.8,29.16,North,9,3.0,5.0,60,0.00,,---,0.00,VWS V14.01,2015-04-27 08:56:00,
2015-04-27 01:57:00,39.5,26.8,29.16,North,9,3.0,6.0,60,0.00,,---,0.00,VWS V14.01,2015-04-27 08:57:00,
2015-04-27 01:58:00,39.5,27.2,29.16,North,9,4.0,6.0,61,0.00,,---,0.00,VWS V14.01,2015-04-27 08:58:00,
2015-04-27 01:59:00,39.5,27.2,29.16,North,5,6.0,6.0,61,0.00,,---,0.00,VWS V14.01,2015-04-27 08:59:00,
2015-04-27 02:00:00,39.5,27.2,29.16,North,355,6.0,7.0,61,0.00,,---,0.00,VWS V14.01,2015-04-27 09:00:00,
2015-04-27 02:01:00,39.4,27.1,29.16,North,5,6.0,7.0,61,0.00,,---,0.00,VWS V14.01,2015-04-27 09:01:00,
2015-04-27 02:02:00,39.4,27.1,29.16,North,355,7.0,7.0,61,0.00,,---,0.00,VWS V14.01,2015-04-27 09:02:00,
2015-04-27 02:03:00,39.3,27.0,29.16,North,355,6.0,7.0,61,0.00,,---,0.00,VWS V14.01,2015-04-27 09:03:00,
2015-04-27 02:04:00,39.2,26.9,29.16,North,355,7.0,7.0,61,0.00,,---,0.00,VWS V14.01,2015-04-27 09:04:00,
2015-04-27 02:05:00,39.2,27.3,29.16,North,360,5.0,7.0,62,0.00,,---,0.00,VWS V14.01,2015-04-27 09:05:00,
2015-04-27 02:06:00,39.2,27.3,29.16,North,355,7.0,7.0,62,0.00,,---,0.00,VWS V14.01,2015-04-27 09:06:00,
2015-04-27 02:07:00,39.2,27.3,29.16,North,11,6.0,7.0,62,0.00,,---,0.00,VWS V14.01,2015-04-27 09:07:00,
2015-04-27 02:08:00,39.1,27.2,29.16,North,11,5.0,7.0,62,0.00,,---,0.00,VWS V14.01,2015-04-27 09:08:00,
2015-04-27 02:09:00,39.1,27.2,29.16,North,11,5.0,6.0,62,0.00,,---,0.00,VWS V14.01,2015-04-27 09:09:00,
2015-04-27 02:10:00,39.1,27.2,29.16,North,5,6.0,6.0,62,0.00,,---,0.00,VWS V14.01,2015-04-27 09:10:00,
2015-04-27 02:11:00,39.1,27.2,29.16,North,5,4.0,6.0,62,0.00,,---,0.00,VWS V14.01,2015-04-27 09:11:00,
2015-04-27 02:12:00,39.1,27.2,29.16,NNE,12,4.0,6.0,62,0.00,,---,0.00,VWS V14.01,2015-04-27 09:12:00,
2015-04-27 02:13:00,39.1,27.2,29.16,NNE,12,4.0,5.0,62,0.00,,---,0.00,VWS V14.01,2015-04-27 09:13:00,
2015-04-27 02:14:00,39.1,27.2,29.16,NNE,12,5.0,5.0,62,0.00,,---,0.00,VWS V14.01,2015-04-27 09:14:00,
2015-04-27 02:15:00,39.1,27.2,29.17,NNE,12,4.0,5.0,62,0.00,,---,0.00,VWS V14.01,2015-04-27 09:15:00,
2015-04-27 02:16:00,39.1,27.2,29.17,NNE,12,5.0,5.0,62,0.00,,---,0.00,VWS V14.01,2015-04-27 09:16:00,
2015-04-27 02:17:00,39.1,27.2,29.17,NNE,12,4.0,6.0,62,0.00,,---,0.00,VWS V14.01,2015-04-27 09:17:00,
2015-04-27 02:18:00,39.1,27.2,29.17,North,11,4.0,6.0,62,0.00,,---,0.00,VWS V14.01,2015-04-27 09:18:00,
2015-04-27 02:19:00,39.1,27.2,29.16,North,11,5.0,6.0,62,0.00,,---,0.00,VWS V14.01,2015-04-27 09:19:00,
2015-04-27 02:20:00,39.2,27.3,29.16,North,11,3.0,6.0,62,0.00,,---,0.00,VWS V14.01,2015-04-27 09:20:00,
2015-04-27 02:21:00,39.2,27.3,29.17,North,9,6.0,6.0,62,0.00,,---,0.00,VWS V14.01,2015-04-27 09:21:00,
2015-04-27 02:22:00,39.3,27.4,29.17,North,9,4.0,6.0,62,0.00,,---,0.00,VWS V14.01,2015-04-27 09:22:00,
2015-04-27 02:23:00,39.3,27.4,29.16,North,9,4.0,6.0,62,0.00,,---,0.00,VWS V14.01,2015-04-27 09:23:00,
2015-04-27 02:24:00,39.3,27.4,29.16,North,9,3.0,5.0,62,0.00,,---,0.00,VWS V14.01,2015-04-27 09:24:00,
2015-04-27 02:25:00,39.4,27.1,29.17,North,9,2.0,5.0,61,0.00,,---,0.00,VWS V14.01,2015-04-27 09:25:00,
2015-04-27 02:26:00,39.4,27.1,29.17,North,9,4.0,4.0,61,0.00,,---,0.00,VWS V14.01,2015-04-27 09:26:00,
2015-04-27 02:27:00,39.5,27.2,29.17,North,9,3.0,4.0,61,0.00,,---,0.00,VWS V14.01,2015-04-27 09:27:00,
2015-04-27 02:28:00,39.5,27.2,29.17,North,10,2.0,4.0,61,0.00,,---,0.00,VWS V14.01,2015-04-27 09:28:00,
2015-04-27 02:29:00,44.1,26.7,29.16,North,11,3.0,6.0,50,0.00,,---,0.00,VWS V14.01,2015-04-27 09:29:00,
2015-04-27 02:30:00,39.6,26.9,29.17,North,9,2.0,3.0,60,0.00,,---,0.00,VWS V14.01,2015-04-27 09:30:00,
2015-04-27 02:31:00,39.7,27.0,29.17,North,10,3.0,3.0,60,0.00,,---,0.00,VWS V14.01,2015-04-27 09:31:00,
2015-04-27 02:32:00,39.7,27.0,29.17,North,9,4.0,4.0,60,0.00,,---,0.00,VWS V14.01,2015-04-27 09:32:00,
2015-04-27 02:33:00,39.7,27.0,29.17,North,9,3.0,4.0,60,0.00,,---,0.00,VWS V14.01,2015-04-27 09:33:00,
2015-04-27 02:34:00,39.7,27.0,29.17,North,5,3.0,5.0,60,0.00,,---,0.00,VWS V14.01,2015-04-27 09:34:00,
2015-04-27 02:35:00,39.8,27.1,29.17,North,5,6.0,6.0,60,0.00,,---,0.00,VWS V14.01,2015-04-27 09:35:00,
2015-04-27 02:36:00,39.8,27.1,29.17,North,5,5.0,6.0,60,0.00,,---,0.00,VWS V14.01,2015-04-27 09:36:00,
2015-04-27 02:37:00,39.8,27.1,29.17,North,355,3.0,6.0,60,0.00,,---,0.00,VWS V14.01,2015-04-27 09:37:00,
2015-04-27 02:38:00,39.8,27.1,29.17,North,5,2.0,6.0,60,0.00,,---,0.00,VWS V14.01,2015-04-27 09:38:00,
2015-04-27 02:39:00,39.8,27.1,29.17,North,5,3.0,4.0,60,0.00,,---,0.00,VWS V14.01,2015-04-27 09:39:00,
2015-04-27 02:40:00,39.7,27.0,29.17,North,9,6.0,7.0,60,0.00,,---,0.00,VWS V14.01,2015-04-27 09:40:00,
2015-04-27 02:41:00,39.7,27.0,29.17,North,5,5.0,7.0,60,0.00,,---,0.00,VWS V14.01,2015-04-27 09:41:00,
2015-04-27 02:42:00,39.8,27.1,29.17,North,5,4.0,7.0,60,0.00,,---,0.00,VWS V14.01,2015-04-27 09:42:00,
2015-04-27 02:43:00,39.7,27.0,29.17,North,5,4.0,6.0,60,0.00,,---,0.00,VWS V14.01,2015-04-27 09:43:00,
2015-04-27 02:44:00,39.8,27.1,29.17,North,5,6.0,6.0,60,0.00,,---,0.00,VWS V14.01,2015-04-27 09:44:00,
2015-04-27 02:45:00,39.8,27.1,29.17,North,9,3.0,6.0,60,0.00,,---,0.00,VWS V14.01,2015-04-27 09:45:00,
2015-04-27 02:46:00,39.8,27.1,29.17,North,5,3.0,6.0,60,0.00,,---,0.00,VWS V14.01,2015-04-27 09:46:00,
2015-04-27 02:47:00,39.8,27.1,29.17,North,5,3.0,5.0,60,0.00,,---,0.00,VWS V14.01,2015-04-27 09:47:00,
2015-04-27 02:48:00,39.8,27.1,29.17,North,5,1.0,5.0,60,0.00,,---,0.00,VWS V14.01,2015-04-27 09:48:00,
2015-04-27 02:49:00,39.8,27.1,29.17,North,5,0.0,5.0,60,0.00,,---,0.00,VWS V14.01,2015-04-27 09:49:00,
2015-04-27 02:50:00,39.8,27.1,29.17,North,5,1.0,2.0,60,0.00,,---,0.00,VWS V14.01,2015-04-27 09:50:00,
2015-04-27 02:51:00,39.8,27.1,29.17,North,5,0.0,2.0,60,0.00,,---,0.00,VWS V14.01,2015-04-27 09:51:00,
2015-04-27 02:52:00,39.8,27.1,29.17,North,5,2.0,2.0,60,0.00,,---,0.00,VWS V14.01,2015-04-27 09:52:00,
2015-04-27 02:53:00,39.8,27.1,29.17,North,5,2.0,3.0,60,0.00,,---,0.00,VWS V14.01,2015-04-27 09:53:00,
2015-04-27 02:54:00,39.8,27.1,29.17,North,5,2.0,4.0,60,0.00,,---,0.00,VWS V14.01,2015-04-27 09:54:00,
2015-04-27 02:55:00,39.8,27.1,29.17,North,5,2.0,4.0,60,0.00,,---,0.00,VWS V14.01,2015-04-27 09:55:00,
2015-04-27 02:56:00,39.8,27.1,29.17,North,5,2.0,3.0,60,0.00,,---,0.00,VWS V14.01,2015-04-27 09:56:00,
2015-04-27 02:57:00,39.8,27.1,29.17,North,5,2.0,3.0,60,0.00,,---,0.00,VWS V14.01,2015-04-27 09:57:00,
2015-04-27 02:58:00,39.8,27.1,29.17,North,5,2.0,3.0,60,0.00,,---,0.00,VWS V14.01,2015-04-27 09:58:00,
2015-04-27 02:59:00,39.8,27.1,29.17,North,5,2.0,3.0,60,0.00,,---,0.00,VWS V14.01,2015-04-27 09:59:00,
2015-04-27 03:00:00,39.9,27.2,29.17,North,5,0.0,3.0,60,0.00,,---,0.00,VWS V14.01,2015-04-27 10:00:00,
2015-04-27 03:01:00,39.9,27.2,29.17,North,5,2.0,3.0,60,0.00,,---,0.00,VWS V14.01,2015-04-27 10:01:00,
2015-04-27 03:02:00,39.9,27.2,29.17,North,5,0.0,2.0,60,0.00,,---,0.00,VWS V14.01,2015-04-27 10:02:00,
2015-04-27 03:03:00,39.9,27.2,29.17,North,5,0.0,2.0,60,0.00,,---,0.00,VWS V14.01,2015-04-27 10:03:00,
2015-04-27 03:04:00,39.9,27.2,29.17,North,5,0.0,0.0,60,0.00,,---,0.00,VWS V14.01,2015-04-27 10:04:00,
2015-04-27 03:05:00,39.9,27.2,29.17,North,5,0.0,0.0,60,0.00,,---,0.00,VWS V14.01,2015-04-27 10:05:00,
2015-04-27 03:06:00,40.0,27.2,29.17,North,5,0.0,0.0,60,0.00,,---,0.00,VWS V14.01,2015-04-27 10:06:00,
2015-04-27 03:07:00,39.9,27.2,29.17,North,5,0.0,0.0,60,0.00,,---,0.00,VWS V14.01,2015-04-27 10:07:00,
2015-04-27 03:08:00,40.0,27.6,29.17,North,5,0.0,0.0,61,0.00,,---,0.00,VWS V14.01,2015-04-27 10:08:00,
2015-04-27 03:09:00,40.0,27.6,29.17,North,5,0.0,0.0,61,0.00,,---,0.00,VWS V14.01,2015-04-27 10:09:00,
2015-04-27 03:10:00,40.0,27.6,29.17,North,5,0.0,0.0,61,0.00,,---,0.00,VWS V14.01,2015-04-27 10:10:00,
2015-04-27 03:11:00,39.9,27.6,29.17,North,5,0.0,0.0,61,0.00,,---,0.00,VWS V14.01,2015-04-27 10:11:00,
2015-04-27 03:12:00,40.0,27.6,29.17,North,5,0.0,0.0,61,0.00,,---,0.00,VWS V14.01,2015-04-27 10:12:00,
2015-04-27 03:13:00,40.0,27.6,29.17,North,5,0.0,0.0,61,0.00,,---,0.00,VWS V14.01,2015-04-27 10:13:00,
2015-04-27 03:14:00,39.9,27.6,29.17,North,5,0.0,0.0,61,0.00,,---,0.00,VWS V14.01,2015-04-27 10:14:00,
2015-04-27 03:15:00,40.0,27.6,29.17,North,5,0.0,0.0,61,0.00,,---,0.00,VWS V14.01,2015-04-27 10:15:00,
2015-04-27 03:16:00,40.0,27.6,29.17,North,5,0.0,0.0,61,0.00,,---,0.00,VWS V14.01,2015-04-27 10:16:00,
2015-04-27 03:17:00,40.0,27.6,29.17,North,5,0.0,0.0,61,0.00,,---,0.00,VWS V14.01,2015-04-27 10:17:00,
2015-04-27 03:18:00,40.1,27.8,29.17,North,5,0.0,0.0,61,0.00,,---,0.00,VWS V14.01,2015-04-27 10:18:00,
2015-04-27 03:19:00,40.1,27.8,29.17,North,5,0.0,0.0,61,0.00,,---,0.00,VWS V14.01,2015-04-27 10:19:00,
2015-04-27 03:20:00,40.1,27.8,29.17,North,5,0.0,0.0,61,0.00,,---,0.00,VWS V14.01,2015-04-27 10:20:00,
2015-04-27 03:21:00,40.1,27.8,29.17,North,5,0.0,0.0,61,0.00,,---,0.00,VWS V14.01,2015-04-27 10:21:00,
2015-04-27 03:22:00,40.1,27.4,29.17,North,5,0.0,0.0,60,0.00,,---,0.00,VWS V14.01,2015-04-27 10:22:00,
2015-04-27 03:23:00,40.1,27.4,29.17,North,5,0.0,0.0,60,0.00,,---,0.00,VWS V14.01,2015-04-27 10:23:00,
2015-04-27 03:24:00,40.2,27.4,29.17,North,5,0.0,0.0,60,0.00,,---,0.00,VWS V14.01,2015-04-27 10:24:00,
2015-04-27 03:25:00,40.2,27.8,29.17,North,5,0.0,0.0,61,0.00,,---,0.00,VWS V14.01,2015-04-27 10:25:00,
2015-04-27 03:26:00,40.2,27.8,29.18,North,5,0.0,0.0,61,0.00,,---,0.00,VWS V14.01,2015-04-27 10:26:00,
2015-04-27 03:27:00,40.2,27.4,29.18,North,5,0.0,0.0,60,0.00,,---,0.00,VWS V14.01,2015-04-27 10:27:00,
2015-04-27 03:28:00,40.3,27.5,29.18,North,5,0.0,0.0,60,0.00,,---,0.00,VWS V14.01,2015-04-27 10:28:00,
2015-04-27 03:29:00,40.4,27.6,29.18,North,5,0.0,0.0,60,0.00,,---,0.00,VWS V14.01,2015-04-27 10:29:00,
2015-04-27 03:30:00,40.4,27.2,29.18,North,5,0.0,0.0,59,0.00,,---,0.00,VWS V14.01,2015-04-27 10:30:00,
2015-04-27 03:31:00,40.5,27.3,29.18,North,5,0.0,0.0,59,0.00,,---,0.00,VWS V14.01,2015-04-27 10:31:00,
2015-04-27 03:32:00,40.6,27.4,29.18,North,5,0.0,0.0,59,0.00,,---,0.00,VWS V14.01,2015-04-27 10:32:00,
2015-04-27 03:33:00,40.6,27.0,29.18,North,5,0.0,0.0,58,0.00,,---,0.00,VWS V14.01,2015-04-27 10:33:00,
2015-04-27 03:34:00,40.7,27.1,29.18,North,5,0.0,0.0,58,0.00,,---,0.00,VWS V14.01,2015-04-27 10:34:00,
2015-04-27 03:35:00,40.7,27.1,29.18,North,5,0.0,1.0,58,0.00,,---,0.00,VWS V14.01,2015-04-27 10:35:00,
2015-04-27 03:36:00,40.9,27.3,29.18,North,5,0.0,1.0,58,0.00,,---,0.00,VWS V14.01,2015-04-27 10:36:00,
2015-04-27 03:37:00,41.0,27.4,29.18,North,5,1.0,2.0,58,0.00,,---,0.00,VWS V14.01,2015-04-27 10:37:00,
2015-04-27 03:38:00,41.1,27.5,29.18,North,5,1.0,2.0,58,0.00,,---,0.00,VWS V14.01,2015-04-27 10:38:00,
2015-04-27 03:39:00,41.2,27.6,29.18,North,5,1.0,2.0,58,0.00,,---,0.00,VWS V14.01,2015-04-27 10:39:00,
2015-04-27 03:40:00,41.3,27.6,29.18,North,5,0.0,2.0,58,0.00,,---,0.00,VWS V14.01,2015-04-27 10:40:00,
2015-04-27 03:41:00,41.4,27.8,29.18,North,5,0.0,2.0,58,0.00,,---,0.00,VWS V14.01,2015-04-27 10:41:00,
2015-04-27 03:42:00,41.5,27.8,29.18,North,5,0.0,2.0,58,0.00,,---,0.00,VWS V14.01,2015-04-27 10:42:00,
2015-04-27 03:43:00,41.7,27.6,29.18,North,5,0.0,2.0,57,0.00,,---,0.00,VWS V14.01,2015-04-27 10:43:00,
2015-04-27 03:44:00,41.9,27.8,29.19,North,5,0.0,1.0,57,0.00,,---,0.00,VWS V14.01,2015-04-27 10:44:00,
2015-04-27 03:45:00,42.0,27.9,29.19,North,5,0.0,0.0,57,0.00,,---,0.00,VWS V14.01,2015-04-27 10:45:00,
2015-04-27 03:46:00,42.1,28.0,29.19,North,5,1.0,1.0,57,0.00,,---,0.00,VWS V14.01,2015-04-27 10:46:00,
2015-04-27 03:47:00,42.2,28.1,29.19,North,5,0.0,1.0,57,0.00,,---,0.00,VWS V14.01,2015-04-27 10:47:00,
2015-04-27 03:48:00,42.3,28.2,29.19,North,5,0.0,1.0,57,0.00,,---,0.00,VWS V14.01,2015-04-27 10:48:00,
2015-04-27 03:49:00,42.4,27.8,29.19,North,5,0.0,0.0,56,0.00,,---,0.00,VWS V14.01,2015-04-27 10:49:00,
2015-04-27 03:50:00,42.5,27.9,29.19,North,5,0.0,1.0,56,0.00,,---,0.00,VWS V14.01,2015-04-27 10:50:00,
2015-04-27 03:51:00,42.6,28.0,29.19,North,5,1.0,1.0,56,0.00,,---,0.00,VWS V14.01,2015-04-27 10:51:00,
2015-04-27 03:52:00,42.8,28.2,29.19,North,5,0.0,1.0,56,0.00,,---,0.00,VWS V14.01,2015-04-27 10:52:00,
2015-04-27 03:53:00,43.0,28.0,29.19,North,5,0.0,1.0,55,0.00,,---,0.00,VWS V14.01,2015-04-27 10:53:00,
2015-04-27 03:54:00,43.1,28.0,29.19,North,5,0.0,0.0,55,0.00,,---,0.00,VWS V14.01,2015-04-27 10:54:00,
2015-04-27 03:55:00,43.1,28.5,29.19,North,5,0.0,0.0,56,0.00,,---,0.00,VWS V14.01,2015-04-27 10:55:00,
2015-04-27 03:56:00,43.3,28.7,29.19,North,5,0.0,0.0,56,0.00,,---,0.00,VWS V14.01,2015-04-27 10:56:00,
2015-04-27 03:57:00,43.4,28.8,29.19,North,5,0.0,0.0,56,0.00,,---,0.00,VWS V14.01,2015-04-27 10:57:00,
2015-04-27 03:58:00,43.5,28.4,29.19,North,5,0.0,1.0,55,0.00,,---,0.00,VWS V14.01,2015-04-27 10:58:00,
2015-04-27 03:59:00,43.6,28.5,29.19,North,5,0.0,2.0,55,0.00,,---,0.00,VWS V14.01,2015-04-27 10:59:00,
2015-04-27 04:00:00,43.8,28.7,29.19,North,5,1.0,2.0,55,0.00,,---,0.00,VWS V14.01,2015-04-27 11:00:00,
2015-04-27 04:01:00,44.0,28.0,29.19,North,5,0.0,1.0,53,0.00,,---,0.00,VWS V14.01,2015-04-27 11:01:00,
2015-04-27 04:02:00,44.1,28.1,29.19,North,5,0.0,1.0,53,0.00,,---,0.00,VWS V14.01,2015-04-27 11:02:00,
2015-04-27 04:03:00,44.2,28.6,29.19,North,5,0.0,1.0,54,0.00,,---,0.00,VWS V14.01,2015-04-27 11:03:00,
2015-04-27 04:04:00,44.4,28.4,29.19,North,5,0.0,1.0,53,0.00,,---,0.00,VWS V14.01,2015-04-27 11:04:00,
2015-04-27 04:05:00,44.5,28.5,29.19,North,5,1.0,2.0,53,0.00,,---,0.00,VWS V14.01,2015-04-27 11:05:00,
2015-04-27 04:06:00,44.7,28.6,29.19,North,5,2.0,2.0,53,0.00,,---,0.00,VWS V14.01,2015-04-27 11:06:00,
2015-04-27 04:07:00,44.9,28.8,29.19,North,5,0.0,2.0,53,0.00,,---,0.00,VWS V14.01,2015-04-27 11:07:00,
2015-04-27 04:08:00,45.1,28.5,29.19,North,5,0.0,2.0,52,0.00,,---,0.00,VWS V14.01,2015-04-27 11:08:00,
2015-04-27 04:09:00,45.2,28.6,29.19,North,5,0.0,2.0,52,0.00,,---,0.00,VWS V14.01,2015-04-27 11:09:00,
2015-04-27 04:10:00,45.4,28.8,29.19,North,5,2.0,2.0,52,0.00,,---,0.00,VWS V14.01,2015-04-27 11:10:00,
2015-04-27 04:11:00,45.5,28.9,29.19,North,5,0.0,2.0,52,0.00,,---,0.00,VWS V14.01,2015-04-27 11:11:00,
2015-04-27 04:12:00,45.7,28.6,29.19,North,5,0.0,2.0,51,0.00,,---,0.00,VWS V14.01,2015-04-27 11:12:00,
2015-04-27 04:13:00,45.9,28.8,29.19,North,5,0.0,0.0,51,0.00,,---,0.00,VWS V14.01,2015-04-27 11:13:00,
2015-04-27 04:14:00,46.1,29.0,29.19,North,5,0.0,0.0,51,0.00,,---,0.00,VWS V14.01,2015-04-27 11:14:00,
2015-04-27 04:15:00,46.2,29.1,29.19,North,5,0.0,1.0,51,0.00,,---,0.00,VWS V14.01,2015-04-27 11:15:00,
2015-04-27 04:16:00,46.3,28.7,29.19,North,5,0.0,1.0,50,0.00,,---,0.00,VWS V14.01,2015-04-27 11:16:00,
2015-04-27 04:17:00,46.4,28.3,29.19,North,5,1.0,1.0,49,0.00,,---,0.00,VWS V14.01,2015-04-27 11:17:00,
2015-04-27 04:18:00,46.6,28.5,29.19,North,5,0.0,2.0,49,0.00,,---,0.00,VWS V14.01,2015-04-27 11:18:00,
2015-04-27 04:19:00,46.7,28.6,29.19,North,5,0.0,2.0,49,0.00,,---,0.00,VWS V14.01,2015-04-27 11:19:00,
2015-04-27 04:20:00,46.8,28.7,29.19,North,5,1.0,1.0,49,0.00,,---,0.00,VWS V14.01,2015-04-27 11:20:00,
2015-04-27 04:21:00,46.9,28.2,29.20,North,5,0.0,1.0,48,0.00,,---,0.00,VWS V14.01,2015-04-27 11:21:00,
2015-04-27 04:22:00,47.1,28.9,29.19,North,5,1.0,1.0,49,0.00,,---,0.00,VWS V14.01,2015-04-27 11:22:00,
2015-04-27 04:23:00,47.3,28.6,29.19,North,5,0.0,1.0,48,0.00,,---,0.00,VWS V14.01,2015-04-27 11:23:00,
2015-04-27 04:24:00,47.5,28.8,29.20,North,5,0.0,2.0,48,0.00,,---,0.00,VWS V14.01,2015-04-27 11:24:00,
2015-04-27 04:25:00,47.7,28.5,29.19,North,5,0.0,3.0,47,0.00,,---,0.00,VWS V14.01,2015-04-27 11:25:00,
2015-04-27 04:26:00,47.9,28.7,29.19,North,5,3.0,3.0,47,0.00,,---,0.00,VWS V14.01,2015-04-27 11:26:00,
2015-04-27 04:27:00,48.1,28.8,29.19,NNE,30,2.0,3.0,47,0.00,,---,0.00,VWS V14.01,2015-04-27 11:27:00,
2015-04-27 04:28:00,48.3,28.5,29.19,NNE,30,0.0,3.0,46,0.00,,---,0.00,VWS V14.01,2015-04-27 11:28:00,
2015-04-27 04:29:00,48.4,29.1,29.19,NNE,30,1.0,3.0,47,0.00,,---,0.00,VWS V14.01,2015-04-27 11:29:00,
2015-04-27 04:30:00,48.6,28.8,29.19,NNE,30,0.0,3.0,46,0.00,,---,0.00,VWS V14.01,2015-04-27 11:30:00,
2015-04-27 04:31:00,48.8,28.4,29.19,NNE,30,0.0,2.0,45,0.00,,---,0.00,VWS V14.01,2015-04-27 11:31:00,
2015-04-27 04:32:00,48.9,28.5,29.19,NNE,30,0.0,2.0,45,0.00,,---,0.00,VWS V14.01,2015-04-27 11:32:00,
2015-04-27 04:33:00,49.0,28.6,29.19,NNE,30,0.0,0.0,45,0.00,,---,0.00,VWS V14.01,2015-04-27 11:33:00,
2015-04-27 04:34:00,49.1,28.7,29.19,NNE,30,1.0,2.0,45,0.00,,---,0.00,VWS V14.01,2015-04-27 11:34:00,
2015-04-27 04:35:00,49.2,28.8,29.19,NNE,30,0.0,2.0,45,0.00,,---,0.00,VWS V14.01,2015-04-27 11:35:00,
2015-04-27 04:36:00,49.3,28.9,29.19,NNE,30,0.0,1.0,45,0.00,,---,0.00,VWS V14.01,2015-04-27 11:36:00,
2015-04-27 04:37:00,49.4,28.4,29.19,NNE,30,0.0,0.0,44,0.00,,---,0.00,VWS V14.01,2015-04-27 11:37:00,
2015-04-27 04:38:00,49.5,28.5,29.19,NNE,30,0.0,0.0,44,0.00,,---,0.00,VWS V14.01,2015-04-27 11:38:00,
2015-04-27 04:39:00,49.6,28.6,29.19,NNE,30,0.0,0.0,44,0.00,,---,0.00,VWS V14.01,2015-04-27 11:39:00,
2015-04-27 04:40:00,49.7,28.7,29.19,NNE,30,0.0,0.0,44,0.00,,---,0.00,VWS V14.01,2015-04-27 11:40:00,
2015-04-27 04:41:00,49.8,28.8,29.19,NNE,30,1.0,2.0,44,0.00,,---,0.00,VWS V14.01,2015-04-27 11:41:00,
2015-04-27 04:42:00,49.9,28.9,29.19,NNE,30,0.0,2.0,44,0.00,,---,0.00,VWS V14.01,2015-04-27 11:42:00,
2015-04-27 04:43:00,50.0,29.0,29.19,NNE,30,0.0,2.0,44,0.00,,---,0.00,VWS V14.01,2015-04-27 11:43:00,
2015-04-27 04:44:00,50.2,29.1,29.19,NNE,30,1.0,2.0,44,0.00,,---,0.00,VWS V14.01,2015-04-27 11:44:00,
2015-04-27 04:45:00,50.3,28.7,29.19,NNE,30,1.0,2.0,43,0.00,,---,0.00,VWS V14.01,2015-04-27 11:45:00,
2015-04-27 04:46:00,50.5,28.3,29.19,NNE,30,0.0,1.0,42,0.00,,---,0.00,VWS V14.01,2015-04-27 11:46:00,
2015-04-27 04:47:00,50.5,28.3,29.19,NNE,30,0.0,1.0,42,0.00,,---,0.00,VWS V14.01,2015-04-27 11:47:00,
2015-04-27 04:48:00,50.6,28.4,29.20,NNE,30,1.0,1.0,42,0.00,,---,0.00,VWS V14.01,2015-04-27 11:48:00,
2015-04-27 04:49:00,50.8,28.5,29.20,NNE,30,1.0,2.0,42,0.00,,---,0.00,VWS V14.01,2015-04-27 11:49:00,
2015-04-27 04:50:00,50.9,28.6,29.19,ENE,63,4.0,4.0,42,0.00,,---,0.00,VWS V14.01,2015-04-27 11:50:00,
2015-04-27 04:51:00,51.1,28.8,29.20,ENE,59,4.0,4.0,42,0.00,,---,0.00,VWS V14.01,2015-04-27 11:51:00,
2015-04-27 04:52:00,51.2,28.3,29.20,ENE,66,0.0,4.0,41,0.00,,---,0.00,VWS V14.01,2015-04-27 11:52:00,
2015-04-27 04:53:00,51.4,28.5,29.20,ESE,120,4.0,5.0,41,0.00,,---,0.00,VWS V14.01,2015-04-27 11:53:00,
2015-04-27 04:54:00,51.7,28.8,29.20,ESE,120,0.0,5.0,41,0.00,,---,0.00,VWS V14.01,2015-04-27 11:54:00,
2015-04-27 04:55:00,51.9,28.4,29.20,SE,133,0.0,5.0,40,0.00,,---,0.00,VWS V14.01,2015-04-27 11:55:00,
2015-04-27 04:56:00,52.0,28.5,29.20,SE,133,2.0,5.0,40,0.00,,---,0.00,VWS V14.01,2015-04-27 11:56:00,
2015-04-27 04:57:00,52.2,28.6,29.20,SE,132,4.0,4.0,40,0.00,,---,0.00,VWS V14.01,2015-04-27 11:57:00,
2015-04-27 04:58:00,52.3,28.7,29.20,ENE,76,3.0,5.0,40,0.00,,---,0.00,VWS V14.01,2015-04-27 11:58:00,
2015-04-27 04:59:00,52.4,28.2,29.20,SE,132,4.0,5.0,39,0.00,,---,0.00,VWS V14.01,2015-04-27 11:59:00,
2015-04-27 05:00:00,52.6,28.4,29.20,SE,130,2.0,5.0,39,0.00,,---,0.00,VWS V14.01,2015-04-27 12:00:00,
2015-04-27 05:01:00,52.6,28.4,29.20,SE,139,0.0,5.0,39,0.00,,---,0.00,VWS V14.01,2015-04-27 12:01:00,
2015-04-27 05:02:00,52.7,28.5,29.20,SE,139,4.0,5.0,39,0.00,,---,0.00,VWS V14.01,2015-04-27 12:02:00,
2015-04-27 05:03:00,52.8,28.5,29.20,SE,129,4.0,4.0,39,0.00,,---,0.00,VWS V14.01,2015-04-27 12:03:00,
2015-04-27 05:04:00,52.8,28.5,29.20,ENE,68,2.0,7.0,39,0.00,,---,0.00,VWS V14.01,2015-04-27 12:04:00,
2015-04-27 05:05:00,52.9,28.6,29.20,ENE,69,4.0,7.0,39,0.00,,---,0.00,VWS V14.01,2015-04-27 12:05:00,
2015-04-27 05:06:00,52.9,28.6,29.20,ENE,69,1.0,5.0,39,0.00,,---,0.00,VWS V14.01,2015-04-27 12:06:00,
2015-04-27 05:07:00,52.9,28.6,29.20,East,80,3.0,4.0,39,0.00,,---,0.00,VWS V14.01,2015-04-27 12:07:00,
2015-04-27 05:08:00,53.0,29.3,29.20,SE,125,5.0,6.0,40,0.00,,---,0.00,VWS V14.01,2015-04-27 12:08:00,
2015-04-27 05:09:00,53.1,28.8,29.20,ESE,121,5.0,6.0,39,0.00,,---,0.00,VWS V14.01,2015-04-27 12:09:00,
2015-04-27 05:10:00,53.1,28.8,29.20,East,80,2.0,6.0,39,0.00,,---,0.00,VWS V14.01,2015-04-27 12:10:00,
2015-04-27 05:11:00,53.1,28.8,29.20,SE,143,4.0,6.0,39,0.00,,---,0.00,VWS V14.01,2015-04-27 12:11:00,
2015-04-27 05:12:00,53.1,28.8,29.20,SSE,160,4.0,6.0,39,0.00,,---,0.00,VWS V14.01,2015-04-27 12:12:00,
2015-04-27 05:13:00,53.2,28.9,29.20,ENE,70,1.0,6.0,39,0.00,,---,0.00,VWS V14.01,2015-04-27 12:13:00,
2015-04-27 05:14:00,53.2,28.9,29.20,ENE,69,1.0,5.0,39,0.00,,---,0.00,VWS V14.01,2015-04-27 12:14:00,
2015-04-27 05:15:00,53.3,29.0,29.20,East,80,4.0,4.0,39,0.00,,---,0.00,VWS V14.01,2015-04-27 12:15:00,
2015-04-27 05:16:00,53.4,29.1,29.20,SE,132,5.0,5.0,39,0.00,,---,0.00,VWS V14.01,2015-04-27 12:16:00,
2015-04-27 05:17:00,53.5,29.2,29.20,SSE,160,4.0,7.0,39,0.00,,---,0.00,VWS V14.01,2015-04-27 12:17:00,
2015-04-27 05:18:00,53.6,29.3,29.20,SSE,157,1.0,7.0,39,0.00,,---,0.00,VWS V14.01,2015-04-27 12:18:00,
2015-04-27 05:19:00,53.6,28.6,29.20,ENE,76,4.0,5.0,38,0.00,,---,0.00,VWS V14.01,2015-04-27 12:19:00,
2015-04-27 05:20:00,53.6,28.6,29.20,ESE,114,2.0,7.0,38,0.00,,---,0.00,VWS V14.01,2015-04-27 12:20:00,
2015-04-27 05:21:00,53.7,28.1,29.20,SE,132,2.0,7.0,37,0.00,,---,0.00,VWS V14.01,2015-04-27 12:21:00,
2015-04-27 05:22:00,53.7,28.1,29.20,ESE,121,6.0,6.0,37,0.00,,---,0.00,VWS V14.01,2015-04-27 12:22:00,
2015-04-27 05:23:00,53.7,28.7,29.20,East,90,5.0,7.0,38,0.00,,---,0.00,VWS V14.01,2015-04-27 12:23:00,
2015-04-27 05:24:00,53.9,28.9,29.20,ENE,65,4.0,7.0,38,0.00,,---,0.00,VWS V14.01,2015-04-27 12:24:00,
2015-04-27 05:25:00,54.0,29.0,29.20,ENE,77,4.0,7.0,38,0.00,,---,0.00,VWS V14.01,2015-04-27 12:25:00,
2015-04-27 05:26:00,54.1,29.1,29.20,NE,53,6.0,7.0,38,0.00,,---,0.00,VWS V14.01,2015-04-27 12:26:00,
2015-04-27 05:27:00,54.1,28.4,29.20,East,80,4.0,6.0,37,0.00,,---,0.00,VWS V14.01,2015-04-27 12:27:00,
2015-04-27 05:28:00,54.1,28.4,29.20,ENE,63,6.0,6.0,37,0.00,,---,0.00,VWS V14.01,2015-04-27 12:28:00,
2015-04-27 05:29:00,54.0,29.0,29.20,ENE,72,5.0,8.0,38,0.00,,---,0.00,VWS V14.01,2015-04-27 12:29:00,
2015-04-27 05:30:00,54.0,28.3,29.20,East,92,6.0,8.0,37,0.00,,---,0.00,VWS V14.01,2015-04-27 12:30:00,
2015-04-27 05:31:00,54.1,28.4,29.20,ESE,119,5.0,8.0,37,0.00,,---,0.00,VWS V14.01,2015-04-27 12:31:00,
2015-04-27 05:32:00,54.1,28.4,29.20,East,90,7.0,7.0,37,0.00,,---,0.00,VWS V14.01,2015-04-27 12:32:00,
2015-04-27 05:33:00,54.2,28.5,29.20,East,79,2.0,7.0,37,0.00,,---,0.00,VWS V14.01,2015-04-27 12:33:00,
2015-04-27 05:34:00,54.2,28.5,29.20,ENE,61,4.0,7.0,37,0.00,,---,0.00,VWS V14.01,2015-04-27 12:34:00,
2015-04-27 05:35:00,54.2,28.5,29.20,East,98,5.0,6.0,37,0.00,,---,0.00,VWS V14.01,2015-04-27 12:35:00,
2015-04-27 05:36:00,54.2,28.5,29.20,ENE,78,5.0,6.0,37,0.00,,---,0.00,VWS V14.01,2015-04-27 12:36:00,
2015-04-27 05:37:00,54.4,28.7,29.20,ENE,75,6.0,9.0,37,0.00,,---,0.00,VWS V14.01,2015-04-27 12:37:00,
2015-04-27 05:38:00,54.5,28.8,29.20,East,80,3.0,9.0,37,0.00,,---,0.00,VWS V14.01,2015-04-27 12:38:00,
2015-04-27 05:39:00,54.6,28.2,29.20,ESE,117,5.0,9.0,36,0.00,,---,0.00,VWS V14.01,2015-04-27 12:39:00,
2015-04-27 05:40:00,54.8,27.7,29.20,East,98,6.0,7.0,35,0.00,,---,0.00,VWS V14.01,2015-04-27 12:40:00,
2015-04-27 05:41:00,54.9,28.5,29.20,ENE,78,8.0,8.0,36,0.00,,---,0.00,VWS V14.01,2015-04-27 12:41:00,
2015-04-27 05:42:00,54.9,27.8,29.20,SSE,148,5.0,8.0,35,0.00,,---,0.00,VWS V14.01,2015-04-27 12:42:00,
2015-04-27 05:43:00,55.1,28.0,29.20,ESE,117,5.0,8.0,35,0.00,,---,0.00,VWS V14.01,2015-04-27 12:43:00,
2015-04-27 05:44:00,55.3,28.1,29.20,SSE,147,4.0,6.0,35,0.00,,---,0.00,VWS V14.01,2015-04-27 12:44:00,
2015-04-27 05:45:00,55.5,27.6,29.20,SE,127,4.0,8.0,34,0.00,,---,0.00,VWS V14.01,2015-04-27 12:45:00,
2015-04-27 05:46:00,55.5,27.6,29.20,SE,138,2.0,8.0,34,0.00,,---,0.00,VWS V14.01,2015-04-27 12:46:00,
2015-04-27 05:47:00,55.5,27.6,29.20,SE,134,5.0,8.0,34,0.00,,---,0.00,VWS V14.01,2015-04-27 12:47:00,
2015-04-27 05:48:00,55.5,27.6,29.20,South,186,5.0,6.0,34,0.00,,---,0.00,VWS V14.01,2015-04-27 12:48:00,
2015-04-27 05:49:00,55.5,27.6,29.20,SE,128,4.0,6.0,34,0.00,,---,0.00,VWS V14.01,2015-04-27 12:49:00,
2015-04-27 05:50:00,55.5,27.6,29.20,ESE,111,4.0,6.0,34,0.00,,---,0.00,VWS V14.01,2015-04-27 12:50:00,
2015-04-27 05:51:00,55.6,28.4,29.20,SSE,155,4.0,6.0,35,0.00,,---,0.00,VWS V14.01,2015-04-27 12:51:00,
2015-04-27 05:52:00,55.7,28.5,29.20,East,98,6.0,7.0,35,0.00,,---,0.00,VWS V14.01,2015-04-27 12:52:00,
2015-04-27 05:53:00,55.9,28.0,29.20,ESE,121,2.0,7.0,34,0.00,,---,0.00,VWS V14.01,2015-04-27 12:53:00,
2015-04-27 05:54:00,56.0,28.8,29.20,SSE,149,4.0,9.0,35,0.00,,---,0.00,VWS V14.01,2015-04-27 12:54:00,
2015-04-27 05:55:00,56.1,28.1,29.20,SE,133,5.0,9.0,34,0.00,,---,0.00,VWS V14.01,2015-04-27 12:55:00,
2015-04-27 05:56:00,56.3,27.6,29.19,SSE,158,2.0,7.0,33,0.00,,---,0.00,VWS V14.01,2015-04-27 12:56:00,
2015-04-27 05:57:00,56.4,26.9,29.19,SE,130,2.0,7.0,32,0.00,,---,0.00,VWS V14.01,2015-04-27 12:57:00,
2015-04-27 05:58:00,56.3,26.8,29.19,SSE,156,5.0,8.0,32,0.00,,---,0.00,VWS V14.01,2015-04-27 12:58:00,
2015-04-27 05:59:00,56.4,27.7,29.19,South,184,3.0,8.0,33,0.00,,---,0.00,VWS V14.01,2015-04-27 12:59:00,
2015-04-27 06:00:00,56.6,27.9,29.19,SE,128,4.0,7.0,33,0.00,,---,0.00,VWS V14.01,2015-04-27 13:00:00,
2015-04-27 06:01:00,56.7,27.2,29.19,SSE,159,1.0,5.0,32,0.00,,---,0.00,VWS V14.01,2015-04-27 13:01:00,
2015-04-27 06:02:00,56.9,27.4,29.19,East,85,12.0,12.0,32,0.00,,---,0.00,VWS V14.01,2015-04-27 13:02:00,
2015-04-27 06:03:00,56.8,27.3,29.19,ESE,122,6.0,12.0,32,0.00,,---,0.00,VWS V14.01,2015-04-27 13:03:00,
2015-04-27 06:04:00,56.6,27.1,29.19,ESE,115,6.0,12.0,32,0.00,,---,0.00,VWS V14.01,2015-04-27 13:04:00,
2015-04-27 06:05:00,56.6,27.1,29.19,South,171,6.0,12.0,32,0.00,,---,0.00,VWS V14.01,2015-04-27 13:05:00,
2015-04-27 06:06:00,56.6,27.1,29.19,SSE,147,4.0,12.0,32,0.00,,---,0.00,VWS V14.01,2015-04-27 13:06:00,
2015-04-27 06:07:00,56.7,27.9,29.19,East,94,6.0,12.0,33,0.00,,---,0.00,VWS V14.01,2015-04-27 13:07:00,
2015-04-27 06:08:00,56.6,26.3,29.19,ENE,67,7.0,12.0,31,0.00,,---,0.00,VWS V14.01,2015-04-27 13:08:00,
2015-04-27 06:09:00,56.4,26.2,29.19,ESE,115,7.0,12.0,31,0.00,,---,0.00,VWS V14.01,2015-04-27 13:09:00,
2015-04-27 06:10:00,56.2,26.0,29.19,East,88,8.0,12.0,31,0.00,,---,0.00,VWS V14.01,2015-04-27 13:10:00,
2015-04-27 06:11:00,56.1,25.1,29.19,South,185,4.0,12.0,30,0.00,,---,0.00,VWS V14.01,2015-04-27 13:11:00,
2015-04-27 06:12:00,55.9,25.7,29.19,SSW,200,2.0,12.0,31,0.00,,---,0.00,VWS V14.01,2015-04-27 13:12:00,
2015-04-27 06:13:00,55.9,25.7,29.19,South,190,4.0,9.0,31,0.00,,---,0.00,VWS V14.01,2015-04-27 13:13:00,
2015-04-27 06:14:00,55.9,25.7,29.19,South,173,4.0,9.0,31,0.00,,---,0.00,VWS V14.01,2015-04-27 13:14:00,
2015-04-27 06:15:00,56.1,26.7,29.19,SSW,203,2.0,9.0,32,0.00,,---,0.00,VWS V14.01,2015-04-27 13:15:00,
2015-04-27 06:16:00,56.3,26.8,29.19,South,187,4.0,7.0,32,0.00,,---,0.00,VWS V14.01,2015-04-27 13:16:00,
2015-04-27 06:17:00,56.7,27.2,29.19,SE,127,8.0,10.0,32,0.00,,---,0.00,VWS V14.01,2015-04-27 13:17:00,
2015-04-27 06:18:00,57.0,27.5,29.19,SE,136,5.0,10.0,32,0.00,,---,0.00,VWS V14.01,2015-04-27 13:18:00,
2015-04-27 06:19:00,57.2,27.6,29.19,SSE,160,4.0,8.0,32,0.00,,---,0.00,VWS V14.01,2015-04-27 13:19:00,
2015-04-27 06:20:00,57.5,27.9,29.19,SE,146,9.0,14.0,32,0.00,,---,0.00,VWS V14.01,2015-04-27 13:20:00,
2015-04-27 06:21:00,57.6,26.4,29.19,ESE,121,7.0,14.0,30,0.00,,---,0.00,VWS V14.01,2015-04-27 13:21:00,
2015-04-27 06:22:00,57.5,26.3,29.19,ESE,116,8.0,14.0,30,0.00,,---,0.00,VWS V14.01,2015-04-27 13:22:00,
2015-04-27 06:23:00,57.5,26.3,29.19,NE,56,8.0,11.0,30,0.00,,---,0.00,VWS V14.01,2015-04-27 13:23:00,
2015-04-27 06:24:00,57.4,26.2,29.19,East,86,6.0,13.0,30,0.00,,---,0.00,VWS V14.01,2015-04-27 13:24:00,
2015-04-27 06:25:00,57.5,26.3,29.19,East,83,6.0,13.0,30,0.00,,---,0.00,VWS V14.01,2015-04-27 13:25:00,
2015-04-27 06:26:00,57.5,26.3,29.19,SSE,168,7.0,13.0,30,0.00,,---,0.00,VWS V14.01,2015-04-27 13:26:00,
2015-04-27 06:27:00,57.6,25.6,29.19,East,101,6.0,11.0,29,0.00,,---,0.00,VWS V14.01,2015-04-27 13:27:00,
2015-04-27 06:28:00,57.5,25.5,29.18,SSE,165,4.0,11.0,29,0.00,,---,0.00,VWS V14.01,2015-04-27 13:28:00,
2015-04-27 06:29:00,57.4,25.4,29.18,ESE,115,11.0,11.0,29,0.00,,---,0.00,VWS V14.01,2015-04-27 13:29:00,
2015-04-27 06:30:00,57.3,25.3,29.18,ESE,121,6.0,11.0,29,0.00,,---,0.00,VWS V14.01,2015-04-27 13:30:00,
2015-04-27 06:31:00,57.5,26.3,29.18,SE,137,7.0,11.0,30,0.00,,---,0.00,VWS V14.01,2015-04-27 13:31:00,
2015-04-27 06:32:00,57.6,26.4,29.18,East,94,6.0,13.0,30,0.00,,---,0.00,VWS V14.01,2015-04-27 13:32:00,
2015-04-27 06:33:00,57.7,26.5,29.18,ESE,115,7.0,13.0,30,0.00,,---,0.00,VWS V14.01,2015-04-27 13:33:00,
2015-04-27 06:34:00,57.7,25.7,29.18,SE,128,8.0,13.0,29,0.00,,---,0.00,VWS V14.01,2015-04-27 13:34:00,
2015-04-27 06:35:00,57.7,25.7,29.18,East,88,15.0,15.0,29,0.00,,---,0.00,VWS V14.01,2015-04-27 13:35:00,
2015-04-27 06:36:00,57.6,25.6,29.19,ESE,117,5.0,15.0,29,0.00,,---,0.00,VWS V14.01,2015-04-27 13:36:00,
2015-04-27 06:37:00,57.7,25.7,29.19,SSW,210,7.0,15.0,29,0.00,,---,0.00,VWS V14.01,2015-04-27 13:37:00,
2015-04-27 06:38:00,57.7,25.7,29.18,SE,132,6.0,11.0,29,0.00,,---,0.00,VWS V14.01,2015-04-27 13:38:00,
2015-04-27 06:39:00,57.8,25.8,29.18,SE,136,9.0,11.0,29,0.00,,---,0.00,VWS V14.01,2015-04-27 13:39:00,
2015-04-27 06:40:00,57.8,25.8,29.19,SE,134,9.0,10.0,29,0.00,,---,0.00,VWS V14.01,2015-04-27 13:40:00,
2015-04-27 06:41:00,57.7,25.7,29.18,SSW,205,3.0,12.0,29,0.00,,---,0.00,VWS V14.01,2015-04-27 13:41:00,
2015-04-27 06:42:00,57.8,26.6,29.19,South,174,10.0,12.0,30,0.00,,---,0.00,VWS V14.01,2015-04-27 13:42:00,
2015-04-27 06:43:00,57.8,25.8,29.19,SE,132,5.0,12.0,29,0.00,,---,0.00,VWS V14.01,2015-04-27 13:43:00,
2015-04-27 06:44:00,57.8,25.8,29.19,South,173,7.0,12.0,29,0.00,,---,0.00,VWS V14.01,2015-04-27 13:44:00,
2015-04-27 06:45:00,57.8,25.8,29.19,SSE,148,8.0,13.0,29,0.00,,---,0.00,VWS V14.01,2015-04-27 13:45:00,
2015-04-27 06:46:00,57.8,25.8,29.19,South,175,5.0,13.0,29,0.00,,---,0.00,VWS V14.01,2015-04-27 13:46:00,
2015-04-27 06:47:00,57.9,25.9,29.19,East,94,7.0,12.0,29,0.00,,---,0.00,VWS V14.01,2015-04-27 13:47:00,
2015-04-27 06:48:00,57.9,25.9,29.18,ENE,63,15.0,15.0,29,0.00,,---,0.00,VWS V14.01,2015-04-27 13:48:00,
2015-04-27 06:49:00,58.0,26.0,29.19,ESE,109,11.0,16.0,29,0.00,,---,0.00,VWS V14.01,2015-04-27 13:49:00,
2015-04-27 06:50:00,57.9,25.9,29.19,ESE,109,12.0,16.0,29,0.00,,---,0.00,VWS V14.01,2015-04-27 13:50:00,
2015-04-27 06:51:00,57.6,24.8,29.19,SE,133,6.0,13.0,28,0.00,,---,0.00,VWS V14.01,2015-04-27 13:51:00,
2015-04-27 06:52:00,57.5,25.5,29.19,SSE,159,14.0,14.0,29,0.00,,---,0.00,VWS V14.01,2015-04-27 13:52:00,
2015-04-27 06:53:00,57.4,25.4,29.18,SSE,163,6.0,14.0,29,0.00,,---,0.00,VWS V14.01,2015-04-27 13:53:00,
2015-04-27 06:54:00,57.4,25.4,29.18,SE,125,5.0,14.0,29,0.00,,---,0.00,VWS V14.01,2015-04-27 13:54:00,
2015-04-27 06:55:00,57.5,26.3,29.18,ESE,118,6.0,10.0,30,0.00,,---,0.00,VWS V14.01,2015-04-27 13:55:00,
2015-04-27 06:56:00,57.8,25.8,29.18,ESE,118,8.0,8.0,29,0.00,,---,0.00,VWS V14.01,2015-04-27 13:56:00,
2015-04-27 06:57:00,58.0,26.0,29.18,East,101,7.0,12.0,29,0.00,,---,0.00,VWS V14.01,2015-04-27 13:57:00,
2015-04-27 06:58:00,57.9,25.9,29.18,ESE,102,13.0,13.0,29,0.00,,---,0.00,VWS V14.01,2015-04-27 13:58:00,
2015-04-27 06:59:00,58.0,26.0,29.18,East,80,15.0,15.0,29,0.00,,---,0.00,VWS V14.01,2015-04-27 13:59:00,
2015-04-27 07:00:00,58.0,25.1,29.18,ENE,69,6.0,15.0,28,0.00,,---,0.00,VWS V14.01,2015-04-27 14:00:00,
2015-04-27 07:01:00,57.7,24.8,29.18,NE,50,6.0,15.0,28,0.00,,---,0.00,VWS V14.01,2015-04-27 14:01:00,
2015-04-27 07:02:00,57.8,25.8,29.18,SE,141,10.0,10.0,29,0.00,,---,0.00,VWS V14.01,2015-04-27 14:02:00,
2015-04-27 07:03:00,57.8,25.8,29.18,ENE,64,7.0,11.0,29,0.00,,---,0.00,VWS V14.01,2015-04-27 14:03:00,
2015-04-27 07:04:00,57.8,25.8,29.18,East,100,11.0,12.0,29,0.00,,---,0.00,VWS V14.01,2015-04-27 14:04:00,
2015-04-27 07:05:00,57.9,25.9,29.18,ESE,121,6.0,12.0,29,0.00,,---,0.00,VWS V14.01,2015-04-27 14:05:00,
2015-04-27 07:06:00,57.9,25.9,29.18,SSE,167,7.0,12.0,29,0.00,,---,0.00,VWS V14.01,2015-04-27 14:06:00,
2015-04-27 07:07:00,58.0,26.0,29.18,South,173,7.0,11.0,29,0.00,,---,0.00,VWS V14.01,2015-04-27 14:07:00,
2015-04-27 07:08:00,57.9,25.9,29.18,South,177,8.0,11.0,29,0.00,,---,0.00,VWS V14.01,2015-04-27 14:08:00,
2015-04-27 07:09:00,57.7,25.7,29.18,South,169,7.0,12.0,29,0.00,,---,0.00,VWS V14.01,2015-04-27 14:09:00,
2015-04-27 07:10:00,57.6,26.4,29.18,South,184,6.0,12.0,30,0.00,,---,0.00,VWS V14.01,2015-04-27 14:10:00,
2015-04-27 07:11:00,57.7,26.5,29.18,East,98,4.0,10.0,30,0.00,,---,0.00,VWS V14.01,2015-04-27 14:11:00,
2015-04-27 07:12:00,57.9,26.7,29.18,East,89,7.0,7.0,30,0.00,,---,0.00,VWS V14.01,2015-04-27 14:12:00,
2015-04-27 07:13:00,58.2,26.1,29.18,ESE,119,11.0,13.0,29,0.00,,---,0.00,VWS V14.01,2015-04-27 14:13:00,
2015-04-27 07:14:00,58.3,26.2,29.18,SE,135,9.0,13.0,29,0.00,,---,0.00,VWS V14.01,2015-04-27 14:14:00,
2015-04-27 07:15:00,58.4,26.3,29.17,ESE,103,6.0,13.0,29,0.00,,---,0.00,VWS V14.01,2015-04-27 14:15:00,
2015-04-27 07:16:00,58.4,25.5,29.18,ESE,113,6.0,12.0,28,0.00,,---,0.00,VWS V14.01,2015-04-27 14:16:00,
2015-04-27 07:17:00,58.6,26.5,29.18,SE,146,8.0,8.0,29,0.00,,---,0.00,VWS V14.01,2015-04-27 14:17:00,
2015-04-27 07:18:00,58.8,26.6,29.18,SSW,211,6.0,13.0,29,0.00,,---,0.00,VWS V14.01,2015-04-27 14:18:00,
2015-04-27 07:19:00,58.9,26.7,29.18,East,99,7.0,13.0,29,0.00,,---,0.00,VWS V14.01,2015-04-27 14:19:00,
2015-04-27 07:20:00,59.1,26.9,29.18,ESE,110,15.0,15.0,29,0.00,,---,0.00,VWS V14.01,2015-04-27 14:20:00,
2015-04-27 07:21:00,59.0,26.0,29.18,East,91,6.0,15.0,28,0.00,,---,0.00,VWS V14.01,2015-04-27 14:21:00,
2015-04-27 07:22:00,58.9,25.9,29.18,East,97,7.0,15.0,28,0.00,,---,0.00,VWS V14.01,2015-04-27 14:22:00,
2015-04-27 07:23:00,58.9,25.9,29.18,East,100,5.0,14.0,28,0.00,,---,0.00,VWS V14.01,2015-04-27 14:23:00,
2015-04-27 07:24:00,58.7,25.7,29.17,ESE,115,4.0,8.0,28,0.00,,---,0.00,VWS V14.01,2015-04-27 14:24:00,
2015-04-27 07:25:00,58.7,25.7,29.18,SSW,206,4.0,8.0,28,0.00,,---,0.00,VWS V14.01,2015-04-27 14:25:00,
2015-04-27 07:26:00,58.8,26.6,29.18,East,98,13.0,13.0,29,0.00,,---,0.00,VWS V14.01,2015-04-27 14:26:00,
2015-04-27 07:27:00,59.2,27.0,29.17,ESE,114,8.0,13.0,29,0.00,,---,0.00,VWS V14.01,2015-04-27 14:27:00,
2015-04-27 07:28:00,59.3,26.2,29.18,SSW,211,5.0,13.0,28,0.00,,---,0.00,VWS V14.01,2015-04-27 14:28:00,
2015-04-27 07:29:00,59.0,26.0,29.18,ESE,117,7.0,13.0,28,0.00,,---,0.00,VWS V14.01,2015-04-27 14:29:00,
2015-04-27 07:30:00,58.9,25.9,29.18,SE,136,6.0,12.0,28,0.00,,---,0.00,VWS V14.01,2015-04-27 14:30:00,
2015-04-27 07:31:00,58.7,26.5,29.18,SE,132,6.0,12.0,29,0.00,,---,0.00,VWS V14.01,2015-04-27 14:31:00,
2015-04-27 07:32:00,58.8,26.6,29.18,SSE,164,4.0,8.0,29,0.00,,---,0.00,VWS V14.01,2015-04-27 14:32:00,
2015-04-27 07:33:00,59.0,26.8,29.18,ESE,103,6.0,8.0,29,0.00,,---,0.00,VWS V14.01,2015-04-27 14:33:00,
2015-04-27 07:34:00,59.4,27.2,29.18,ESE,107,4.0,7.0,29,0.00,,---,0.00,VWS V14.01,2015-04-27 14:34:00,
2015-04-27 07:35:00,59.7,27.4,29.18,East,84,7.0,7.0,29,0.00,,---,0.00,VWS V14.01,2015-04-27 14:35:00,
2015-04-27 07:36:00,60.2,27.9,29.17,ESE,121,6.0,10.0,29,0.00,,---,0.00,VWS V14.01,2015-04-27 14:36:00,
2015-04-27 07:37:00,60.3,27.1,29.17,ESE,105,5.0,10.0,28,0.00,,---,0.00,VWS V14.01,2015-04-27 14:37:00,
2015-04-27 07:38:00,60.2,26.1,29.17,East,98,12.0,12.0,27,0.00,,---,0.00,VWS V14.01,2015-04-27 14:38:00,
2015-04-27 07:39:00,60.2,27.0,29.18,ENE,74,10.0,12.0,28,0.00,,---,0.00,VWS V14.01,2015-04-27 14:39:00,
2015-04-27 07:40:00,60.0,26.0,29.17,ESE,117,2.0,12.0,27,0.00,,---,0.00,VWS V14.01,2015-04-27 14:40:00,
2015-04-27 07:41:00,59.9,26.7,29.17,ENE,71,13.0,13.0,28,0.00,,---,0.00,VWS V14.01,2015-04-27 14:41:00,
2015-04-27 07:42:00,59.8,26.6,29.17,East,97,12.0,14.0,28,0.00,,---,0.00,VWS V14.01,2015-04-27 14:42:00,
2015-04-27 07:43:00,59.7,26.6,29.17,ENE,77,4.0,14.0,28,0.00,,---,0.00,VWS V14.01,2015-04-27 14:43:00,
2015-04-27 07:44:00,59.6,26.5,29.17,East,92,7.0,14.0,28,0.00,,---,0.00,VWS V14.01,2015-04-27 14:44:00,
2015-04-27 07:45:00,59.8,26.6,29.17,ESE,103,6.0,15.0,28,0.00,,---,0.00,VWS V14.01,2015-04-27 14:45:00,
2015-04-27 07:46:00,60.2,27.9,29.17,ENE,75,6.0,15.0,29,0.00,,---,0.00,VWS V14.01,2015-04-27 14:46:00,
2015-04-27 07:47:00,60.3,27.1,29.17,East,79,10.0,13.0,28,0.00,,---,0.00,VWS V14.01,2015-04-27 14:47:00,
2015-04-27 07:48:00,60.3,27.1,29.17,East,86,11.0,14.0,28,0.00,,---,0.00,VWS V14.01,2015-04-27 14:48:00,
2015-04-27 07:49:00,60.5,26.4,29.17,NE,49,6.0,14.0,27,0.00,,---,0.00,VWS V14.01,2015-04-27 14:49:00,
2015-04-27 07:50:00,60.4,26.3,29.17,NE,52,7.0,14.0,27,0.00,,---,0.00,VWS V14.01,2015-04-27 14:50:00,
2015-04-27 07:51:00,60.4,26.3,29.17,ENE,63,7.0,13.0,27,0.00,,---,0.00,VWS V14.01,2015-04-27 14:51:00,
2015-04-27 07:52:00,60.6,26.5,29.17,ENE,69,11.0,14.0,27,0.00,,---,0.00,VWS V14.01,2015-04-27 14:52:00,
2015-04-27 07:53:00,60.8,26.6,29.17,ENE,76,10.0,14.0,27,0.00,,---,0.00,VWS V14.01,2015-04-27 14:53:00,
2015-04-27 07:54:00,60.9,26.7,29.17,ESE,105,8.0,14.0,27,0.00,,---,0.00,VWS V14.01,2015-04-27 14:54:00,
2015-04-27 07:55:00,61.0,26.8,29.17,ENE,72,2.0,11.0,27,0.00,,---,0.00,VWS V14.01,2015-04-27 14:55:00,
2015-04-27 07:56:00,61.1,26.9,29.17,SSE,160,5.0,10.0,27,0.00,,---,0.00,VWS V14.01,2015-04-27 14:56:00,
2015-04-27 07:57:00,61.2,27.0,29.17,ESE,109,13.0,13.0,27,0.00,,---,0.00,VWS V14.01,2015-04-27 14:57:00,
2015-04-27 07:58:00,61.1,26.9,29.17,SE,127,12.0,13.0,27,0.00,,---,0.00,VWS V14.01,2015-04-27 14:58:00,
2015-04-27 07:59:00,60.9,26.7,29.17,SE,134,2.0,13.0,27,0.00,,---,0.00,VWS V14.01,2015-04-27 14:59:00,
2015-04-27 08:00:00,60.7,26.5,29.17,East,84,7.0,12.0,27,0.00,,---,0.00,VWS V14.01,2015-04-27 15:00:00,
2015-04-27 08:01:00,60.6,26.5,29.17,East,88,6.0,12.0,27,0.00,,---,0.00,VWS V14.01,2015-04-27 15:01:00,
2015-04-27 08:02:00,60.9,27.6,29.17,East,88,7.0,12.0,28,0.00,,---,0.00,VWS V14.01,2015-04-27 15:02:00,
2015-04-27 08:03:00,61.0,26.8,29.17,ENE,60,11.0,14.0,27,0.00,,---,0.00,VWS V14.01,2015-04-27 15:03:00,
2015-04-27 08:04:00,60.9,26.7,29.17,ENE,63,2.0,14.0,27,0.00,,---,0.00,VWS V14.01,2015-04-27 15:04:00,
2015-04-27 08:05:00,61.0,26.8,29.17,East,93,13.0,14.0,27,0.00,,---,0.00,VWS V14.01,2015-04-27 15:05:00,
2015-04-27 08:06:00,61.0,26.8,29.17,ENE,65,17.0,17.0,27,0.00,,---,0.00,VWS V14.01,2015-04-27 15:06:00,
2015-04-27 08:07:00,61.1,26.9,29.17,ENE,78,10.0,17.0,27,0.00,,---,0.00,VWS V14.01,2015-04-27 15:07:00,
2015-04-27 08:08:00,61.1,26.0,29.17,NE,37,11.0,17.0,26,0.00,,---,0.00,VWS V14.01,2015-04-27 15:08:00,
2015-04-27 08:09:00,61.0,25.9,29.17,East,87,7.0,14.0,26,0.00,,---,0.00,VWS V14.01,2015-04-27 15:09:00,
2015-04-27 08:10:00,49.4,28.4,29.19,NNE,30,0.0,0.0,44,0.00,,---,0.00,VWS V14.01,2015-04-27 15:10:00,
2015-04-27 08:11:00,61.4,27.1,29.17,East,86,4.0,8.0,27,0.00,,---,0.00,VWS V14.01,2015-04-27 15:11:00,
2015-04-27 08:12:00,61.8,27.5,29.17,East,101,7.0,8.0,27,0.00,,---,0.00,VWS V14.01,2015-04-27 15:12:00,
2015-04-27 08:13:00,62.0,26.8,29.16,ESE,103,14.0,14.0,26,0.00,,---,0.00,VWS V14.01,2015-04-27 15:13:00,
2015-04-27 08:14:00,62.0,26.8,29.16,East,95,12.0,15.0,26,0.00,,---,0.00,VWS V14.01,2015-04-27 15:14:00,
2015-04-27 08:15:00,62.0,26.8,29.17,ENE,76,13.0,15.0,26,0.00,,---,0.00,VWS V14.01,2015-04-27 15:15:00,
2015-04-27 08:16:00,50.1,29.0,29.19,NNE,30,0.0,2.0,44,0.00,,---,0.00,VWS V14.01,2015-04-27 15:16:00,
2015-04-27 08:17:00,62.4,27.1,29.17,ESE,103,8.0,15.0,26,0.00,,---,0.00,VWS V14.01,2015-04-27 15:17:00,
2015-04-27 08:18:00,62.4,26.1,29.17,ESE,103,9.0,15.0,25,0.00,,---,0.00,VWS V14.01,2015-04-27 15:18:00,
2015-04-27 08:19:00,62.3,26.1,29.17,ENE,57,7.0,13.0,25,0.00,,---,0.00,VWS V14.01,2015-04-27 15:19:00,
2015-04-27 08:20:00,62.2,26.9,29.17,East,98,6.0,15.0,26,0.00,,---,0.00,VWS V14.01,2015-04-27 15:20:00,
2015-04-27 08:21:00,62.2,26.9,29.17,SE,138,4.0,15.0,26,0.00,,---,0.00,VWS V14.01,2015-04-27 15:21:00,
2015-04-27 08:22:00,62.0,26.8,29.17,NE,55,2.0,12.0,26,0.00,,---,0.00,VWS V14.01,2015-04-27 15:22:00,
2015-04-27 08:23:00,61.8,25.6,29.16,East,92,4.0,9.0,25,0.00,,---,0.00,VWS V14.01,2015-04-27 15:23:00,
2015-04-27 08:24:00,61.6,26.4,29.16,NE,52,6.0,8.0,26,0.00,,---,0.00,VWS V14.01,2015-04-27 15:24:00,
2015-04-27 08:25:00,61.9,27.6,29.16,East,88,7.0,14.0,27,0.00,,---,0.00,VWS V14.01,2015-04-27 15:25:00,
2015-04-27 08:26:00,62.2,26.9,29.16,NE,51,7.0,14.0,26,0.00,,---,0.00,VWS V14.01,2015-04-27 15:26:00,
2015-04-27 08:27:00,62.2,26.0,29.16,East,85,10.0,14.0,25,0.00,,---,0.00,VWS V14.01,2015-04-27 15:27:00,
2015-04-27 08:28:00,62.1,25.9,29.16,East,97,6.0,14.0,25,0.00,,---,0.00,VWS V14.01,2015-04-27 15:28:00,
2015-04-27 08:29:00,61.9,26.7,29.16,East,98,11.0,11.0,26,0.00,,---,0.00,VWS V14.01,2015-04-27 15:29:00,
2015-04-27 08:30:00,62.1,26.8,29.16,East,79,10.0,15.0,26,0.00,,---,0.00,VWS V14.01,2015-04-27 15:30:00,
2015-04-27 08:31:00,62.1,25.9,29.16,East,87,8.0,15.0,25,0.00,,---,0.00,VWS V14.01,2015-04-27 15:31:00,
2015-04-27 08:32:00,62.1,25.9,29.16,ENE,61,4.0,14.0,25,0.00,,---,0.00,VWS V14.01,2015-04-27 15:32:00,
2015-04-27 08:33:00,62.2,26.9,29.16,ENE,62,5.0,13.0,26,0.00,,---,0.00,VWS V14.01,2015-04-27 15:33:00,
2015-04-27 08:34:00,62.3,27.0,29.16,SSE,165,8.0,12.0,26,0.00,,---,0.00,VWS V14.01,2015-04-27 15:34:00,
2015-04-27 08:35:00,62.5,27.2,29.16,SSE,151,6.0,12.0,26,0.00,,---,0.00,VWS V14.01,2015-04-27 15:35:00,
2015-04-27 08:36:00,62.5,26.2,29.16,ENE,74,4.0,13.0,25,0.00,,---,0.00,VWS V14.01,2015-04-27 15:36:00,
2015-04-27 08:37:00,62.4,26.1,29.16,ENE,74,6.0,14.0,25,0.00,,---,0.00,VWS V14.01,2015-04-27 15:37:00,
2015-04-27 08:38:00,62.2,26.0,29.16,NE,53,7.0,14.0,25,0.00,,---,0.00,VWS V14.01,2015-04-27 15:38:00,
2015-04-27 08:39:00,61.8,25.6,29.16,East,87,4.0,14.0,25,0.00,,---,0.00,VWS V14.01,2015-04-27 15:39:00,
2015-04-27 08:40:00,62.0,26.8,29.16,East,82,7.0,11.0,26,0.00,,---,0.00,VWS V14.01,2015-04-27 15:40:00,
2015-04-27 08:41:00,62.2,26.9,29.16,NNE,31,14.0,15.0,26,0.00,,---,0.00,VWS V14.01,2015-04-27 15:41:00,
2015-04-27 08:42:00,62.3,26.1,29.16,ENE,59,10.0,15.0,25,0.00,,---,0.00,VWS V14.01,2015-04-27 15:42:00,
2015-04-27 08:43:00,62.1,25.9,29.16,ENE,64,14.0,15.0,25,0.00,,---,0.00,VWS V14.01,2015-04-27 15:43:00,
2015-04-27 08:44:00,61.8,25.6,29.16,ENE,78,10.0,15.0,25,0.00,,---,0.00,VWS V14.01,2015-04-27 15:44:00,
2015-04-27 08:45:00,61.6,25.5,29.16,ESE,117,13.0,15.0,25,0.00,,---,0.00,VWS V14.01,2015-04-27 15:45:00,
2015-04-27 08:46:00,61.6,26.4,29.16,East,92,14.0,15.0,26,0.00,,---,0.00,VWS V14.01,2015-04-27 15:46:00,
2015-04-27 08:47:00,61.6,26.4,29.16,East,94,6.0,14.0,26,0.00,,---,0.00,VWS V14.01,2015-04-27 15:47:00,
2015-04-27 08:48:00,62.0,26.8,29.16,East,85,5.0,14.0,26,0.00,,---,0.00,VWS V14.01,2015-04-27 15:48:00,
2015-04-27 08:49:00,62.0,25.8,29.16,East,90,6.0,11.0,25,0.00,,---,0.00,VWS V14.01,2015-04-27 15:49:00,
2015-04-27 08:50:00,61.7,25.5,29.16,East,92,4.0,11.0,25,0.00,,---,0.00,VWS V14.01,2015-04-27 15:50:00,
2015-04-27 08:51:00,61.7,25.5,29.15,NE,51,10.0,10.0,25,0.00,,---,0.00,VWS V14.01,2015-04-27 15:51:00,
2015-04-27 08:52:00,62.0,26.8,29.15,ENE,59,7.0,12.0,26,0.00,,---,0.00,VWS V14.01,2015-04-27 15:52:00,
2015-04-27 08:53:00,62.5,27.2,29.15,NNE,32,9.0,14.0,26,0.00,,---,0.00,VWS V14.01,2015-04-27 15:53:00,
2015-04-27 08:54:00,62.7,25.4,29.15,NE,55,8.0,14.0,24,0.00,,---,0.00,VWS V14.01,2015-04-27 15:54:00,
2015-04-27 08:55:00,62.6,25.3,29.16,East,88,5.0,14.0,24,0.00,,---,0.00,VWS V14.01,2015-04-27 15:55:00,
2015-04-27 08:56:00,62.3,25.1,29.15,ESE,115,5.0,13.0,24,0.00,,---,0.00,VWS V14.01,2015-04-27 15:56:00,
2015-04-27 08:57:00,62.2,26.0,29.15,ENE,74,8.0,14.0,25,0.00,,---,0.00,VWS V14.01,2015-04-27 15:57:00,
2015-04-27 08:58:00,62.2,26.0,29.15,East,80,11.0,14.0,25,0.00,,---,0.00,VWS V14.01,2015-04-27 15:58:00,
2015-04-27 08:59:00,62.3,27.0,29.15,ESE,108,6.0,14.0,26,0.00,,---,0.00,VWS V14.01,2015-04-27 15:59:00,
2015-04-27 09:00:00,62.5,26.2,29.15,East,89,4.0,13.0,25,0.00,,---,0.00,VWS V14.01,2015-04-27 16:00:00,
2015-04-27 09:01:00,62.7,26.4,29.15,ENE,76,6.0,11.0,25,0.00,,---,0.00,VWS V14.01,2015-04-27 16:01:00,
2015-04-27 09:02:00,63.1,26.7,29.15,East,92,7.0,13.0,25,0.00,,---,0.00,VWS V14.01,2015-04-27 16:02:00,
2015-04-27 09:03:00,63.5,26.1,29.15,ESE,122,11.0,14.0,24,0.00,,---,0.00,VWS V14.01,2015-04-27 16:03:00,
2015-04-27 09:04:00,63.5,26.1,29.15,East,82,13.0,14.0,24,0.00,,---,0.00,VWS V14.01,2015-04-27 16:04:00,
2015-04-27 09:05:00,63.4,26.0,29.15,East,88,10.0,15.0,24,0.00,,---,0.00,VWS V14.01,2015-04-27 16:05:00,
2015-04-27 09:06:00,63.4,27.0,29.15,East,98,7.0,15.0,25,0.00,,---,0.00,VWS V14.01,2015-04-27 16:06:00,
2015-04-27 09:07:00,63.4,26.0,29.15,ENE,59,6.0,15.0,24,0.00,,---,0.00,VWS V14.01,2015-04-27 16:07:00,
2015-04-27 09:08:00,63.4,25.0,29.15,ESE,115,11.0,13.0,23,0.00,,---,0.00,VWS V14.01,2015-04-27 16:08:00,
2015-04-27 09:09:00,63.3,25.9,29.15,NNE,25,7.0,11.0,24,0.00,,---,0.00,VWS V14.01,2015-04-27 16:09:00,
2015-04-27 09:10:00,63.1,24.7,29.15,ENE,77,10.0,11.0,23,0.00,,---,0.00,VWS V14.01,2015-04-27 16:10:00,
2015-04-27 09:11:00,63.3,25.9,29.15,ENE,58,12.0,12.0,24,0.00,,---,0.00,VWS V14.01,2015-04-27 16:11:00,
2015-04-27 09:12:00,63.2,25.8,29.15,ENE,63,8.0,12.0,24,0.00,,---,0.00,VWS V14.01,2015-04-27 16:12:00,
2015-04-27 09:13:00,63.0,25.7,29.15,ENE,64,7.0,12.0,24,0.00,,---,0.00,VWS V14.01,2015-04-27 16:13:00,
2015-04-27 09:14:00,63.0,25.7,29.15,ENE,62,4.0,11.0,24,0.00,,---,0.00,VWS V14.01,2015-04-27 16:14:00,
2015-04-27 09:15:00,63.0,25.7,29.15,SSE,148,5.0,14.0,24,0.00,,---,0.00,VWS V14.01,2015-04-27 16:15:00,
2015-04-27 09:16:00,55.1,28.0,29.20,ESE,117,2.0,8.0,35,0.00,,---,0.00,VWS V14.01,2015-04-27 16:16:00,
2015-04-27 09:17:00,62.8,26.5,29.15,East,98,11.0,13.0,25,0.00,,---,0.00,VWS V14.01,2015-04-27 16:17:00,
2015-04-27 09:18:00,62.9,26.6,29.15,ENE,75,11.0,13.0,25,0.00,,---,0.00,VWS V14.01,2015-04-27 16:18:00,
2015-04-27 09:19:00,62.7,26.4,29.15,East,82,4.0,13.0,25,0.00,,---,0.00,VWS V14.01,2015-04-27 16:19:00,
2015-04-27 09:20:00,62.6,26.3,29.15,SE,142,8.0,13.0,25,0.00,,---,0.00,VWS V14.01,2015-04-27 16:20:00,
2015-04-27 09:21:00,62.9,26.6,29.15,ENE,66,8.0,12.0,25,0.00,,---,0.00,VWS V14.01,2015-04-27 16:21:00,
2015-04-27 09:22:00,63.1,26.7,29.15,ENE,70,10.0,15.0,25,0.00,,---,0.00,VWS V14.01,2015-04-27 16:22:00,
2015-04-27 09:23:00,63.2,25.8,29.14,ENE,75,12.0,15.0,24,0.00,,---,0.00,VWS V14.01,2015-04-27 16:23:00,
2015-04-27 09:24:00,63.3,25.9,29.14,ESE,117,11.0,15.0,24,0.00,,---,0.00,VWS V14.01,2015-04-27 16:24:00,
2015-04-27 09:25:00,63.4,27.0,29.14,SSE,151,7.0,14.0,25,0.00,,---,0.00,VWS V14.01,2015-04-27 16:25:00,
2015-04-27 09:26:00,63.4,26.0,29.14,ESE,103,9.0,14.0,24,0.00,,---,0.00,VWS V14.01,2015-04-27 16:26:00,
2015-04-27 09:27:00,63.3,24.9,29.14,East,95,11.0,13.0,23,0.00,,---,0.00,VWS V14.01,2015-04-27 16:27:00,
2015-04-27 09:28:00,63.2,25.8,29.14,East,82,8.0,13.0,24,0.00,,---,0.00,VWS V14.01,2015-04-27 16:28:00,
2015-04-27 09:29:00,63.2,24.8,29.14,NE,37,6.0,13.0,23,0.00,,---,0.00,VWS V14.01,2015-04-27 16:29:00,
2015-04-27 09:30:00,63.3,24.9,29.14,ENE,70,4.0,13.0,23,0.00,,---,0.00,VWS V14.01,2015-04-27 16:30:00,
2015-04-27 09:31:00,63.4,26.0,29.14,ESE,106,5.0,11.0,24,0.00,,---,0.00,VWS V14.01,2015-04-27 16:31:00,
2015-04-27 09:32:00,63.6,26.2,29.14,SSW,212,2.0,12.0,24,0.00,,---,0.00,VWS V14.01,2015-04-27 16:32:00,
2015-04-27 09:33:00,63.7,26.3,29.14,SSE,158,8.0,12.0,24,0.00,,---,0.00,VWS V14.01,2015-04-27 16:33:00,
2015-04-27 09:34:00,63.5,26.1,29.14,SE,142,8.0,11.0,24,0.00,,---,0.00,VWS V14.01,2015-04-27 16:34:00,
2015-04-27 09:35:00,63.5,26.1,29.14,East,82,6.0,13.0,24,0.00,,---,0.00,VWS V14.01,2015-04-27 16:35:00,
2015-04-27 09:36:00,63.6,26.2,29.14,SSE,148,4.0,13.0,24,0.00,,---,0.00,VWS V14.01,2015-04-27 16:36:00,
2015-04-27 09:37:00,63.9,26.4,29.14,East,98,13.0,13.0,24,0.00,,---,0.00,VWS V14.01,2015-04-27 16:37:00,
2015-04-27 09:38:00,63.8,26.3,29.14,ENE,57,5.0,16.0,24,0.00,,---,0.00,VWS V14.01,2015-04-27 16:38:00,
2015-04-27 09:39:00,63.6,26.2,29.13,East,86,6.0,16.0,24,0.00,,---,0.00,VWS V14.01,2015-04-27 16:39:00,
2015-04-27 09:40:00,63.8,26.3,29.13,East,84,6.0,12.0,24,0.00,,---,0.00,VWS V14.01,2015-04-27 16:40:00,
2015-04-27 09:41:00,63.8,26.3,29.13,SE,128,6.0,12.0,24,0.00,,---,0.00,VWS V14.01,2015-04-27 16:41:00,
2015-04-27 09:42:00,63.9,26.4,29.13,East,88,6.0,12.0,24,0.00,,---,0.00,VWS V14.01,2015-04-27 16:42:00,
2015-04-27 09:43:00,64.1,26.6,29.14,ENE,72,10.0,12.0,24,0.00,,---,0.00,VWS V14.01,2015-04-27 16:43:00,
2015-04-27 09:44:00,64.1,26.6,29.13,SSE,148,6.0,12.0,24,0.00,,---,0.00,VWS V14.01,2015-04-27 16:44:00,
2015-04-27 09:45:00,64.4,26.9,29.13,South,184,6.0,10.0,24,0.00,,---,0.00,VWS V14.01,2015-04-27 16:45:00,
2015-04-27 09:46:00,64.6,27.0,29.13,East,80,4.0,9.0,24,0.00,,---,0.00,VWS V14.01,2015-04-27 16:46:00,
2015-04-27 09:47:00,64.5,26.9,29.13,South,188,5.0,9.0,24,0.00,,---,0.00,VWS V14.01,2015-04-27 16:47:00,
2015-04-27 09:48:00,64.5,26.9,29.13,SSE,163,5.0,13.0,24,0.00,,---,0.00,VWS V14.01,2015-04-27 16:48:00,
2015-04-27 09:49:00,64.7,27.1,29.13,East,93,9.0,13.0,24,0.00,,---,0.00,VWS V14.01,2015-04-27 16:49:00,
2015-04-27 09:50:00,64.7,27.1,29.13,East,80,3.0,13.0,24,0.00,,---,0.00,VWS V14.01,2015-04-27 16:50:00,
2015-04-27 09:51:00,64.6,26.0,29.13,South,170,6.0,11.0,23,0.00,,---,0.00,VWS V14.01,2015-04-27 16:51:00,
2015-04-27 09:52:00,64.7,27.1,29.13,ENE,59,3.0,7.0,24,0.00,,---,0.00,VWS V14.01,2015-04-27 16:52:00,
2015-04-27 09:53:00,65.0,26.3,29.13,ESE,105,6.0,10.0,23,0.00,,---,0.00,VWS V14.01,2015-04-27 16:53:00,
2015-04-27 09:54:00,65.0,25.3,29.13,East,88,8.0,10.0,22,0.00,,---,0.00,VWS V14.01,2015-04-27 16:54:00,
2015-04-27 09:55:00,57.5,26.3,29.19,SE,133,11.0,12.0,30,0.00,,---,0.00,VWS V14.01,2015-04-27 16:55:00,
2015-04-27 09:56:00,64.7,25.0,29.13,SSE,167,8.0,13.0,22,0.00,,---,0.00,VWS V14.01,2015-04-27 16:56:00,
2015-04-27 09:57:00,64.6,24.9,29.13,ESE,119,9.0,13.0,22,0.00,,---,0.00,VWS V14.01,2015-04-27 16:57:00,
2015-04-27 09:58:00,64.2,25.7,29.13,East,98,12.0,17.0,23,0.00,,---,0.00,VWS V14.01,2015-04-27 16:58:00,
2015-04-27 09:59:00,64.0,25.5,29.13,East,79,10.0,17.0,23,0.00,,---,0.00,VWS V14.01,2015-04-27 16:59:00,
2015-04-27 10:00:00,64.1,25.6,29.13,ENE,67,6.0,12.0,23,0.00,,---,0.00,VWS V14.01,2015-04-27 17:00:00,
2015-04-27 10:01:00,64.3,25.7,29.13,East,98,7.0,13.0,23,0.00,,---,0.00,VWS V14.01,2015-04-27 17:01:00,
2015-04-27 10:02:00,57.4,25.4,29.19,ESE,120,6.0,11.0,29,0.00,,---,0.00,VWS V14.01,2015-04-27 17:02:00,
2015-04-27 10:03:00,64.9,27.3,29.13,East,87,10.0,13.0,24,0.00,,---,0.00,VWS V14.01,2015-04-27 17:03:00,
2015-04-27 10:04:00,65.0,27.4,29.13,East,92,9.0,13.0,24,0.00,,---,0.00,VWS V14.01,2015-04-27 17:04:00,
2015-04-27 10:05:00,64.9,26.2,29.13,ENE,68,5.0,13.0,23,0.00,,---,0.00,VWS V14.01,2015-04-27 17:05:00,
2015-04-27 10:06:00,64.9,27.3,29.13,SSE,161,7.0,13.0,24,0.00,,---,0.00,VWS V14.01,2015-04-27 17:06:00,
2015-04-27 10:07:00,65.0,26.3,29.13,East,99,9.0,13.0,23,0.00,,---,0.00,VWS V14.01,2015-04-27 17:07:00,
2015-04-27 10:08:00,64.9,26.2,29.13,ESE,121,6.0,13.0,23,0.00,,---,0.00,VWS V14.01,2015-04-27 17:08:00,
2015-04-27 10:09:00,64.8,27.2,29.12,South,182,7.0,9.0,24,0.00,,---,0.00,VWS V14.01,2015-04-27 17:09:00,
2015-04-27 10:10:00,64.7,27.1,29.12,East,92,5.0,7.0,24,0.00,,---,0.00,VWS V14.01,2015-04-27 17:10:00,
2015-04-27 10:11:00,64.5,26.9,29.12,SSE,150,1.0,7.0,24,0.00,,---,0.00,VWS V14.01,2015-04-27 17:11:00,
2015-04-27 10:12:00,64.4,26.9,29.12,ESE,119,5.0,8.0,24,0.00,,---,0.00,VWS V14.01,2015-04-27 17:12:00,
2015-04-27 10:13:00,64.3,26.8,29.12,South,181,2.0,9.0,24,0.00,,---,0.00,VWS V14.01,2015-04-27 17:13:00,
2015-04-27 10:14:00,64.4,27.8,29.12,SE,146,9.0,9.0,25,0.00,,---,0.00,VWS V14.01,2015-04-27 17:14:00,
2015-04-27 10:15:00,64.5,26.9,29.12,ESE,104,9.0,13.0,24,0.00,,---,0.00,VWS V14.01,2015-04-27 17:15:00,
2015-04-27 10:16:00,64.5,26.9,29.12,ESE,117,7.0,14.0,24,0.00,,---,0.00,VWS V14.01,2015-04-27 17:16:00,
2015-04-27 10:17:00,64.3,26.8,29.12,East,101,5.0,14.0,24,0.00,,---,0.00,VWS V14.01,2015-04-27 17:17:00,
2015-04-27 10:18:00,64.5,27.9,29.12,East,79,8.0,10.0,25,0.00,,---,0.00,VWS V14.01,2015-04-27 17:18:00,
2015-04-27 10:19:00,64.9,27.3,29.12,ESE,120,7.0,10.0,24,0.00,,---,0.00,VWS V14.01,2015-04-27 17:19:00,
2015-04-27 10:20:00,65.3,27.6,29.12,East,98,13.0,13.0,24,0.00,,---,0.00,VWS V14.01,2015-04-27 17:20:00,
2015-04-27 10:21:00,65.6,26.8,29.12,NE,55,8.0,13.0,23,0.00,,---,0.00,VWS V14.01,2015-04-27 17:21:00,
2015-04-27 10:22:00,65.7,25.8,29.12,ENE,57,7.0,15.0,22,0.00,,---,0.00,VWS V14.01,2015-04-27 17:22:00,
2015-04-27 10:23:00,65.7,25.8,29.12,East,80,7.0,15.0,22,0.00,,---,0.00,VWS V14.01,2015-04-27 17:23:00,
2015-04-27 10:24:00,65.6,25.8,29.12,ENE,72,7.0,12.0,22,0.00,,---,0.00,VWS V14.01,2015-04-27 17:24:00,
2015-04-27 10:25:00,65.4,26.7,29.12,ESE,109,7.0,13.0,23,0.00,,---,0.00,VWS V14.01,2015-04-27 17:25:00,
2015-04-27 10:26:00,65.2,25.4,29.12,NE,54,10.0,18.0,22,0.00,,---,0.00,VWS V14.01,2015-04-27 17:26:00,
2015-04-27 10:27:00,64.8,25.1,29.12,ENE,65,10.0,18.0,22,0.00,,---,0.00,VWS V14.01,2015-04-27 17:27:00,
2015-04-27 10:28:00,64.3,25.7,29.12,ENE,74,10.0,12.0,23,0.00,,---,0.00,VWS V14.01,2015-04-27 17:28:00,
2015-04-27 10:29:00,64.3,25.7,29.12,East,94,8.0,12.0,23,0.00,,---,0.00,VWS V14.01,2015-04-27 17:29:00,
2015-04-27 10:30:00,64.4,25.8,29.12,NE,55,5.0,12.0,23,0.00,,---,0.00,VWS V14.01,2015-04-27 17:30:00,
2015-04-27 10:31:00,57.9,25.9,29.18,ENE,61,10.0,13.0,29,0.00,,---,0.00,VWS V14.01,2015-04-27 17:31:00,
2015-04-27 10:32:00,65.0,26.3,29.12,SSE,155,5.0,8.0,23,0.00,,---,0.00,VWS V14.01,2015-04-27 17:32:00,
2015-04-27 10:33:00,65.2,26.5,29.12,East,92,8.0,8.0,23,0.00,,---,0.00,VWS V14.01,2015-04-27 17:33:00,
2015-04-27 10:34:00,65.5,27.8,29.12,ENE,61,11.0,14.0,24,0.00,,---,0.00,VWS V14.01,2015-04-27 17:34:00,
2015-04-27 10:35:00,65.6,26.8,29.12,NE,55,7.0,15.0,23,0.00,,---,0.00,VWS V14.01,2015-04-27 17:35:00,
2015-04-27 10:36:00,65.3,25.5,29.12,East,98,6.0,15.0,22,0.00,,---,0.00,VWS V14.01,2015-04-27 17:36:00,
2015-04-27 10:37:00,65.4,26.7,29.12,South,186,5.0,10.0,23,0.00,,---,0.00,VWS V14.01,2015-04-27 17:37:00,
2015-04-27 10:38:00,65.7,28.0,29.12,ESE,108,4.0,8.0,24,0.00,,---,0.00,VWS V14.01,2015-04-27 17:38:00,
2015-04-27 10:39:00,66.0,27.2,29.12,East,98,5.0,9.0,23,0.00,,---,0.00,VWS V14.01,2015-04-27 17:39:00,
2015-04-27 10:40:00,66.1,26.2,29.12,NNE,33,9.0,12.0,22,0.00,,---,0.00,VWS V14.01,2015-04-27 17:40:00,
2015-04-27 10:41:00,65.8,24.8,29.12,East,86,10.0,12.0,21,0.00,,---,0.00,VWS V14.01,2015-04-27 17:41:00,
2015-04-27 10:42:00,65.6,24.6,29.12,ENE,74,18.0,18.0,21,0.00,,---,0.00,VWS V14.01,2015-04-27 17:42:00,
2015-04-27 10:43:00,65.4,25.6,29.12,ENE,65,11.0,18.0,22,0.00,,---,0.00,VWS V14.01,2015-04-27 17:43:00,
2015-04-27 10:44:00,65.0,25.3,29.12,NE,40,6.0,20.0,22,0.00,,---,0.00,VWS V14.01,2015-04-27 17:44:00,
2015-04-27 10:45:00,64.7,25.0,29.12,East,97,7.0,20.0,22,0.00,,---,0.00,VWS V14.01,2015-04-27 17:45:00,
2015-04-27 10:46:00,64.6,24.9,29.12,ESE,104,6.0,12.0,22,0.00,,---,0.00,VWS V14.01,2015-04-27 17:46:00,
2015-04-27 10:47:00,64.7,25.0,29.11,SE,138,8.0,12.0,22,0.00,,---,0.00,VWS V14.01,2015-04-27 17:47:00,
2015-04-27 10:48:00,64.7,26.1,29.12,SE,128,7.0,12.0,23,0.00,,---,0.00,VWS V14.01,2015-04-27 17:48:00,
2015-04-27 10:49:00,64.6,26.0,29.11,East,80,8.0,12.0,23,0.00,,---,0.00,VWS V14.01,2015-04-27 17:49:00,
2015-04-27 10:50:00,64.9,26.2,29.11,East,94,12.0,14.0,23,0.00,,---,0.00,VWS V14.01,2015-04-27 17:50:00,
2015-04-27 10:51:00,65.1,24.2,29.11,East,88,5.0,14.0,21,0.00,,---,0.00,VWS V14.01,2015-04-27 17:51:00,
2015-04-27 10:52:00,65.2,25.4,29.11,ESE,108,9.0,14.0,22,0.00,,---,0.00,VWS V14.01,2015-04-27 17:52:00,
2015-04-27 10:53:00,65.4,25.6,29.11,SSE,155,5.0,13.0,22,0.00,,---,0.00,VWS V14.01,2015-04-27 17:53:00,
2015-04-27 10:54:00,66.0,27.2,29.11,East,92,6.0,12.0,23,0.00,,---,0.00,VWS V14.01,2015-04-27 17:54:00,
2015-04-27 10:55:00,66.3,26.4,29.11,ENE,77,13.0,13.0,22,0.00,,---,0.00,VWS V14.01,2015-04-27 17:55:00,
2015-04-27 10:56:00,66.4,25.3,29.11,East,89,8.0,13.0,21,0.00,,---,0.00,VWS V14.01,2015-04-27 17:56:00,
2015-04-27 10:57:00,66.2,25.1,29.11,East,86,7.0,13.0,21,0.00,,---,0.00,VWS V14.01,2015-04-27 17:57:00,
2015-04-27 10:58:00,65.8,25.9,29.11,East,83,8.0,12.0,22,0.00,,---,0.00,VWS V14.01,2015-04-27 17:58:00,
2015-04-27 10:59:00,65.5,25.7,29.11,SE,127,8.0,9.0,22,0.00,,---,0.00,VWS V14.01,2015-04-27 17:59:00,
2015-04-27 11:00:00,65.6,25.8,29.11,NE,55,6.0,8.0,22,0.00,,---,0.00,VWS V14.01,2015-04-27 18:00:00,
2015-04-27 11:01:00,65.8,25.9,29.11,SE,136,6.0,11.0,22,0.00,,---,0.00,VWS V14.01,2015-04-27 18:01:00,
2015-04-27 11:02:00,65.9,26.0,29.11,ENE,66,10.0,11.0,22,0.00,,---,0.00,VWS V14.01,2015-04-27 18:02:00,
2015-04-27 11:03:00,65.7,25.8,29.11,South,180,8.0,10.0,22,0.00,,---,0.00,VWS V14.01,2015-04-27 18:03:00,
2015-04-27 11:04:00,65.9,27.1,29.11,ESE,105,11.0,11.0,23,0.00,,---,0.00,VWS V14.01,2015-04-27 18:04:00,
2015-04-27 11:05:00,66.1,27.2,29.11,ENE,74,11.0,13.0,23,0.00,,---,0.00,VWS V14.01,2015-04-27 18:05:00,
2015-04-27 11:06:00,65.8,25.9,29.11,East,92,2.0,14.0,22,0.00,,---,0.00,VWS V14.01,2015-04-27 18:06:00,
2015-04-27 11:07:00,65.7,25.8,29.11,ESE,107,4.0,14.0,22,0.00,,---,0.00,VWS V14.01,2015-04-27 18:07:00,
2015-04-27 11:08:00,65.7,25.8,29.10,ESE,109,2.0,7.0,22,0.00,,---,0.00,VWS V14.01,2015-04-27 18:08:00,
2015-04-27 11:09:00,65.7,25.8,29.10,ENE,61,3.0,7.0,22,0.00,,---,0.00,VWS V14.01,2015-04-27 18:09:00,
2015-04-27 11:10:00,65.6,25.8,29.10,ESE,107,7.0,9.0,22,0.00,,---,0.00,VWS V14.01,2015-04-27 18:10:00,
2015-04-27 11:11:00,65.8,25.9,29.10,ENE,66,5.0,9.0,22,0.00,,---,0.00,VWS V14.01,2015-04-27 18:11:00,
2015-04-27 11:12:00,66.0,26.1,29.10,East,84,8.0,12.0,22,0.00,,---,0.00,VWS V14.01,2015-04-27 18:12:00,
2015-04-27 11:13:00,66.0,25.0,29.11,ENE,78,10.0,14.0,21,0.00,,---,0.00,VWS V14.01,2015-04-27 18:13:00,
2015-04-27 11:14:00,65.9,24.9,29.11,SE,131,8.0,14.0,21,0.00,,---,0.00,VWS V14.01,2015-04-27 18:14:00,
2015-04-27 11:15:00,65.8,24.8,29.10,East,88,6.0,12.0,21,0.00,,---,0.00,VWS V14.01,2015-04-27 18:15:00,
2015-04-27 11:16:00,65.5,24.6,29.10,East,80,4.0,11.0,21,0.00,,---,0.00,VWS V14.01,2015-04-27 18:16:00,
2015-04-27 11:17:00,65.4,24.5,29.10,ENE,69,10.0,10.0,21,0.00,,---,0.00,VWS V14.01,2015-04-27 18:17:00,
2015-04-27 11:18:00,65.4,25.6,29.10,ENE,64,7.0,12.0,22,0.00,,---,0.00,VWS V14.01,2015-04-27 18:18:00,
2015-04-27 11:19:00,65.5,24.6,29.10,NE,53,4.0,12.0,21,0.00,,---,0.00,VWS V14.01,2015-04-27 18:19:00,
2015-04-27 11:20:00,65.6,25.8,29.10,East,86,4.0,12.0,22,0.00,,---,0.00,VWS V14.01,2015-04-27 18:20:00,
2015-04-27 11:21:00,65.8,25.9,29.10,ENE,74,2.0,10.0,22,0.00,,---,0.00,VWS V14.01,2015-04-27 18:21:00,
2015-04-27 11:22:00,65.9,26.0,29.10,NE,47,3.0,10.0,22,0.00,,---,0.00,VWS V14.01,2015-04-27 18:22:00,
2015-04-27 11:23:00,65.8,24.8,29.10,East,88,5.0,12.0,21,0.00,,---,0.00,VWS V14.01,2015-04-27 18:23:00,
2015-04-27 11:24:00,66.2,27.3,29.10,SSE,155,6.0,12.0,23,0.00,,---,0.00,VWS V14.01,2015-04-27 18:24:00,
2015-04-27 11:25:00,66.3,26.4,29.10,SE,140,8.0,12.0,22,0.00,,---,0.00,VWS V14.01,2015-04-27 18:25:00,
2015-04-27 11:26:00,66.5,26.5,29.10,East,86,11.0,11.0,22,0.00,,---,0.00,VWS V14.01,2015-04-27 18:26:00,
2015-04-27 11:27:00,66.6,26.6,29.10,ENE,57,4.0,13.0,22,0.00,,---,0.00,VWS V14.01,2015-04-27 18:27:00,
2015-04-27 11:28:00,66.7,25.6,29.10,NE,51,6.0,13.0,21,0.00,,---,0.00,VWS V14.01,2015-04-27 18:28:00,
2015-04-27 11:29:00,66.6,25.5,29.09,SSW,196,11.0,16.0,21,0.00,,---,0.00,VWS V14.01,2015-04-27 18:29:00,
2015-04-27 11:30:00,66.7,26.7,29.10,East,84,8.0,16.0,22,0.00,,---,0.00,VWS V14.01,2015-04-27 18:30:00,
2015-04-27 11:31:00,61.0,26.8,29.17,ESE,111,11.0,13.0,27,0.00,,---,0.00,VWS V14.01,2015-04-27 18:31:00,
2015-04-27 11:32:00,66.5,25.4,29.09,East,92,11.0,11.0,21,0.00,,---,0.00,VWS V14.01,2015-04-27 18:32:00,
2015-04-27 11:33:00,66.3,26.4,29.09,ESE,106,5.0,11.0,22,0.00,,---,0.00,VWS V14.01,2015-04-27 18:33:00,
2015-04-27 11:34:00,66.1,25.1,29.09,East,95,2.0,11.0,21,0.00,,---,0.00,VWS V14.01,2015-04-27 18:34:00,
2015-04-27 11:35:00,65.7,25.8,29.09,ESE,109,6.0,7.0,22,0.00,,---,0.00,VWS V14.01,2015-04-27 18:35:00,
2015-04-27 11:36:00,65.7,25.8,29.09,ENE,57,6.0,7.0,22,0.00,,---,0.00,VWS V14.01,2015-04-27 18:36:00,
2015-04-27 11:37:00,65.7,24.7,29.09,ENE,63,0.0,7.0,21,0.00,,---,0.00,VWS V14.01,2015-04-27 18:37:00,
2015-04-27 11:38:00,65.8,24.8,29.09,East,91,9.0,11.0,21,0.00,,---,0.00,VWS V14.01,2015-04-27 18:38:00,
2015-04-27 11:39:00,65.9,24.9,29.09,NE,50,3.0,11.0,21,0.00,,---,0.00,VWS V14.01,2015-04-27 18:39:00,
2015-04-27 11:40:00,65.9,24.9,29.09,SSE,159,7.0,14.0,21,0.00,,---,0.00,VWS V14.01,2015-04-27 18:40:00,
2015-04-27 11:41:00,66.2,26.3,29.09,East,80,7.0,14.0,22,0.00,,---,0.00,VWS V14.01,2015-04-27 18:41:00,
2015-04-27 11:42:00,66.5,25.4,29.09,ENE,59,13.0,14.0,21,0.00,,---,0.00,VWS V14.01,2015-04-27 18:42:00,
2015-04-27 11:43:00,66.4,25.3,29.09,ESE,108,11.0,14.0,21,0.00,,---,0.00,VWS V14.01,2015-04-27 18:43:00,
2015-04-27 11:44:00,66.3,25.2,29.09,SSE,149,2.0,13.0,21,0.00,,---,0.00,VWS V14.01,2015-04-27 18:44:00,
2015-04-27 11:45:00,66.1,25.1,29.09,SE,142,6.0,12.0,21,0.00,,---,0.00,VWS V14.01,2015-04-27 18:45:00,
2015-04-27 11:46:00,66.0,26.1,29.09,SE,132,9.0,12.0,22,0.00,,---,0.00,VWS V14.01,2015-04-27 18:46:00,
2015-04-27 11:47:00,65.8,25.9,29.09,East,88,5.0,9.0,22,0.00,,---,0.00,VWS V14.01,2015-04-27 18:47:00,
2015-04-27 11:48:00,65.7,25.8,29.09,East,80,5.0,9.0,22,0.00,,---,0.00,VWS V14.01,2015-04-27 18:48:00,
2015-04-27 11:49:00,65.5,24.6,29.09,WSW,242,3.0,8.0,21,0.00,,---,0.00,VWS V14.01,2015-04-27 18:49:00,
2015-04-27 11:50:00,65.3,24.4,29.08,SSW,195,1.0,9.0,21,0.00,,---,0.00,VWS V14.01,2015-04-27 18:50:00,
2015-04-27 11:51:00,65.2,25.4,29.08,ESE,112,7.0,9.0,22,0.00,,---,0.00,VWS V14.01,2015-04-27 18:51:00,
2015-04-27 11:52:00,65.2,25.4,29.08,ESE,120,7.0,10.0,22,0.00,,---,0.00,VWS V14.01,2015-04-27 18:52:00,
2015-04-27 11:53:00,65.5,25.7,29.08,ENE,76,7.0,11.0,22,0.00,,---,0.00,VWS V14.01,2015-04-27 18:53:00,
2015-04-27 11:54:00,65.6,24.6,29.08,ESE,121,5.0,11.0,21,0.00,,---,0.00,VWS V14.01,2015-04-27 18:54:00,
2015-04-27 11:55:00,65.6,24.6,29.08,ENE,74,5.0,10.0,21,0.00,,---,0.00,VWS V14.01,2015-04-27 18:55:00,
2015-04-27 11:56:00,65.7,24.7,29.08,ESE,113,0.0,7.0,21,0.00,,---,0.00,VWS V14.01,2015-04-27 18:56:00,
2015-04-27 11:57:00,65.7,24.7,29.08,SE,128,4.0,6.0,21,0.00,,---,0.00,VWS V14.01,2015-04-27 18:57:00,
2015-04-27 11:58:00,65.7,24.7,29.08,East,94,9.0,12.0,21,0.00,,---,0.00,VWS V14.01,2015-04-27 18:58:00,
2015-04-27 11:59:00,65.8,24.8,29.08,SE,146,5.0,12.0,21,0.00,,---,0.00,VWS V14.01,2015-04-27 18:59:00,
2015-04-27 12:00:00,65.9,23.7,29.08,East,80,7.0,13.0,20,0.00,,---,0.00,VWS V14.01,2015-04-27 19:00:00,
2015-04-27 12:01:00,65.7,23.6,29.08,South,175,5.0,13.0,20,0.00,,---,0.00,VWS V14.01,2015-04-27 19:01:00,
2015-04-27 12:02:00,65.7,24.7,29.08,ESE,109,9.0,9.0,21,0.00,,---,0.00,VWS V14.01,2015-04-27 19:02:00,
2015-04-27 12:03:00,65.9,24.9,29.08,ESE,115,5.0,9.0,21,0.00,,---,0.00,VWS V14.01,2015-04-27 19:03:00,
2015-04-27 12:04:00,66.1,25.1,29.08,ESE,104,4.0,9.0,21,0.00,,---,0.00,VWS V14.01,2015-04-27 19:04:00,
2015-04-27 12:05:00,66.3,25.2,29.08,ESE,109,5.0,7.0,21,0.00,,---,0.00,VWS V14.01,2015-04-27 19:05:00,
2015-04-27 12:06:00,66.5,24.2,29.08,East,98,5.0,8.0,20,0.00,,---,0.00,VWS V14.01,2015-04-27 19:06:00,
2015-04-27 12:07:00,62.4,27.1,29.16,ESE,120,5.0,12.0,26,0.00,,---,0.00,VWS V14.01,2015-04-27 19:07:00,
2015-04-27 12:08:00,66.8,24.5,29.08,East,90,6.0,7.0,20,0.00,,---,0.00,VWS V14.01,2015-04-27 19:08:00,
2015-04-27 12:09:00,66.6,24.3,29.08,East,89,3.0,8.0,20,0.00,,---,0.00,VWS V14.01,2015-04-27 19:09:00,
2015-04-27 12:10:00,66.3,24.1,29.08,SE,146,2.0,8.0,20,0.00,,---,0.00,VWS V14.01,2015-04-27 19:10:00,
2015-04-27 12:11:00,65.9,23.7,29.08,SSW,192,6.0,7.0,20,0.00,,---,0.00,VWS V14.01,2015-04-27 19:11:00,
2015-04-27 12:12:00,65.9,24.9,29.08,SSE,165,2.0,7.0,21,0.00,,---,0.00,VWS V14.01,2015-04-27 19:12:00,
2015-04-27 12:13:00,66.1,25.1,29.08,SE,140,5.0,7.0,21,0.00,,---,0.00,VWS V14.01,2015-04-27 19:13:00,
2015-04-27 12:14:00,66.3,24.1,29.08,NE,55,5.0,7.0,20,0.00,,---,0.00,VWS V14.01,2015-04-27 19:14:00,
2015-04-27 12:15:00,66.2,24.0,29.08,ENE,64,6.0,10.0,20,0.00,,---,0.00,VWS V14.01,2015-04-27 19:15:00,
2015-04-27 12:16:00,66.2,24.0,29.08,East,89,14.0,16.0,20,0.00,,---,0.00,VWS V14.01,2015-04-27 19:16:00,
2015-04-27 12:17:00,66.0,23.8,29.08,NE,42,4.0,16.0,20,0.00,,---,0.00,VWS V14.01,2015-04-27 19:17:00,
2015-04-27 12:18:00,65.8,23.6,29.08,NE,44,7.0,14.0,20,0.00,,---,0.00,VWS V14.01,2015-04-27 19:18:00,
2015-04-27 12:19:00,61.5,26.3,29.16,East,84,7.0,14.0,26,0.00,,---,0.00,VWS V14.01,2015-04-27 19:19:00,
2015-04-27 12:20:00,65.7,23.6,29.08,ESE,119,8.0,11.0,20,0.00,,---,0.00,VWS V14.01,2015-04-27 19:20:00,
2015-04-27 12:21:00,65.8,23.6,29.07,East,80,5.0,11.0,20,0.00,,---,0.00,VWS V14.01,2015-04-27 19:21:00,
2015-04-27 12:22:00,65.8,23.6,29.07,ESE,102,4.0,8.0,20,0.00,,---,0.00,VWS V14.01,2015-04-27 19:22:00,
2015-04-27 12:23:00,66.1,23.9,29.07,East,83,6.0,8.0,20,0.00,,---,0.00,VWS V14.01,2015-04-27 19:23:00,
2015-04-27 12:24:00,66.3,24.1,29.07,ENE,72,6.0,9.0,20,0.00,,---,0.00,VWS V14.01,2015-04-27 19:24:00,
2015-04-27 12:25:00,66.2,24.0,29.07,East,82,8.0,12.0,20,0.00,,---,0.00,VWS V14.01,2015-04-27 19:25:00,
2015-04-27 12:26:00,66.1,22.7,29.07,East,80,10.0,12.0,19,0.00,,---,0.00,VWS V14.01,2015-04-27 19:26:00,
2015-04-27 12:27:00,65.9,22.5,29.07,East,87,3.0,12.0,19,0.00,,---,0.00,VWS V14.01,2015-04-27 19:27:00,
2015-04-27 12:28:00,65.9,23.7,29.07,East,79,3.0,12.0,20,0.00,,---,0.00,VWS V14.01,2015-04-27 19:28:00,
2015-04-27 12:29:00,66.0,23.8,29.07,East,92,8.0,8.0,20,0.00,,---,0.00,VWS V14.01,2015-04-27 19:29:00,
2015-04-27 12:30:00,65.9,23.7,29.07,ESE,113,2.0,9.0,20,0.00,,---,0.00,VWS V14.01,2015-04-27 19:30:00,
2015-04-27 12:31:00,65.8,23.6,29.07,ENE,58,4.0,9.0,20,0.00,,---,0.00,VWS V14.01,2015-04-27 19:31:00,
2015-04-27 12:32:00,65.6,23.5,29.07,ENE,59,2.0,5.0,20,0.00,,---,0.00,VWS V14.01,2015-04-27 19:32:00,
2015-04-27 12:33:00,65.4,23.3,29.07,SE,145,6.0,6.0,20,0.00,,---,0.00,VWS V14.01,2015-04-27 19:33:00,
2015-04-27 12:34:00,65.3,23.2,29.07,SE,136,4.0,8.0,20,0.00,,---,0.00,VWS V14.01,2015-04-27 19:34:00,
2015-04-27 12:35:00,65.3,24.4,29.07,SE,132,6.0,8.0,21,0.00,,---,0.00,VWS V14.01,2015-04-27 19:35:00,
2015-04-27 12:36:00,65.7,24.7,29.07,ENE,61,5.0,8.0,21,0.00,,---,0.00,VWS V14.01,2015-04-27 19:36:00,
2015-04-27 12:37:00,65.7,23.6,29.07,NE,45,5.0,7.0,20,0.00,,---,0.00,VWS V14.01,2015-04-27 19:37:00,
2015-04-27 12:38:00,65.7,23.6,29.07,ENE,57,5.0,7.0,20,0.00,,---,0.00,VWS V14.01,2015-04-27 19:38:00,
2015-04-27 12:39:00,65.6,23.5,29.07,NE,49,4.0,7.0,20,0.00,,---,0.00,VWS V14.01,2015-04-27 19:39:00,
2015-04-27 12:40:00,65.5,23.4,29.07,ENE,60,3.0,7.0,20,0.00,,---,0.00,VWS V14.01,2015-04-27 19:40:00,
2015-04-27 12:41:00,65.4,23.3,29.07,ENE,74,4.0,7.0,20,0.00,,---,0.00,VWS V14.01,2015-04-27 19:41:00,
2015-04-27 12:42:00,65.1,23.1,29.07,ESE,106,5.0,6.0,20,0.00,,---,0.00,VWS V14.01,2015-04-27 19:42:00,
2015-04-27 12:43:00,65.0,23.0,29.07,ESE,107,2.0,6.0,20,0.00,,---,0.00,VWS V14.01,2015-04-27 19:43:00,
2015-04-27 12:44:00,64.9,21.7,29.07,ESE,107,1.0,6.0,19,0.00,,---,0.00,VWS V14.01,2015-04-27 19:44:00,
2015-04-27 12:45:00,64.8,22.8,29.07,ENE,70,10.0,10.0,20,0.00,,---,0.00,VWS V14.01,2015-04-27 19:45:00,
2015-04-27 12:46:00,65.0,24.1,29.07,ENE,64,0.0,10.0,21,0.00,,---,0.00,VWS V14.01,2015-04-27 19:46:00,
2015-04-27 12:47:00,65.0,23.0,29.07,ENE,57,4.0,10.0,20,0.00,,---,0.00,VWS V14.01,2015-04-27 19:47:00,
2015-04-27 12:48:00,64.9,22.9,29.07,East,89,3.0,5.0,20,0.00,,---,0.00,VWS V14.01,2015-04-27 19:48:00,
2015-04-27 12:49:00,64.9,22.9,29.07,ENE,73,1.0,5.0,20,0.00,,---,0.00,VWS V14.01,2015-04-27 19:49:00,
2015-04-27 12:50:00,65.1,23.1,29.06,ENE,63,8.0,8.0,20,0.00,,---,0.00,VWS V14.01,2015-04-27 19:50:00,
2015-04-27 12:51:00,65.2,23.1,29.06,ESE,103,11.0,11.0,20,0.00,,---,0.00,VWS V14.01,2015-04-27 19:51:00,
2015-04-27 12:52:00,65.3,23.2,29.07,ESE,117,7.0,11.0,20,0.00,,---,0.00,VWS V14.01,2015-04-27 19:52:00,
2015-04-27 12:53:00,65.4,23.3,29.07,SE,127,0.0,11.0,20,0.00,,---,0.00,VWS V14.01,2015-04-27 19:53:00,
2015-04-27 12:54:00,65.3,22.0,29.06,SE,137,5.0,8.0,19,0.00,,---,0.00,VWS V14.01,2015-04-27 19:54:00,
2015-04-27 12:55:00,65.3,23.2,29.06,SE,132,5.0,6.0,20,0.00,,---,0.00,VWS V14.01,2015-04-27 19:55:00,
2015-04-27 12:56:00,65.4,23.3,29.06,NE,53,4.0,6.0,20,0.00,,---,0.00,VWS V14.01,2015-04-27 19:56:00,
2015-04-27 12:57:00,65.5,23.4,29.06,SSE,161,2.0,5.0,20,0.00,,---,0.00,VWS V14.01,2015-04-27 19:57:00,
2015-04-27 12:58:00,65.6,23.5,29.06,SSE,161,2.0,6.0,20,0.00,,---,0.00,VWS V14.01,2015-04-27 19:58:00,
2015-04-27 12:59:00,65.5,23.4,29.06,South,188,10.0,11.0,20,0.00,,---,0.00,VWS V14.01,2015-04-27 19:59:00,
2015-04-27 13:00:00,65.5,23.4,29.06,East,85,6.0,11.0,20,0.00,,---,0.00,VWS V14.01,2015-04-27 20:00:00,
2015-04-27 13:01:00,65.4,22.1,29.06,SSW,203,6.0,11.0,19,0.00,,---,0.00,VWS V14.01,2015-04-27 20:01:00,
2015-04-27 13:02:00,65.6,23.5,29.06,SE,142,4.0,8.0,20,0.00,,---,0.00,VWS V14.01,2015-04-27 20:02:00,
2015-04-27 13:03:00,65.8,23.6,29.06,SE,136,4.0,8.0,20,0.00,,---,0.00,VWS V14.01,2015-04-27 20:03:00,
2015-04-27 13:04:00,65.8,22.4,29.06,SSW,201,5.0,8.0,19,0.00,,---,0.00,VWS V14.01,2015-04-27 20:04:00,
2015-04-27 13:05:00,65.8,22.4,29.06,SSE,165,7.0,8.0,19,0.00,,---,0.00,VWS V14.01,2015-04-27 20:05:00,
2015-04-27 13:06:00,65.9,22.5,29.06,East,84,3.0,8.0,19,0.00,,---,0.00,VWS V14.01,2015-04-27 20:06:00,
2015-04-27 13:07:00,66.0,22.6,29.06,ENE,69,5.0,8.0,19,0.00,,---,0.00,VWS V14.01,2015-04-27 20:07:00,
2015-04-27 13:08:00,65.9,22.5,29.06,East,79,4.0,7.0,19,0.00,,---,0.00,VWS V14.01,2015-04-27 20:08:00,
2015-04-27 13:09:00,65.7,22.3,29.06,ENE,74,3.0,7.0,19,0.00,,---,0.00,VWS V14.01,2015-04-27 20:09:00,
2015-04-27 13:10:00,65.4,22.1,29.06,ENE,74,0.0,5.0,19,0.00,,---,0.00,VWS V14.01,2015-04-27 20:10:00,
2015-04-27 13:11:00,65.1,23.1,29.06,ENE,74,3.0,3.0,20,0.00,,---,0.00,VWS V14.01,2015-04-27 20:11:00,
2015-04-27 13:12:00,65.0,23.0,29.06,ENE,74,0.0,3.0,20,0.00,,---,0.00,VWS V14.01,2015-04-27 20:12:00,
2015-04-27 13:13:00,65.0,23.0,29.06,NNE,26,3.0,5.0,20,0.00,,---,0.00,VWS V14.01,2015-04-27 20:13:00,
2015-04-27 13:14:00,65.0,23.0,29.06,NNE,27,0.0,5.0,20,0.00,,---,0.00,VWS V14.01,2015-04-27 20:14:00,
2015-04-27 13:15:00,64.9,22.9,29.06,NNE,27,0.0,4.0,20,0.00,,---,0.00,VWS V14.01,2015-04-27 20:15:00,
2015-04-27 13:16:00,64.8,22.8,29.06,East,101,1.0,5.0,20,0.00,,---,0.00,VWS V14.01,2015-04-27 20:16:00,
2015-04-27 13:17:00,64.8,22.8,29.06,East,98,12.0,12.0,20,0.00,,---,0.00,VWS V14.01,2015-04-27 20:17:00,
2015-04-27 13:18:00,64.9,22.9,29.06,SE,125,7.0,12.0,20,0.00,,---,0.00,VWS V14.01,2015-04-27 20:18:00,
2015-04-27 13:19:00,65.0,23.0,29.06,South,187,2.0,12.0,20,0.00,,---,0.00,VWS V14.01,2015-04-27 20:19:00,
2015-04-27 13:20:00,65.3,23.2,29.06,South,178,5.0,7.0,20,0.00,,---,0.00,VWS V14.01,2015-04-27 20:20:00,
2015-04-27 13:21:00,65.5,23.4,29.06,SSW,192,7.0,8.0,20,0.00,,---,0.00,VWS V14.01,2015-04-27 20:21:00,
2015-04-27 13:22:00,65.8,23.6,29.05,South,178,4.0,8.0,20,0.00,,---,0.00,VWS V14.01,2015-04-27 20:22:00,
2015-04-27 13:23:00,66.0,22.6,29.05,SSW,211,3.0,8.0,19,0.00,,---,0.00,VWS V14.01,2015-04-27 20:23:00,
2015-04-27 13:24:00,66.0,22.6,29.05,SSW,205,2.0,7.0,19,0.00,,---,0.00,VWS V14.01,2015-04-27 20:24:00,
2015-04-27 13:25:00,66.0,22.6,29.05,South,188,3.0,7.0,19,0.00,,---,0.00,VWS V14.01,2015-04-27 20:25:00,
2015-04-27 13:26:00,66.1,23.9,29.06,South,175,6.0,6.0,20,0.00,,---,0.00,VWS V14.01,2015-04-27 20:26:00,
2015-04-27 13:27:00,66.0,22.6,29.05,South,188,3.0,6.0,19,0.00,,---,0.00,VWS V14.01,2015-04-27 20:27:00,
2015-04-27 13:28:00,65.9,22.5,29.06,South,188,2.0,6.0,19,0.00,,---,0.00,VWS V14.01,2015-04-27 20:28:00,
2015-04-27 13:29:00,65.8,22.4,29.06,SSW,200,2.0,5.0,19,0.00,,---,0.00,VWS V14.01,2015-04-27 20:29:00,
2015-04-27 13:30:00,65.6,22.3,29.05,SSW,200,1.0,5.0,19,0.00,,---,0.00,VWS V14.01,2015-04-27 20:30:00,
2015-04-27 13:31:00,64.2,25.7,29.13,ENE,77,10.0,17.0,23,0.00,,---,0.00,VWS V14.01,2015-04-27 20:31:00,
2015-04-27 13:32:00,65.6,22.3,29.05,SSW,200,3.0,3.0,19,0.00,,---,0.00,VWS V14.01,2015-04-27 20:32:00,
2015-04-27 13:33:00,65.7,23.6,29.05,ESE,111,6.0,7.0,20,0.00,,---,0.00,VWS V14.01,2015-04-27 20:33:00,
2015-04-27 13:34:00,65.8,23.6,29.05,East,91,5.0,8.0,20,0.00,,---,0.00,VWS V14.01,2015-04-27 20:34:00,
2015-04-27 13:35:00,66.1,23.9,29.05,East,94,4.0,8.0,20,0.00,,---,0.00,VWS V14.01,2015-04-27 20:35:00,
2015-04-27 13:36:00,66.2,24.0,29.06,SSE,164,5.0,8.0,20,0.00,,---,0.00,VWS V14.01,2015-04-27 20:36:00,
2015-04-27 13:37:00,66.3,22.8,29.06,SSE,167,2.0,7.0,19,0.00,,---,0.00,VWS V14.01,2015-04-27 20:37:00,
2015-04-27 13:38:00,66.4,22.9,29.06,SSE,167,1.0,5.0,19,0.00,,---,0.00,VWS V14.01,2015-04-27 20:38:00,
2015-04-27 13:39:00,66.3,22.8,29.06,ESE,109,2.0,6.0,19,0.00,,---,0.00,VWS V14.01,2015-04-27 20:39:00,
2015-04-27 13:40:00,66.1,22.7,29.06,South,178,5.0,6.0,19,0.00,,---,0.00,VWS V14.01,2015-04-27 20:40:00,
2015-04-27 13:41:00,66.0,22.6,29.06,South,182,0.0,5.0,19,0.00,,---,0.00,VWS V14.01,2015-04-27 20:41:00,
2015-04-27 13:42:00,65.9,23.7,29.06,South,182,3.0,5.0,20,0.00,,---,0.00,VWS V14.01,2015-04-27 20:42:00,
2015-04-27 13:43:00,65.9,23.7,29.06,SE,136,4.0,4.0,20,0.00,,---,0.00,VWS V14.01,2015-04-27 20:43:00,
2015-04-27 13:44:00,65.9,23.7,29.06,SE,136,1.0,4.0,20,0.00,,---,0.00,VWS V14.01,2015-04-27 20:44:00,
2015-04-27 13:45:00,65.8,22.4,29.05,SE,144,2.0,5.0,19,0.00,,---,0.00,VWS V14.01,2015-04-27 20:45:00,
2015-04-27 13:46:00,65.8,23.6,29.06,ENE,68,1.0,6.0,20,0.00,,---,0.00,VWS V14.01,2015-04-27 20:46:00,
2015-04-27 13:47:00,65.8,23.6,29.06,ENE,75,1.0,7.0,20,0.00,,---,0.00,VWS V14.01,2015-04-27 20:47:00,
2015-04-27 13:48:00,65.7,23.6,29.06,NNE,30,5.0,7.0,20,0.00,,---,0.00,VWS V14.01,2015-04-27 20:48:00,
2015-04-27 13:49:00,65.6,23.5,29.05,ENE,74,5.0,7.0,20,0.00,,---,0.00,VWS V14.01,2015-04-27 20:49:00,
2015-04-27 13:50:00,65.7,23.6,29.06,SE,140,7.0,7.0,20,0.00,,---,0.00,VWS V14.01,2015-04-27 20:50:00,
2015-04-27 13:51:00,65.8,23.6,29.05,East,94,4.0,9.0,20,0.00,,---,0.00,VWS V14.01,2015-04-27 20:51:00,
2015-04-27 13:52:00,65.8,23.6,29.05,SSW,198,2.0,9.0,20,0.00,,---,0.00,VWS V14.01,2015-04-27 20:52:00,
2015-04-27 13:53:00,65.8,23.6,29.05,South,177,4.0,8.0,20,0.00,,---,0.00,VWS V14.01,2015-04-27 20:53:00,
2015-04-27 13:54:00,65.9,23.7,29.05,South,177,1.0,8.0,20,0.00,,---,0.00,VWS V14.01,2015-04-27 20:54:00,
2015-04-27 13:55:00,66.0,23.8,29.06,East,101,7.0,8.0,20,0.00,,---,0.00,VWS V14.01,2015-04-27 20:55:00,
2015-04-27 13:56:00,66.0,23.8,29.06,East,92,7.0,8.0,20,0.00,,---,0.00,VWS V14.01,2015-04-27 20:56:00,
2015-04-27 13:57:00,65.8,22.4,29.05,ENE,72,4.0,8.0,19,0.00,,---,0.00,VWS V14.01,2015-04-27 20:57:00,
2015-04-27 13:58:00,65.8,23.6,29.05,SSW,209,5.0,7.0,20,0.00,,---,0.00,VWS V14.01,2015-04-27 20:58:00,
2015-04-27 13:59:00,65.7,23.6,29.05,SSW,209,3.0,6.0,20,0.00,,---,0.00,VWS V14.01,2015-04-27 20:59:00,
2015-04-27 14:00:00,65.7,23.6,29.05,SSW,209,2.0,6.0,20,0.00,,---,0.00,VWS V14.01,2015-04-27 21:00:00,
2015-04-27 14:01:00,65.7,23.6,29.05,SSW,204,0.0,3.0,20,0.00,,---,0.00,VWS V14.01,2015-04-27 21:01:00,
2015-04-27 14:02:00,65.7,23.6,29.05,SSW,203,0.0,3.0,20,0.00,,---,0.00,VWS V14.01,2015-04-27 21:02:00,
2015-04-27 14:03:00,65.6,22.3,29.05,SSW,203,0.0,2.0,19,0.00,,---,0.00,VWS V14.01,2015-04-27 21:03:00,
2015-04-27 14:04:00,65.6,23.5,29.05,South,186,5.0,7.0,20,0.00,,---,0.00,VWS V14.01,2015-04-27 21:04:00,
2015-04-27 14:05:00,65.6,23.5,29.05,South,184,0.0,7.0,20,0.00,,---,0.00,VWS V14.01,2015-04-27 21:05:00,
2015-04-27 14:06:00,65.7,22.3,29.05,ESE,123,5.0,7.0,19,0.00,,---,0.00,VWS V14.01,2015-04-27 21:06:00,
2015-04-27 14:07:00,65.9,24.9,29.05,NE,45,3.0,6.0,21,0.00,,---,0.00,VWS V14.01,2015-04-27 21:07:00,
2015-04-27 14:08:00,66.0,23.8,29.05,East,84,4.0,6.0,20,0.00,,---,0.00,VWS V14.01,2015-04-27 21:08:00,
2015-04-27 14:09:00,66.1,23.9,29.05,ENE,77,5.0,8.0,20,0.00,,---,0.00,VWS V14.01,2015-04-27 21:09:00,
2015-04-27 14:10:00,66.1,23.9,29.05,East,101,5.0,8.0,20,0.00,,---,0.00,VWS V14.01,2015-04-27 21:10:00,
2015-04-27 14:11:00,66.1,22.7,29.05,SSE,149,5.0,8.0,19,0.00,,---,0.00,VWS V14.01,2015-04-27 21:11:00,
2015-04-27 14:12:00,66.1,22.7,29.05,SSE,157,1.0,8.0,19,0.00,,---,0.00,VWS V14.01,2015-04-27 21:12:00,
2015-04-27 14:13:00,66.1,23.9,29.05,ENE,63,4.0,8.0,20,0.00,,---,0.00,VWS V14.01,2015-04-27 21:13:00,
2015-04-27 14:14:00,66.1,22.7,29.05,ENE,63,0.0,5.0,19,0.00,,---,0.00,VWS V14.01,2015-04-27 21:14:00,
2015-04-27 14:15:00,66.1,22.7,29.05,ENE,65,1.0,5.0,19,0.00,,---,0.00,VWS V14.01,2015-04-27 21:15:00,
2015-04-27 14:16:00,66.0,22.6,29.05,East,81,0.0,2.0,19,0.00,,---,0.00,VWS V14.01,2015-04-27 21:16:00,
2015-04-27 14:17:00,66.0,22.6,29.05,SSE,149,1.0,2.0,19,0.00,,---,0.00,VWS V14.01,2015-04-27 21:17:00,
2015-04-27 14:18:00,66.0,23.8,29.05,ENE,70,4.0,6.0,20,0.00,,---,0.00,VWS V14.01,2015-04-27 21:18:00,
2015-04-27 14:19:00,66.0,23.8,29.05,ENE,72,5.0,6.0,20,0.00,,---,0.00,VWS V14.01,2015-04-27 21:19:00,
2015-04-27 14:20:00,66.0,23.8,29.05,ENE,74,4.0,6.0,20,0.00,,---,0.00,VWS V14.01,2015-04-27 21:20:00,
2015-04-27 14:21:00,66.0,22.6,29.05,ENE,61,4.0,5.0,19,0.00,,---,0.00,VWS V14.01,2015-04-27 21:21:00,
2015-04-27 14:22:00,65.9,22.5,29.05,ENE,61,1.0,5.0,19,0.00,,---,0.00,VWS V14.01,2015-04-27 21:22:00,
2015-04-27 14:23:00,65.9,22.5,29.05,NE,53,3.0,5.0,19,0.00,,---,0.00,VWS V14.01,2015-04-27 21:23:00,
2015-04-27 14:24:00,65.9,22.5,29.05,NE,53,3.0,3.0,19,0.00,,---,0.00,VWS V14.01,2015-04-27 21:24:00,
2015-04-27 14:25:00,65.8,22.4,29.05,NE,49,4.0,5.0,19,0.00,,---,0.00,VWS V14.01,2015-04-27 21:25:00,
2015-04-27 14:26:00,65.8,23.6,29.05,NE,49,2.0,5.0,20,0.00,,---,0.00,VWS V14.01,2015-04-27 21:26:00,
2015-04-27 14:27:00,65.8,23.6,29.05,East,92,6.0,6.0,20,0.00,,---,0.00,VWS V14.01,2015-04-27 21:27:00,
2015-04-27 14:28:00,65.8,23.6,29.05,NE,54,3.0,6.0,20,0.00,,---,0.00,VWS V14.01,2015-04-27 21:28:00,
2015-04-27 14:29:00,65.8,23.6,29.05,ENE,57,7.0,9.0,20,0.00,,---,0.00,VWS V14.01,2015-04-27 21:29:00,
2015-04-27 14:30:00,65.8,23.6,29.05,NE,53,4.0,9.0,20,0.00,,---,0.00,VWS V14.01,2015-04-27 21:30:00,
2015-04-27 14:31:00,65.8,23.6,29.05,NE,46,3.0,8.0,20,0.00,,---,0.00,VWS V14.01,2015-04-27 21:31:00,
2015-04-27 14:32:00,65.7,22.3,29.05,NE,46,2.0,6.0,19,0.00,,---,0.00,VWS V14.01,2015-04-27 21:32:00,
2015-04-27 14:33:00,65.7,22.3,29.05,NE,46,3.0,5.0,19,0.00,,---,0.00,VWS V14.01,2015-04-27 21:33:00,
2015-04-27 14:34:00,65.7,23.6,29.05,NE,36,3.0,5.0,20,0.00,,---,0.00,VWS V14.01,2015-04-27 21:34:00,
2015-04-27 14:35:00,65.6,23.5,29.05,ENE,57,2.0,7.0,20,0.00,,---,0.00,VWS V14.01,2015-04-27 21:35:00,
2015-04-27 14:36:00,65.6,22.3,29.05,East,92,1.0,7.0,19,0.00,,---,0.00,VWS V14.01,2015-04-27 21:36:00,
2015-04-27 14:37:00,65.7,23.6,29.05,East,92,0.0,7.0,20,0.00,,---,0.00,VWS V14.01,2015-04-27 21:37:00,
2015-04-27 14:38:00,65.7,22.3,29.05,East,92,0.0,4.0,19,0.00,,---,0.00,VWS V14.01,2015-04-27 21:38:00,
2015-04-27 14:39:00,65.7,23.6,29.05,ESE,107,4.0,5.0,20,0.00,,---,0.00,VWS V14.01,2015-04-27 21:39:00,
2015-04-27 14:40:00,65.6,23.5,29.05,ENE,75,2.0,5.0,20,0.00,,---,0.00,VWS V14.01,2015-04-27 21:40:00,
2015-04-27 14:41:00,65.6,22.3,29.05,East,91,6.0,6.0,19,0.00,,---,0.00,VWS V14.01,2015-04-27 21:41:00,
2015-04-27 14:42:00,65.6,23.5,29.05,SSE,157,2.0,6.0,20,0.00,,---,0.00,VWS V14.01,2015-04-27 21:42:00,
2015-04-27 14:43:00,65.6,22.3,29.05,SSE,152,6.0,6.0,19,0.00,,---,0.00,VWS V14.01,2015-04-27 21:43:00,
2015-04-27 14:44:00,65.6,22.3,29.04,SE,136,6.0,6.0,19,0.00,,---,0.00,VWS V14.01,2015-04-27 21:44:00,
2015-04-27 14:45:00,65.6,22.3,29.04,SSE,163,5.0,7.0,19,0.00,,---,0.00,VWS V14.01,2015-04-27 21:45:00,
2015-04-27 14:46:00,65.6,22.3,29.04,East,81,5.0,7.0,19,0.00,,---,0.00,VWS V14.01,2015-04-27 21:46:00,
2015-04-27 14:47:00,65.5,22.2,29.04,East,81,3.0,6.0,19,0.00,,---,0.00,VWS V14.01,2015-04-27 21:47:00,
2015-04-27 14:48:00,65.4,22.1,29.04,East,81,3.0,6.0,19,0.00,,---,0.00,VWS V14.01,2015-04-27 21:48:00,
2015-04-27 14:49:00,65.4,23.3,29.04,East,81,3.0,3.0,20,0.00,,---,0.00,VWS V14.01,2015-04-27 21:49:00,
2015-04-27 14:50:00,65.4,22.1,29.04,East,84,0.0,3.0,19,0.00,,---,0.00,VWS V14.01,2015-04-27 21:50:00,
2015-04-27 14:51:00,65.4,22.1,29.04,SSE,159,1.0,4.0,19,0.00,,---,0.00,VWS V14.01,2015-04-27 21:51:00,
2015-04-27 14:52:00,65.5,22.2,29.04,South,181,1.0,5.0,19,0.00,,---,0.00,VWS V14.01,2015-04-27 21:52:00,
2015-04-27 14:53:00,65.6,22.3,29.04,ESE,103,7.0,7.0,19,0.00,,---,0.00,VWS V14.01,2015-04-27 21:53:00,
2015-04-27 14:54:00,65.6,23.5,29.04,ESE,119,2.0,7.0,20,0.00,,---,0.00,VWS V14.01,2015-04-27 21:54:00,
2015-04-27 14:55:00,65.6,23.5,29.04,East,93,4.0,7.0,20,0.00,,---,0.00,VWS V14.01,2015-04-27 21:55:00,
2015-04-27 14:56:00,65.6,23.5,29.04,East,85,5.0,6.0,20,0.00,,---,0.00,VWS V14.01,2015-04-27 21:56:00,
2015-04-27 14:57:00,65.4,23.3,29.04,East,96,5.0,6.0,20,0.00,,---,0.00,VWS V14.01,2015-04-27 21:57:00,
2015-04-27 14:58:00,65.3,23.2,29.04,East,84,4.0,7.0,20,0.00,,---,0.00,VWS V14.01,2015-04-27 21:58:00,
2015-04-27 14:59:00,65.3,23.2,29.04,East,80,3.0,7.0,20,0.00,,---,0.00,VWS V14.01,2015-04-27 21:59:00,
2015-04-27 15:00:00,65.2,23.1,29.04,East,98,9.0,9.0,20,0.00,,---,0.00,VWS V14.01,2015-04-27 22:00:00,
2015-04-27 15:01:00,65.2,23.1,29.04,ENE,74,6.0,9.0,20,0.00,,---,0.00,VWS V14.01,2015-04-27 22:01:00,
2015-04-27 15:02:00,65.1,23.1,29.04,East,84,7.0,9.0,20,0.00,,---,0.00,VWS V14.01,2015-04-27 22:02:00,
2015-04-27 15:03:00,65.1,23.1,29.04,East,100,6.0,7.0,20,0.00,,---,0.00,VWS V14.01,2015-04-27 22:03:00,
2015-04-27 15:04:00,65.0,23.0,29.04,East,99,4.0,7.0,20,0.00,,---,0.00,VWS V14.01,2015-04-27 22:04:00,
2015-04-27 15:05:00,65.0,23.0,29.04,ENE,67,4.0,6.0,20,0.00,,---,0.00,VWS V14.01,2015-04-27 22:05:00,
2015-04-27 15:06:00,64.9,22.9,29.04,East,96,7.0,7.0,20,0.00,,---,0.00,VWS V14.01,2015-04-27 22:06:00,
2015-04-27 15:07:00,64.9,22.9,29.04,East,96,4.0,7.0,20,0.00,,---,0.00,VWS V14.01,2015-04-27 22:07:00,
2015-04-27 15:08:00,64.8,22.8,29.04,East,91,7.0,7.0,20,0.00,,---,0.00,VWS V14.01,2015-04-27 22:08:00,
2015-04-27 15:09:00,64.7,22.7,29.04,ESE,107,1.0,7.0,20,0.00,,---,0.00,VWS V14.01,2015-04-27 22:09:00,
2015-04-27 15:10:00,64.7,22.7,29.04,ENE,77,5.0,7.0,20,0.00,,---,0.00,VWS V14.01,2015-04-27 22:10:00,
2015-04-27 15:11:00,64.6,22.6,29.04,ENE,57,4.0,6.0,20,0.00,,---,0.00,VWS V14.01,2015-04-27 22:11:00,
2015-04-27 15:12:00,64.5,22.6,29.04,ENE,64,1.0,5.0,20,0.00,,---,0.00,VWS V14.01,2015-04-27 22:12:00,
2015-04-27 15:13:00,64.5,22.6,29.04,ENE,64,2.0,5.0,20,0.00,,---,0.00,VWS V14.01,2015-04-27 22:13:00,
2015-04-27 15:14:00,64.5,23.7,29.04,ESE,117,5.0,5.0,21,0.00,,---,0.00,VWS V14.01,2015-04-27 22:14:00,
2015-04-27 15:15:00,64.5,23.7,29.04,ESE,111,2.0,6.0,21,0.00,,---,0.00,VWS V14.01,2015-04-27 22:15:00,
2015-04-27 15:16:00,64.4,23.6,29.04,ESE,117,2.0,6.0,21,0.00,,---,0.00,VWS V14.01,2015-04-27 22:16:00,
2015-04-27 15:17:00,64.4,23.6,29.04,ESE,104,2.0,4.0,21,0.00,,---,0.00,VWS V14.01,2015-04-27 22:17:00,
2015-04-27 15:18:00,64.3,23.6,29.04,ESE,119,6.0,7.0,21,0.00,,---,0.00,VWS V14.01,2015-04-27 22:18:00,
2015-04-27 15:19:00,64.3,22.4,29.04,ENE,76,7.0,7.0,20,0.00,,---,0.00,VWS V14.01,2015-04-27 22:19:00,
2015-04-27 15:20:00,64.3,22.4,29.04,East,96,2.0,7.0,20,0.00,,---,0.00,VWS V14.01,2015-04-27 22:20:00,
2015-04-27 15:21:00,64.3,23.6,29.04,East,96,1.0,7.0,21,0.00,,---,0.00,VWS V14.01,2015-04-27 22:21:00,
2015-04-27 15:22:00,64.3,22.4,29.04,SE,144,1.0,4.0,20,0.00,,---,0.00,VWS V14.01,2015-04-27 22:22:00,
2015-04-27 15:23:00,64.2,23.5,29.04,SSE,149,4.0,5.0,21,0.00,,---,0.00,VWS V14.01,2015-04-27 22:23:00,
2015-04-27 15:24:00,64.2,22.3,29.04,SSE,148,2.0,5.0,20,0.00,,---,0.00,VWS V14.01,2015-04-27 22:24:00,
2015-04-27 15:25:00,64.2,22.3,29.04,East,94,8.0,8.0,20,0.00,,---,0.00,VWS V14.01,2015-04-27 22:25:00,
2015-04-27 15:26:00,64.1,22.2,29.04,ESE,113,5.0,8.0,20,0.00,,---,0.00,VWS V14.01,2015-04-27 22:26:00,
2015-04-27 15:27:00,64.1,23.4,29.05,SE,136,1.0,8.0,21,0.00,,---,0.00,VWS V14.01,2015-04-27 22:27:00,
2015-04-27 15:28:00,64.0,23.3,29.04,SE,136,2.0,6.0,21,0.00,,---,0.00,VWS V14.01,2015-04-27 22:28:00,
2015-04-27 15:29:00,64.0,23.3,29.04,South,169,4.0,6.0,21,0.00,,---,0.00,VWS V14.01,2015-04-27 22:29:00,
2015-04-27 15:30:00,64.0,23.3,29.04,SSE,168,4.0,5.0,21,0.00,,---,0.00,VWS V14.01,2015-04-27 22:30:00,
2015-04-27 15:31:00,63.9,23.2,29.04,SSE,168,1.0,5.0,21,0.00,,---,0.00,VWS V14.01,2015-04-27 22:31:00,
2015-04-27 15:32:00,63.9,23.2,29.04,SSE,168,2.0,4.0,21,0.00,,---,0.00,VWS V14.01,2015-04-27 22:32:00,
2015-04-27 15:33:00,63.8,23.1,29.04,SSE,168,2.0,2.0,21,0.00,,---,0.00,VWS V14.01,2015-04-27 22:33:00,
2015-04-27 15:34:00,63.7,23.1,29.04,SSE,168,4.0,5.0,21,0.00,,---,0.00,VWS V14.01,2015-04-27 22:34:00,
2015-04-27 15:35:00,63.7,23.1,29.04,SSE,168,4.0,5.0,21,0.00,,---,0.00,VWS V14.01,2015-04-27 22:35:00,
2015-04-27 15:36:00,63.6,23.0,29.04,SE,142,4.0,5.0,21,0.00,,---,0.00,VWS V14.01,2015-04-27 22:36:00,
2015-04-27 15:37:00,63.5,22.9,29.04,SE,141,5.0,5.0,21,0.00,,---,0.00,VWS V14.01,2015-04-27 22:37:00,
2015-04-27 15:38:00,63.5,22.9,29.04,SE,140,1.0,5.0,21,0.00,,---,0.00,VWS V14.01,2015-04-27 22:38:00,
2015-04-27 15:39:00,63.4,22.8,29.04,SE,140,1.0,5.0,21,0.00,,---,0.00,VWS V14.01,2015-04-27 22:39:00,
2015-04-27 15:40:00,63.4,22.8,29.04,ESE,113,4.0,7.0,21,0.00,,---,0.00,VWS V14.01,2015-04-27 22:40:00,
2015-04-27 15:41:00,63.2,22.6,29.04,East,85,5.0,7.0,21,0.00,,---,0.00,VWS V14.01,2015-04-27 22:41:00,
2015-04-27 15:42:00,63.2,22.6,29.04,East,84,4.0,7.0,21,0.00,,---,0.00,VWS V14.01,2015-04-27 22:42:00,
2015-04-27 15:43:00,63.1,22.6,29.04,ENE,78,3.0,6.0,21,0.00,,---,0.00,VWS V14.01,2015-04-27 22:43:00,
2015-04-27 15:44:00,63.1,22.6,29.04,ENE,78,1.0,4.0,21,0.00,,---,0.00,VWS V14.01,2015-04-27 22:44:00,
2015-04-27 15:45:00,63.0,22.5,29.04,East,90,2.0,4.0,21,0.00,,---,0.00,VWS V14.01,2015-04-27 22:45:00,
2015-04-27 15:46:00,63.0,22.5,29.04,East,90,1.0,4.0,21,0.00,,---,0.00,VWS V14.01,2015-04-27 22:46:00,
2015-04-27 15:47:00,62.9,22.4,29.04,East,99,6.0,6.0,21,0.00,,---,0.00,VWS V14.01,2015-04-27 22:47:00,
2015-04-27 15:48:00,62.9,23.5,29.04,SE,146,5.0,6.0,22,0.00,,---,0.00,VWS V14.01,2015-04-27 22:48:00,
2015-04-27 15:49:00,62.8,23.4,29.04,ESE,103,5.0,8.0,22,0.00,,---,0.00,VWS V14.01,2015-04-27 22:49:00,
2015-04-27 15:50:00,62.7,23.3,29.04,East,100,6.0,8.0,22,0.00,,---,0.00,VWS V14.01,2015-04-27 22:50:00,
2015-04-27 15:51:00,62.7,23.3,29.04,SE,129,5.0,8.0,22,0.00,,---,0.00,VWS V14.01,2015-04-27 22:51:00,
2015-04-27 15:52:00,62.7,23.3,29.04,SE,130,6.0,7.0,22,0.00,,---,0.00,VWS V14.01,2015-04-27 22:52:00,
2015-04-27 15:53:00,62.6,23.2,29.04,SE,129,1.0,6.0,22,0.00,,---,0.00,VWS V14.01,2015-04-27 22:53:00,
2015-04-27 15:54:00,62.6,23.2,29.04,SE,129,2.0,6.0,22,0.00,,---,0.00,VWS V14.01,2015-04-27 22:54:00,
2015-04-27 15:55:00,62.5,23.2,29.04,SE,132,5.0,5.0,22,0.00,,---,0.00,VWS V14.01,2015-04-27 22:55:00,
2015-04-27 15:56:00,62.5,23.2,29.04,East,88,2.0,5.0,22,0.00,,---,0.00,VWS V14.01,2015-04-27 22:56:00,
2015-04-27 15:57:00,62.4,23.1,29.04,East,84,3.0,5.0,22,0.00,,---,0.00,VWS V14.01,2015-04-27 22:57:00,
2015-04-27 15:58:00,62.3,23.0,29.04,East,94,2.0,4.0,22,0.00,,---,0.00,VWS V14.01,2015-04-27 22:58:00,
2015-04-27 15:59:00,62.2,22.9,29.04,East,84,7.0,7.0,22,0.00,,---,0.00,VWS V14.01,2015-04-27 22:59:00,
2015-04-27 16:00:00,62.1,22.8,29.04,ENE,73,5.0,10.0,22,0.00,,---,0.00,VWS V14.01,2015-04-27 23:00:00,
2015-04-27 16:01:00,62.0,22.8,29.04,East,86,5.0,10.0,22,0.00,,---,0.00,VWS V14.01,2015-04-27 23:01:00,
2015-04-27 16:02:00,62.0,22.8,29.04,ESE,105,6.0,7.0,22,0.00,,---,0.00,VWS V14.01,2015-04-27 23:02:00,
2015-04-27 16:03:00,61.9,22.7,29.04,East,87,5.0,7.0,22,0.00,,---,0.00,VWS V14.01,2015-04-27 23:03:00,
2015-04-27 16:04:00,61.9,23.7,29.04,ENE,59,5.0,6.0,23,0.00,,---,0.00,VWS V14.01,2015-04-27 23:04:00,
2015-04-27 16:05:00,61.8,23.6,29.04,East,101,2.0,6.0,23,0.00,,---,0.00,VWS V14.01,2015-04-27 23:05:00,
2015-04-27 16:06:00,61.8,23.6,29.04,East,83,3.0,5.0,23,0.00,,---,0.00,VWS V14.01,2015-04-27 23:06:00,
2015-04-27 16:07:00,61.8,23.6,29.04,East,82,5.0,5.0,23,0.00,,---,0.00,VWS V14.01,2015-04-27 23:07:00,
2015-04-27 16:08:00,61.7,23.5,29.04,East,82,0.0,5.0,23,0.00,,---,0.00,VWS V14.01,2015-04-27 23:08:00,
2015-04-27 16:09:00,61.7,23.5,29.04,East,82,0.0,5.0,23,0.00,,---,0.00,VWS V14.01,2015-04-27 23:09:00,
2015-04-27 16:10:00,61.6,23.5,29.04,East,89,2.0,4.0,23,0.00,,---,0.00,VWS V14.01,2015-04-27 23:10:00,
2015-04-27 16:11:00,61.6,23.5,29.04,East,89,2.0,4.0,23,0.00,,---,0.00,VWS V14.01,2015-04-27 23:11:00,
2015-04-27 16:12:00,61.5,23.4,29.04,East,89,2.0,4.0,23,0.00,,---,0.00,VWS V14.01,2015-04-27 23:12:00,
2015-04-27 16:13:00,61.5,23.4,29.04,East,90,1.0,4.0,23,0.00,,---,0.00,VWS V14.01,2015-04-27 23:13:00,
2015-04-27 16:14:00,61.5,23.4,29.04,East,90,4.0,5.0,23,0.00,,---,0.00,VWS V14.01,2015-04-27 23:14:00,
2015-04-27 16:15:00,61.4,24.3,29.04,East,95,4.0,6.0,24,0.00,,---,0.00,VWS V14.01,2015-04-27 23:15:00,
2015-04-27 16:16:00,61.4,23.3,29.04,East,99,2.0,6.0,23,0.00,,---,0.00,VWS V14.01,2015-04-27 23:16:00,
2015-04-27 16:17:00,61.5,23.4,29.04,East,81,4.0,5.0,23,0.00,,---,0.00,VWS V14.01,2015-04-27 23:17:00,
2015-04-27 16:18:00,61.4,24.3,29.04,ESE,119,2.0,5.0,24,0.00,,---,0.00,VWS V14.01,2015-04-27 23:18:00,
2015-04-27 16:19:00,61.4,23.3,29.04,ESE,113,4.0,5.0,23,0.00,,---,0.00,VWS V14.01,2015-04-27 23:19:00,
2015-04-27 16:20:00,61.3,24.2,29.04,ESE,109,4.0,5.0,24,0.00,,---,0.00,VWS V14.01,2015-04-27 23:20:00,
2015-04-27 16:21:00,61.3,23.2,29.05,ESE,109,1.0,5.0,23,0.00,,---,0.00,VWS V14.01,2015-04-27 23:21:00,
2015-04-27 16:22:00,61.3,23.2,29.04,ESE,108,4.0,5.0,23,0.00,,---,0.00,VWS V14.01,2015-04-27 23:22:00,
2015-04-27 16:23:00,61.3,23.2,29.04,ESE,108,2.0,5.0,23,0.00,,---,0.00,VWS V14.01,2015-04-27 23:23:00,
2015-04-27 16:24:00,61.2,24.1,29.05,East,84,5.0,6.0,24,0.00,,---,0.00,VWS V14.01,2015-04-27 23:24:00,
2015-04-27 16:25:00,61.2,24.1,29.05,East,91,4.0,7.0,24,0.00,,---,0.00,VWS V14.01,2015-04-27 23:25:00,
2015-04-27 16:26:00,61.1,24.1,29.05,East,80,3.0,7.0,24,0.00,,---,0.00,VWS V14.01,2015-04-27 23:26:00,
2015-04-27 16:27:00,61.1,24.1,29.05,ENE,74,2.0,5.0,24,0.00,,---,0.00,VWS V14.01,2015-04-27 23:27:00,
2015-04-27 16:28:00,61.1,24.1,29.05,ENE,75,2.0,5.0,24,0.00,,---,0.00,VWS V14.01,2015-04-27 23:28:00,
2015-04-27 16:29:00,61.1,24.1,29.05,ENE,75,2.0,5.0,24,0.00,,---,0.00,VWS V14.01,2015-04-27 23:29:00,
2015-04-27 16:30:00,61.1,24.1,29.05,ENE,75,1.0,4.0,24,0.00,,---,0.00,VWS V14.01,2015-04-27 23:30:00,
2015-04-27 16:31:00,61.0,24.0,29.05,ENE,76,4.0,5.0,24,0.00,,---,0.00,VWS V14.01,2015-04-27 23:31:00,
2015-04-27 16:32:00,60.9,23.9,29.05,ENE,73,6.0,6.0,24,0.00,,---,0.00,VWS V14.01,2015-04-27 23:32:00,
2015-04-27 16:33:00,60.9,23.9,29.05,ENE,71,3.0,6.0,24,0.00,,---,0.00,VWS V14.01,2015-04-27 23:33:00,
2015-04-27 16:34:00,60.9,23.9,29.05,ENE,75,4.0,6.0,24,0.00,,---,0.00,VWS V14.01,2015-04-27 23:34:00,
2015-04-27 16:35:00,60.9,23.9,29.05,East,88,1.0,5.0,24,0.00,,---,0.00,VWS V14.01,2015-04-27 23:35:00,
2015-04-27 16:36:00,60.8,23.8,29.05,East,88,1.0,5.0,24,0.00,,---,0.00,VWS V14.01,2015-04-27 23:36:00,
2015-04-27 16:37:00,60.8,23.8,29.05,ENE,76,3.0,4.0,24,0.00,,---,0.00,VWS V14.01,2015-04-27 23:37:00,
2015-04-27 16:38:00,60.7,24.7,29.05,ENE,75,1.0,4.0,25,0.00,,---,0.00,VWS V14.01,2015-04-27 23:38:00,
2015-04-27 16:39:00,60.7,24.7,29.05,ENE,78,3.0,4.0,25,0.00,,---,0.00,VWS V14.01,2015-04-27 23:39:00,
2015-04-27 16:40:00,60.6,24.6,29.05,East,79,3.0,4.0,25,0.00,,---,0.00,VWS V14.01,2015-04-27 23:40:00,
2015-04-27 16:41:00,60.6,24.6,29.05,East,93,4.0,6.0,25,0.00,,---,0.00,VWS V14.01,2015-04-27 23:41:00,
2015-04-27 16:42:00,60.5,24.5,29.05,East,97,4.0,6.0,25,0.00,,---,0.00,VWS V14.01,2015-04-27 23:42:00,
2015-04-27 16:43:00,60.5,24.5,29.05,East,101,4.0,7.0,25,0.00,,---,0.00,VWS V14.01,2015-04-27 23:43:00,
2015-04-27 16:44:00,60.4,24.4,29.05,East,94,7.0,7.0,25,0.00,,---,0.00,VWS V14.01,2015-04-27 23:44:00,
2015-04-27 16:45:00,60.4,24.4,29.05,East,80,2.0,7.0,25,0.00,,---,0.00,VWS V14.01,2015-04-27 23:45:00,
2015-04-27 16:46:00,60.3,24.4,29.05,East,84,3.0,7.0,25,0.00,,---,0.00,VWS V14.01,2015-04-27 23:46:00,
2015-04-27 16:47:00,60.3,24.4,29.05,East,87,2.0,5.0,25,0.00,,---,0.00,VWS V14.01,2015-04-27 23:47:00,
2015-04-27 16:48:00,60.3,24.4,29.05,East,94,6.0,6.0,25,0.00,,---,0.00,VWS V14.01,2015-04-27 23:48:00,
2015-04-27 16:49:00,60.2,24.3,29.05,East,87,3.0,6.0,25,0.00,,---,0.00,VWS V14.01,2015-04-27 23:49:00,
2015-04-27 16:50:00,60.2,24.3,29.05,East,85,5.0,6.0,25,0.00,,---,0.00,VWS V14.01,2015-04-27 23:50:00,
2015-04-27 16:51:00,60.1,24.2,29.05,East,98,4.0,5.0,25,0.00,,---,0.00,VWS V14.01,2015-04-27 23:51:00,
2015-04-27 16:52:00,60.1,25.1,29.05,East,98,2.0,5.0,26,0.00,,---,0.00,VWS V14.01,2015-04-27 23:52:00,
2015-04-27 16:53:00,60.0,25.0,29.05,East,97,2.0,5.0,26,0.00,,---,0.00,VWS V14.01,2015-04-27 23:53:00,
2015-04-27 16:54:00,60.0,25.0,29.05,East,88,4.0,4.0,26,0.00,,---,0.00,VWS V14.01,2015-04-27 23:54:00,
2015-04-27 16:55:00,60.0,25.0,29.05,East,82,2.0,4.0,26,0.00,,---,0.00,VWS V14.01,2015-04-27 23:55:00,
2015-04-27 16:56:00,59.9,25.0,29.05,East,81,2.0,4.0,26,0.00,,---,0.00,VWS V14.01,2015-04-27 23:56:00,
2015-04-27 16:57:00,59.9,25.0,29.05,East,82,2.0,4.0,26,0.00,,---,0.00,VWS V14.01,2015-04-27 23:57:00,
2015-04-27 16:58:00,59.9,25.0,29.05,East,82,4.0,4.0,26,0.00,,---,0.00,VWS V14.01,2015-04-27 23:58:00,
2015-04-27 16:59:00,59.8,24.9,29.05,East,82,1.0,4.0,26,0.00,,---,0.00,VWS V14.01,2015-04-27 23:59:00,
2015-04-27 17:00:00,59.7,24.8,29.05,East,81,4.0,4.0,26,0.00,,---,0.00,VWS V14.01,2015-04-28 00:00:00,
2015-04-27 17:01:00,59.7,24.8,29.05,East,81,3.0,4.0,26,0.00,,---,0.00,VWS V14.01,2015-04-28 00:01:00,
2015-04-27 17:02:00,59.6,24.7,29.05,East,81,1.0,4.0,26,0.00,,---,0.00,VWS V14.01,2015-04-28 00:02:00,
2015-04-27 17:03:00,59.6,24.7,29.05,ENE,77,4.0,4.0,26,0.00,,---,0.00,VWS V14.01,2015-04-28 00:03:00,
2015-04-27 17:04:00,59.5,24.6,29.05,ENE,78,4.0,5.0,26,0.00,,---,0.00,VWS V14.01,2015-04-28 00:04:00,
2015-04-27 17:05:00,59.5,24.6,29.05,ENE,78,2.0,5.0,26,0.00,,---,0.00,VWS V14.01,2015-04-28 00:05:00,
2015-04-27 17:06:00,59.4,24.5,29.05,East,79,2.0,4.0,26,0.00,,---,0.00,VWS V14.01,2015-04-28 00:06:00,
2015-04-27 17:07:00,59.4,24.5,29.06,East,79,2.0,4.0,26,0.00,,---,0.00,VWS V14.01,2015-04-28 00:07:00,
2015-04-27 17:08:00,59.3,24.4,29.06,East,80,3.0,5.0,26,0.00,,---,0.00,VWS V14.01,2015-04-28 00:08:00,
2015-04-27 17:09:00,59.2,24.4,29.06,East,86,4.0,5.0,26,0.00,,---,0.00,VWS V14.01,2015-04-28 00:09:00,
2015-04-27 17:10:00,59.2,24.4,29.06,East,88,3.0,5.0,26,0.00,,---,0.00,VWS V14.01,2015-04-28 00:10:00,
2015-04-27 17:11:00,66.4,22.9,29.06,SSE,167,1.0,5.0,19,0.00,,---,0.00,VWS V14.01,2015-04-28 00:11:00,
2015-04-27 17:12:00,59.1,25.2,29.06,East,87,4.0,4.0,27,0.00,,---,0.00,VWS V14.01,2015-04-28 00:12:00,
2015-04-27 17:13:00,59.0,25.1,29.06,East,88,3.0,4.0,27,0.00,,---,0.00,VWS V14.01,2015-04-28 00:13:00,
2015-04-27 17:14:00,59.0,25.1,29.06,East,88,2.0,4.0,27,0.00,,---,0.00,VWS V14.01,2015-04-28 00:14:00,
2015-04-27 17:15:00,59.0,25.1,29.06,East,91,4.0,4.0,27,0.00,,---,0.00,VWS V14.01,2015-04-28 00:15:00,
2015-04-27 17:16:00,58.9,25.0,29.06,ENE,75,3.0,5.0,27,0.00,,---,0.00,VWS V14.01,2015-04-28 00:16:00,
2015-04-27 17:17:00,58.9,25.0,29.06,East,98,4.0,5.0,27,0.00,,---,0.00,VWS V14.01,2015-04-28 00:17:00,
2015-04-27 17:18:00,58.9,25.0,29.06,East,98,4.0,5.0,27,0.00,,---,0.00,VWS V14.01,2015-04-28 00:18:00,
2015-04-27 17:19:00,58.9,25.0,29.06,East,98,0.0,4.0,27,0.00,,---,0.00,VWS V14.01,2015-04-28 00:19:00,
2015-04-27 17:20:00,58.9,25.0,29.06,East,98,0.0,4.0,27,0.00,,---,0.00,VWS V14.01,2015-04-28 00:20:00,
2015-04-27 17:21:00,58.9,25.0,29.06,East,98,0.0,2.0,27,0.00,,---,0.00,VWS V14.01,2015-04-28 00:21:00,
2015-04-27 17:22:00,58.8,24.9,29.06,East,98,0.0,0.0,27,0.00,,---,0.00,VWS V14.01,2015-04-28 00:22:00,
2015-04-27 17:23:00,58.8,24.9,29.06,East,98,1.0,1.0,27,0.00,,---,0.00,VWS V14.01,2015-04-28 00:23:00,
2015-04-27 17:24:00,58.8,24.9,29.06,East,98,0.0,2.0,27,0.00,,---,0.00,VWS V14.01,2015-04-28 00:24:00,
2015-04-27 17:25:00,58.7,24.8,29.06,East,98,0.0,2.0,27,0.00,,---,0.00,VWS V14.01,2015-04-28 00:25:00,
2015-04-27 17:26:00,58.7,24.8,29.06,East,98,0.0,1.0,27,0.00,,---,0.00,VWS V14.01,2015-04-28 00:26:00,
2015-04-27 17:27:00,58.7,24.8,29.06,East,98,2.0,2.0,27,0.00,,---,0.00,VWS V14.01,2015-04-28 00:27:00,
2015-04-27 17:28:00,58.6,25.6,29.06,South,173,1.0,2.0,28,0.00,,---,0.00,VWS V14.01,2015-04-28 00:28:00,
2015-04-27 17:29:00,58.6,25.6,29.06,South,173,0.0,2.0,28,0.00,,---,0.00,VWS V14.01,2015-04-28 00:29:00,
2015-04-27 17:30:00,58.5,25.5,29.06,South,173,0.0,2.0,28,0.00,,---,0.00,VWS V14.01,2015-04-28 00:30:00,
2015-04-27 17:31:00,58.5,25.5,29.06,South,173,0.0,1.0,28,0.00,,---,0.00,VWS V14.01,2015-04-28 00:31:00,
2015-04-27 17:32:00,58.5,25.5,29.06,South,173,0.0,0.0,28,0.00,,---,0.00,VWS V14.01,2015-04-28 00:32:00,
2015-04-27 17:33:00,58.5,25.5,29.06,South,173,0.0,0.0,28,0.00,,---,0.00,VWS V14.01,2015-04-28 00:33:00,
2015-04-27 17:34:00,58.5,25.5,29.06,South,173,1.0,2.0,28,0.00,,---,0.00,VWS V14.01,2015-04-28 00:34:00,
2015-04-27 17:35:00,58.4,25.5,29.06,South,173,0.0,2.0,28,0.00,,---,0.00,VWS V14.01,2015-04-28 00:35:00,
2015-04-27 17:36:00,58.4,25.5,29.06,South,173,2.0,2.0,28,0.00,,---,0.00,VWS V14.01,2015-04-28 00:36:00,
2015-04-27 17:37:00,58.3,25.4,29.06,South,173,0.0,2.0,28,0.00,,---,0.00,VWS V14.01,2015-04-28 00:37:00,
2015-04-27 17:38:00,58.3,25.4,29.06,South,178,0.0,4.0,28,0.00,,---,0.00,VWS V14.01,2015-04-28 00:38:00,
2015-04-27 17:39:00,58.2,25.3,29.07,South,178,0.0,4.0,28,0.00,,---,0.00,VWS V14.01,2015-04-28 00:39:00,
2015-04-27 17:40:00,58.2,25.3,29.07,South,178,0.0,4.0,28,0.00,,---,0.00,VWS V14.01,2015-04-28 00:40:00,
2015-04-27 17:41:00,58.1,25.2,29.07,South,178,1.0,1.0,28,0.00,,---,0.00,VWS V14.01,2015-04-28 00:41:00,
2015-04-27 17:42:00,58.1,25.2,29.07,South,178,0.0,2.0,28,0.00,,---,0.00,VWS V14.01,2015-04-28 00:42:00,
2015-04-27 17:43:00,58.0,25.1,29.07,South,178,0.0,2.0,28,0.00,,---,0.00,VWS V14.01,2015-04-28 00:43:00,
2015-04-27 17:44:00,57.9,25.0,29.07,South,178,0.0,1.0,28,0.00,,---,0.00,VWS V14.01,2015-04-28 00:44:00,
2015-04-27 17:45:00,57.9,25.0,29.07,South,178,0.0,0.0,28,0.00,,---,0.00,VWS V14.01,2015-04-28 00:45:00,
2015-04-27 17:46:00,57.8,24.9,29.07,South,178,0.0,0.0,28,0.00,,---,0.00,VWS V14.01,2015-04-28 00:46:00,
2015-04-27 17:47:00,57.7,24.8,29.07,South,178,0.0,0.0,28,0.00,,---,0.00,VWS V14.01,2015-04-28 00:47:00,
2015-04-27 17:48:00,57.7,24.8,29.07,South,178,0.0,0.0,28,0.00,,---,0.00,VWS V14.01,2015-04-28 00:48:00,
2015-04-27 17:49:00,57.7,24.8,29.07,South,178,0.0,0.0,28,0.00,,---,0.00,VWS V14.01,2015-04-28 00:49:00,
2015-04-27 17:50:00,57.6,24.8,29.07,South,178,0.0,0.0,28,0.00,,---,0.00,VWS V14.01,2015-04-28 00:50:00,
2015-04-27 17:51:00,57.5,24.7,29.07,South,178,0.0,0.0,28,0.00,,---,0.00,VWS V14.01,2015-04-28 00:51:00,
2015-04-27 17:52:00,57.5,24.7,29.07,South,178,0.0,0.0,28,0.00,,---,0.00,VWS V14.01,2015-04-28 00:52:00,
2015-04-27 17:53:00,57.4,24.6,29.07,South,178,0.0,0.0,28,0.00,,---,0.00,VWS V14.01,2015-04-28 00:53:00,
2015-04-27 17:54:00,57.3,24.5,29.07,South,178,0.0,0.0,28,0.00,,---,0.00,VWS V14.01,2015-04-28 00:54:00,
2015-04-27 17:55:00,57.2,24.4,29.07,South,178,0.0,0.0,28,0.00,,---,0.00,VWS V14.01,2015-04-28 00:55:00,
2015-04-27 17:56:00,57.1,24.3,29.07,South,178,0.0,0.0,28,0.00,,---,0.00,VWS V14.01,2015-04-28 00:56:00,
2015-04-27 17:57:00,57.0,24.2,29.07,South,178,0.0,0.0,28,0.00,,---,0.00,VWS V14.01,2015-04-28 00:57:00,
2015-04-27 17:58:00,57.0,24.2,29.07,South,178,0.0,0.0,28,0.00,,---,0.00,VWS V14.01,2015-04-28 00:58:00,
2015-04-27 17:59:00,57.0,24.2,29.07,South,178,0.0,0.0,28,0.00,,---,0.00,VWS V14.01,2015-04-28 00:59:00,
2015-04-27 18:00:00,56.9,24.1,29.07,South,178,0.0,0.0,28,0.00,,---,0.00,VWS V14.01,2015-04-28 01:00:00,
2015-04-27 18:01:00,56.8,24.1,29.07,South,178,0.0,1.0,28,0.00,,---,0.00,VWS V14.01,2015-04-28 01:01:00,
2015-04-27 18:02:00,56.8,24.1,29.07,South,178,0.0,1.0,28,0.00,,---,0.00,VWS V14.01,2015-04-28 01:02:00,
2015-04-27 18:03:00,56.7,24.8,29.07,South,178,0.0,1.0,29,0.00,,---,0.00,VWS V14.01,2015-04-28 01:03:00,
2015-04-27 18:04:00,56.7,24.0,29.07,South,178,0.0,1.0,28,0.00,,---,0.00,VWS V14.01,2015-04-28 01:04:00,
2015-04-27 18:05:00,56.6,23.9,29.07,South,178,0.0,1.0,28,0.00,,---,0.00,VWS V14.01,2015-04-28 01:05:00,
2015-04-27 18:06:00,56.5,23.8,29.07,South,178,0.0,1.0,28,0.00,,---,0.00,VWS V14.01,2015-04-28 01:06:00,
2015-04-27 18:07:00,56.4,23.7,29.07,South,178,0.0,1.0,28,0.00,,---,0.00,VWS V14.01,2015-04-28 01:07:00,
2015-04-27 18:08:00,56.4,23.7,29.07,South,179,0.0,2.0,28,0.00,,---,0.00,VWS V14.01,2015-04-28 01:08:00,
2015-04-27 18:09:00,56.3,23.6,29.07,South,179,1.0,2.0,28,0.00,,---,0.00,VWS V14.01,2015-04-28 01:09:00,
2015-04-27 18:10:00,56.2,24.4,29.07,South,179,0.0,2.0,29,0.00,,---,0.00,VWS V14.01,2015-04-28 01:10:00,
2015-04-27 18:11:00,56.2,24.4,29.07,South,179,0.0,1.0,29,0.00,,---,0.00,VWS V14.01,2015-04-28 01:11:00,
2015-04-27 18:12:00,56.1,24.3,29.07,South,179,0.0,1.0,29,0.00,,---,0.00,VWS V14.01,2015-04-28 01:12:00,
2015-04-27 18:13:00,56.0,24.2,29.07,South,179,1.0,1.0,29,0.00,,---,0.00,VWS V14.01,2015-04-28 01:13:00,
2015-04-27 18:14:00,56.0,24.2,29.07,South,179,0.0,2.0,29,0.00,,---,0.00,VWS V14.01,2015-04-28 01:14:00,
2015-04-27 18:15:00,55.9,24.1,29.07,South,179,0.0,2.0,29,0.00,,---,0.00,VWS V14.01,2015-04-28 01:15:00,
2015-04-27 18:16:00,55.9,24.1,29.07,South,179,0.0,2.0,29,0.00,,---,0.00,VWS V14.01,2015-04-28 01:16:00,
2015-04-27 18:17:00,55.8,24.0,29.07,South,179,0.0,2.0,29,0.00,,---,0.00,VWS V14.01,2015-04-28 01:17:00,
2015-04-27 18:18:00,55.8,24.0,29.07,South,179,0.0,0.0,29,0.00,,---,0.00,VWS V14.01,2015-04-28 01:18:00,
2015-04-27 18:19:00,55.8,24.0,29.07,South,179,0.0,1.0,29,0.00,,---,0.00,VWS V14.01,2015-04-28 01:19:00,
2015-04-27 18:20:00,55.7,24.0,29.07,South,179,2.0,2.0,29,0.00,,---,0.00,VWS V14.01,2015-04-28 01:20:00,
2015-04-27 18:21:00,55.7,24.0,29.07,South,179,1.0,2.0,29,0.00,,---,0.00,VWS V14.01,2015-04-28 01:21:00,
2015-04-27 18:22:00,55.6,24.7,29.07,South,179,0.0,2.0,30,0.00,,---,0.00,VWS V14.01,2015-04-28 01:22:00,
2015-04-27 18:23:00,55.6,23.9,29.07,South,179,0.0,1.0,29,0.00,,---,0.00,VWS V14.01,2015-04-28 01:23:00,
2015-04-27 18:24:00,55.5,24.6,29.07,South,179,0.0,1.0,30,0.00,,---,0.00,VWS V14.01,2015-04-28 01:24:00,
2015-04-27 18:25:00,55.5,23.8,29.07,South,179,0.0,1.0,29,0.00,,---,0.00,VWS V14.01,2015-04-28 01:25:00,
2015-04-27 18:26:00,55.5,23.8,29.07,South,179,0.0,1.0,29,0.00,,---,0.00,VWS V14.01,2015-04-28 01:26:00,
2015-04-27 18:27:00,55.4,24.5,29.07,South,179,0.0,1.0,30,0.00,,---,0.00,VWS V14.01,2015-04-28 01:27:00,
2015-04-27 18:28:00,55.4,24.5,29.07,South,179,0.0,0.0,30,0.00,,---,0.00,VWS V14.01,2015-04-28 01:28:00,
2015-04-27 18:29:00,55.4,24.5,29.07,South,179,0.0,0.0,30,0.00,,---,0.00,VWS V14.01,2015-04-28 01:29:00,
2015-04-27 18:30:00,55.3,25.2,29.07,South,179,2.0,2.0,31,0.00,,---,0.00,VWS V14.01,2015-04-28 01:30:00,
2015-04-27 18:31:00,55.3,25.2,29.07,South,179,1.0,2.0,31,0.00,,---,0.00,VWS V14.01,2015-04-28 01:31:00,
2015-04-27 18:32:00,55.2,25.1,29.07,South,179,0.0,2.0,31,0.00,,---,0.00,VWS V14.01,2015-04-28 01:32:00,
2015-04-27 18:33:00,55.1,25.0,29.07,South,179,1.0,2.0,31,0.00,,---,0.00,VWS V14.01,2015-04-28 01:33:00,
2015-04-27 18:34:00,55.0,24.9,29.07,South,179,1.0,2.0,31,0.00,,---,0.00,VWS V14.01,2015-04-28 01:34:00,
2015-04-27 18:35:00,54.8,24.8,29.07,South,179,0.0,1.0,31,0.00,,---,0.00,VWS V14.01,2015-04-28 01:35:00,
2015-04-27 18:36:00,54.8,24.8,29.07,South,179,1.0,2.0,31,0.00,,---,0.00,VWS V14.01,2015-04-28 01:36:00,
2015-04-27 18:37:00,54.7,24.7,29.07,South,179,0.0,2.0,31,0.00,,---,0.00,VWS V14.01,2015-04-28 01:37:00,
2015-04-27 18:38:00,54.6,24.6,29.07,South,179,0.0,1.0,31,0.00,,---,0.00,VWS V14.01,2015-04-28 01:38:00,
2015-04-27 18:39:00,54.5,24.5,29.07,South,179,0.0,1.0,31,0.00,,---,0.00,VWS V14.01,2015-04-28 01:39:00,
2015-04-27 18:40:00,54.4,24.4,29.07,South,179,1.0,1.0,31,0.00,,---,0.00,VWS V14.01,2015-04-28 01:40:00,
2015-04-27 18:41:00,54.4,24.4,29.07,South,179,1.0,1.0,31,0.00,,---,0.00,VWS V14.01,2015-04-28 01:41:00,
2015-04-27 18:42:00,54.3,24.3,29.07,South,179,0.0,1.0,31,0.00,,---,0.00,VWS V14.01,2015-04-28 01:42:00,
2015-04-27 18:43:00,54.2,24.2,29.07,South,179,1.0,2.0,31,0.00,,---,0.00,VWS V14.01,2015-04-28 01:43:00,
2015-04-27 18:44:00,54.2,24.2,29.07,South,179,1.0,2.0,31,0.00,,---,0.00,VWS V14.01,2015-04-28 01:44:00,
2015-04-27 18:45:00,54.1,24.9,29.07,South,179,2.0,2.0,32,0.00,,---,0.00,VWS V14.01,2015-04-28 01:45:00,
2015-04-27 18:46:00,54.0,24.8,29.07,South,179,2.0,2.0,32,0.00,,---,0.00,VWS V14.01,2015-04-28 01:46:00,
2015-04-27 18:47:00,53.9,24.7,29.07,South,179,1.0,2.0,32,0.00,,---,0.00,VWS V14.01,2015-04-28 01:47:00,
2015-04-27 18:48:00,53.8,24.6,29.07,South,179,2.0,2.0,32,0.00,,---,0.00,VWS V14.01,2015-04-28 01:48:00,
2015-04-27 18:49:00,53.7,24.6,29.07,South,179,1.0,2.0,32,0.00,,---,0.00,VWS V14.01,2015-04-28 01:49:00,
2015-04-27 18:50:00,53.6,24.5,29.07,South,179,0.0,2.0,32,0.00,,---,0.00,VWS V14.01,2015-04-28 01:50:00,
2015-04-27 18:51:00,53.6,24.5,29.07,South,179,0.0,1.0,32,0.00,,---,0.00,VWS V14.01,2015-04-28 01:51:00,
2015-04-27 18:52:00,53.5,24.4,29.07,South,179,0.0,0.0,32,0.00,,---,0.00,VWS V14.01,2015-04-28 01:52:00,
2015-04-27 18:53:00,53.5,24.4,29.07,South,179,0.0,0.0,32,0.00,,---,0.00,VWS V14.01,2015-04-28 01:53:00,
2015-04-27 18:54:00,53.4,24.3,29.07,South,179,2.0,2.0,32,0.00,,---,0.00,VWS V14.01,2015-04-28 01:54:00,
2015-04-27 18:55:00,53.3,25.0,29.07,South,179,2.0,2.0,33,0.00,,---,0.00,VWS V14.01,2015-04-28 01:55:00,
2015-04-27 18:56:00,53.2,24.9,29.07,South,179,2.0,4.0,33,0.00,,---,0.00,VWS V14.01,2015-04-28 01:56:00,
2015-04-27 18:57:00,53.2,24.9,29.07,South,179,4.0,4.0,33,0.00,,---,0.00,VWS V14.01,2015-04-28 01:57:00,
2015-04-27 18:58:00,53.1,24.8,29.07,South,180,2.0,4.0,33,0.00,,---,0.00,VWS V14.01,2015-04-28 01:58:00,
2015-04-27 18:59:00,53.0,24.7,29.07,WNW,286,2.0,4.0,33,0.00,,---,0.00,VWS V14.01,2015-04-28 01:59:00,
2015-04-27 19:00:00,53.0,24.7,29.07,WNW,286,3.0,3.0,33,0.00,,---,0.00,VWS V14.01,2015-04-28 02:00:00,
2015-04-27 19:01:00,52.9,24.6,29.07,WNW,290,2.0,3.0,33,0.00,,---,0.00,VWS V14.01,2015-04-28 02:01:00,
2015-04-27 19:02:00,52.9,24.6,29.07,WNW,290,1.0,3.0,33,0.00,,---,0.00,VWS V14.01,2015-04-28 02:02:00,
2015-04-27 19:03:00,52.8,24.5,29.07,WNW,290,2.0,3.0,33,0.00,,---,0.00,VWS V14.01,2015-04-28 02:03:00,
2015-04-27 19:04:00,52.8,24.5,29.07,WNW,290,3.0,3.0,33,0.00,,---,0.00,VWS V14.01,2015-04-28 02:04:00,
2015-04-27 19:05:00,52.8,24.5,29.07,WNW,293,3.0,4.0,33,0.00,,---,0.00,VWS V14.01,2015-04-28 02:05:00,
2015-04-27 19:06:00,52.8,24.5,29.07,WNW,293,2.0,4.0,33,0.00,,---,0.00,VWS V14.01,2015-04-28 02:06:00,
2015-04-27 19:07:00,52.8,24.5,29.07,WNW,293,1.0,3.0,33,0.00,,---,0.00,VWS V14.01,2015-04-28 02:07:00,
2015-04-27 19:08:00,52.7,24.4,29.07,WNW,293,1.0,2.0,33,0.00,,---,0.00,VWS V14.01,2015-04-28 02:08:00,
2015-04-27 19:09:00,52.7,24.4,29.07,WNW,293,0.0,2.0,33,0.00,,---,0.00,VWS V14.01,2015-04-28 02:09:00,
2015-04-27 19:10:00,52.7,24.4,29.07,WNW,293,0.0,2.0,33,0.00,,---,0.00,VWS V14.01,2015-04-28 02:10:00,
2015-04-27 19:11:00,52.7,24.4,29.07,WNW,293,0.0,1.0,33,0.00,,---,0.00,VWS V14.01,2015-04-28 02:11:00,
2015-04-27 19:12:00,52.7,24.4,29.07,WNW,293,2.0,2.0,33,0.00,,---,0.00,VWS V14.01,2015-04-28 02:12:00,
2015-04-27 19:13:00,52.6,24.3,29.07,WNW,293,1.0,2.0,33,0.00,,---,0.00,VWS V14.01,2015-04-28 02:13:00,
2015-04-27 19:14:00,52.7,24.4,29.07,WNW,293,2.0,2.0,33,0.00,,---,0.00,VWS V14.01,2015-04-28 02:14:00,
2015-04-27 19:15:00,52.6,24.3,29.07,WNW,293,2.0,2.0,33,0.00,,---,0.00,VWS V14.01,2015-04-28 02:15:00,
2015-04-27 19:16:00,52.6,24.3,29.07,WNW,293,2.0,3.0,33,0.00,,---,0.00,VWS V14.01,2015-04-28 02:16:00,
2015-04-27 19:17:00,52.5,24.2,29.07,WNW,293,3.0,3.0,33,0.00,,---,0.00,VWS V14.01,2015-04-28 02:17:00,
2015-04-27 19:18:00,52.5,24.2,29.07,WNW,293,3.0,3.0,33,0.00,,---,0.00,VWS V14.01,2015-04-28 02:18:00,
2015-04-27 19:19:00,52.5,24.2,29.07,WNW,293,3.0,3.0,33,0.00,,---,0.00,VWS V14.01,2015-04-28 02:19:00,
2015-04-27 19:20:00,52.5,24.2,29.07,WNW,293,1.0,3.0,33,0.00,,---,0.00,VWS V14.01,2015-04-28 02:20:00,
2015-04-27 19:21:00,52.4,24.2,29.07,WNW,293,2.0,3.0,33,0.00,,---,0.00,VWS V14.01,2015-04-28 02:21:00,
2015-04-27 19:22:00,52.4,24.2,29.07,WNW,293,1.0,2.0,33,0.00,,---,0.00,VWS V14.01,2015-04-28 02:22:00,
2015-04-27 19:55:00,61.3,23.2,29.04,ESE,109,4.0,5.0,23,0.00,,---,0.00,VWS V14.01,2015-04-28 02:55:00,
2015-04-27 21:26:00,57.3,24.5,29.07,South,178,0.0,0.0,28,0.00,,---,0.00,VWS V14.01,2015-04-28 04:26:00,